<?xml version="1.0" encoding="UTF-8" standalone="no" ?>
<gpx xmlns="http://www.topografix.com/GPX/1/1" xmlns:xsi="http://www.w3.org/2001/XMLSchema-instance" xsi:schemaLocation="http://www.topografix.com/GPX/1/1 http://www.topografix.com/GPX/1/1/gpx.xsd" version="1.1" creator="VisuGPX - https://www.visugpx.com">
  <metadata>
    <name>2011-02-27 - MERCUREY and GADOUE</name>
    <desc><![CDATA[Sortie VTT du 2011-02-27 - MERCUREY ... beaucoup trop de gadoue à cette période de l\'année !]]></desc>
  </metadata>
  <trk>
    <name><![CDATA[2011-02-27 - MERCUREY and GADOUE]]></name>
    <desc><![CDATA[27 févr. 2011  8:29 am]]></desc>
    <trkseg>
      <trkpt lat="46.83282" lon="4.72428">
        <ele>219.129588</ele>
        <time>2011-02-27T07:29:18Z</time>
      </trkpt>
      <trkpt lat="46.83286" lon="4.72453">
        <ele>219.082352</ele>
        <time>2011-02-27T07:35:19Z</time>
      </trkpt>
      <trkpt lat="46.83293" lon="4.72463">
        <ele>219.06473</ele>
        <time>2011-02-27T07:35:23Z</time>
      </trkpt>
      <trkpt lat="46.83302" lon="4.72469">
        <ele>219.064937</ele>
        <time>2011-02-27T07:35:28Z</time>
      </trkpt>
      <trkpt lat="46.83311" lon="4.72473">
        <ele>219.872354</ele>
        <time>2011-02-27T07:35:31Z</time>
      </trkpt>
      <trkpt lat="46.8332" lon="4.72474">
        <ele>221.965667</ele>
        <time>2011-02-27T07:35:34Z</time>
      </trkpt>
      <trkpt lat="46.83329" lon="4.72476">
        <ele>224.111957</ele>
        <time>2011-02-27T07:35:37Z</time>
      </trkpt>
      <trkpt lat="46.8334" lon="4.7248">
        <ele>225.129464</ele>
        <time>2011-02-27T07:35:40Z</time>
      </trkpt>
      <trkpt lat="46.83351" lon="4.72485">
        <ele>225.256687</ele>
        <time>2011-02-27T07:35:43Z</time>
      </trkpt>
      <trkpt lat="46.83362" lon="4.72491">
        <ele>224.988869</ele>
        <time>2011-02-27T07:35:46Z</time>
      </trkpt>
      <trkpt lat="46.83372" lon="4.72496">
        <ele>224.60551</ele>
        <time>2011-02-27T07:35:49Z</time>
      </trkpt>
      <trkpt lat="46.83382" lon="4.725">
        <ele>224.114869</ele>
        <time>2011-02-27T07:35:52Z</time>
      </trkpt>
      <trkpt lat="46.83393" lon="4.72505">
        <ele>223.512538</ele>
        <time>2011-02-27T07:35:55Z</time>
      </trkpt>
      <trkpt lat="46.83404" lon="4.72508">
        <ele>222.979792</ele>
        <time>2011-02-27T07:35:58Z</time>
      </trkpt>
      <trkpt lat="46.83414" lon="4.72512">
        <ele>222.679603</ele>
        <time>2011-02-27T07:36:01Z</time>
      </trkpt>
      <trkpt lat="46.83424" lon="4.72516">
        <ele>222.583694</ele>
        <time>2011-02-27T07:36:04Z</time>
      </trkpt>
      <trkpt lat="46.83436" lon="4.72521">
        <ele>222.584793</ele>
        <time>2011-02-27T07:36:07Z</time>
      </trkpt>
      <trkpt lat="46.83447" lon="4.72525">
        <ele>222.608398</ele>
        <time>2011-02-27T07:36:10Z</time>
      </trkpt>
      <trkpt lat="46.83458" lon="4.7253">
        <ele>222.62476</ele>
        <time>2011-02-27T07:36:13Z</time>
      </trkpt>
      <trkpt lat="46.83469" lon="4.72534">
        <ele>222.630338</ele>
        <time>2011-02-27T07:36:16Z</time>
      </trkpt>
      <trkpt lat="46.83478" lon="4.72537">
        <ele>222.634454</ele>
        <time>2011-02-27T07:36:19Z</time>
      </trkpt>
      <trkpt lat="46.83489" lon="4.7254">
        <ele>222.652426</ele>
        <time>2011-02-27T07:36:22Z</time>
      </trkpt>
      <trkpt lat="46.835" lon="4.72543">
        <ele>222.692359</ele>
        <time>2011-02-27T07:36:25Z</time>
      </trkpt>
      <trkpt lat="46.8351" lon="4.72546">
        <ele>222.748409</ele>
        <time>2011-02-27T07:36:28Z</time>
      </trkpt>
      <trkpt lat="46.83521" lon="4.72549">
        <ele>222.808324</ele>
        <time>2011-02-27T07:36:31Z</time>
      </trkpt>
      <trkpt lat="46.83533" lon="4.72553">
        <ele>222.862318</ele>
        <time>2011-02-27T07:36:34Z</time>
      </trkpt>
      <trkpt lat="46.83544" lon="4.72557">
        <ele>222.910036</ele>
        <time>2011-02-27T07:36:37Z</time>
      </trkpt>
      <trkpt lat="46.83554" lon="4.72561">
        <ele>222.960578</ele>
        <time>2011-02-27T07:36:40Z</time>
      </trkpt>
      <trkpt lat="46.83565" lon="4.72566">
        <ele>223.06595</ele>
        <time>2011-02-27T07:36:43Z</time>
      </trkpt>
      <trkpt lat="46.83576" lon="4.72572">
        <ele>223.250056</ele>
        <time>2011-02-27T07:36:46Z</time>
      </trkpt>
      <trkpt lat="46.83586" lon="4.7258">
        <ele>223.428245</ele>
        <time>2011-02-27T07:36:49Z</time>
      </trkpt>
      <trkpt lat="46.83596" lon="4.72588">
        <ele>223.519662</ele>
        <time>2011-02-27T07:36:52Z</time>
      </trkpt>
      <trkpt lat="46.83605" lon="4.72596">
        <ele>223.542399</ele>
        <time>2011-02-27T07:36:55Z</time>
      </trkpt>
      <trkpt lat="46.83615" lon="4.72603">
        <ele>223.538224</ele>
        <time>2011-02-27T07:36:58Z</time>
      </trkpt>
      <trkpt lat="46.83626" lon="4.7261">
        <ele>223.530284</ele>
        <time>2011-02-27T07:37:01Z</time>
      </trkpt>
      <trkpt lat="46.83636" lon="4.72617">
        <ele>223.53417</ele>
        <time>2011-02-27T07:37:04Z</time>
      </trkpt>
      <trkpt lat="46.83646" lon="4.72625">
        <ele>223.589631</ele>
        <time>2011-02-27T07:37:07Z</time>
      </trkpt>
      <trkpt lat="46.83657" lon="4.72633">
        <ele>223.71841</ele>
        <time>2011-02-27T07:37:10Z</time>
      </trkpt>
      <trkpt lat="46.83666" lon="4.72641">
        <ele>223.915569</ele>
        <time>2011-02-27T07:37:13Z</time>
      </trkpt>
      <trkpt lat="46.83674" lon="4.72648">
        <ele>224.198036</ele>
        <time>2011-02-27T07:37:16Z</time>
      </trkpt>
      <trkpt lat="46.83683" lon="4.72654">
        <ele>224.588179</ele>
        <time>2011-02-27T07:37:19Z</time>
      </trkpt>
      <trkpt lat="46.83692" lon="4.72661">
        <ele>225.069489</ele>
        <time>2011-02-27T07:37:22Z</time>
      </trkpt>
      <trkpt lat="46.837" lon="4.72668">
        <ele>225.540354</ele>
        <time>2011-02-27T07:37:25Z</time>
      </trkpt>
      <trkpt lat="46.83704" lon="4.7268">
        <ele>225.864335</ele>
        <time>2011-02-27T07:37:28Z</time>
      </trkpt>
      <trkpt lat="46.83705" lon="4.72694">
        <ele>226.032525</ele>
        <time>2011-02-27T07:37:31Z</time>
      </trkpt>
      <trkpt lat="46.837" lon="4.72707">
        <ele>226.142723</ele>
        <time>2011-02-27T07:37:34Z</time>
      </trkpt>
      <trkpt lat="46.83698" lon="4.72723">
        <ele>226.263377</ele>
        <time>2011-02-27T07:37:37Z</time>
      </trkpt>
      <trkpt lat="46.83701" lon="4.72737">
        <ele>226.404894</ele>
        <time>2011-02-27T07:37:41Z</time>
      </trkpt>
      <trkpt lat="46.83708" lon="4.72745">
        <ele>226.548424</ele>
        <time>2011-02-27T07:37:45Z</time>
      </trkpt>
      <trkpt lat="46.83718" lon="4.72751">
        <ele>226.682328</ele>
        <time>2011-02-27T07:37:50Z</time>
      </trkpt>
      <trkpt lat="46.83727" lon="4.72755">
        <ele>226.832345</ele>
        <time>2011-02-27T07:37:55Z</time>
      </trkpt>
      <trkpt lat="46.83739" lon="4.72756">
        <ele>227.045072</ele>
        <time>2011-02-27T07:38:00Z</time>
      </trkpt>
      <trkpt lat="46.83749" lon="4.72755">
        <ele>227.365039</ele>
        <time>2011-02-27T07:38:05Z</time>
      </trkpt>
      <trkpt lat="46.83759" lon="4.72755">
        <ele>227.81659</ele>
        <time>2011-02-27T07:38:09Z</time>
      </trkpt>
      <trkpt lat="46.83769" lon="4.72754">
        <ele>228.376694</ele>
        <time>2011-02-27T07:38:14Z</time>
      </trkpt>
      <trkpt lat="46.83779" lon="4.72755">
        <ele>228.988644</ele>
        <time>2011-02-27T07:38:19Z</time>
      </trkpt>
      <trkpt lat="46.83788" lon="4.72756">
        <ele>229.607632</ele>
        <time>2011-02-27T07:38:23Z</time>
      </trkpt>
      <trkpt lat="46.83798" lon="4.72758">
        <ele>230.232351</ele>
        <time>2011-02-27T07:38:28Z</time>
      </trkpt>
      <trkpt lat="46.83809" lon="4.72757">
        <ele>230.897091</ele>
        <time>2011-02-27T07:38:33Z</time>
      </trkpt>
      <trkpt lat="46.8382" lon="4.72759">
        <ele>231.590845</ele>
        <time>2011-02-27T07:38:38Z</time>
      </trkpt>
      <trkpt lat="46.83829" lon="4.72762">
        <ele>232.26776</ele>
        <time>2011-02-27T07:38:42Z</time>
      </trkpt>
      <trkpt lat="46.83839" lon="4.72767">
        <ele>232.92571</ele>
        <time>2011-02-27T07:38:47Z</time>
      </trkpt>
      <trkpt lat="46.83848" lon="4.72775">
        <ele>233.54259</ele>
        <time>2011-02-27T07:38:52Z</time>
      </trkpt>
      <trkpt lat="46.83857" lon="4.72783">
        <ele>234.054039</ele>
        <time>2011-02-27T07:38:57Z</time>
      </trkpt>
      <trkpt lat="46.83865" lon="4.72791">
        <ele>234.501182</ele>
        <time>2011-02-27T07:39:02Z</time>
      </trkpt>
      <trkpt lat="46.83873" lon="4.72799">
        <ele>235.041218</ele>
        <time>2011-02-27T07:39:07Z</time>
      </trkpt>
      <trkpt lat="46.83882" lon="4.72807">
        <ele>235.772637</ele>
        <time>2011-02-27T07:39:13Z</time>
      </trkpt>
      <trkpt lat="46.83891" lon="4.72812">
        <ele>236.672704</ele>
        <time>2011-02-27T07:39:18Z</time>
      </trkpt>
      <trkpt lat="46.839" lon="4.72814">
        <ele>237.639857</ele>
        <time>2011-02-27T07:39:23Z</time>
      </trkpt>
      <trkpt lat="46.83909" lon="4.72818">
        <ele>238.597803</ele>
        <time>2011-02-27T07:39:28Z</time>
      </trkpt>
      <trkpt lat="46.83919" lon="4.72822">
        <ele>239.546813</ele>
        <time>2011-02-27T07:39:33Z</time>
      </trkpt>
      <trkpt lat="46.83928" lon="4.72826">
        <ele>240.483186</ele>
        <time>2011-02-27T07:39:38Z</time>
      </trkpt>
      <trkpt lat="46.83937" lon="4.72833">
        <ele>241.37432</ele>
        <time>2011-02-27T07:39:44Z</time>
      </trkpt>
      <trkpt lat="46.83946" lon="4.72838">
        <ele>242.212834</ele>
        <time>2011-02-27T07:39:50Z</time>
      </trkpt>
      <trkpt lat="46.83946" lon="4.72838">
        <ele>242.900214</ele>
        <time>2011-02-27T07:40:05Z</time>
      </trkpt>
      <trkpt lat="46.83979" lon="4.72835">
        <ele>243.381552</ele>
        <time>2011-02-27T07:40:38Z</time>
      </trkpt>
      <trkpt lat="46.83988" lon="4.7283">
        <ele>243.838094</ele>
        <time>2011-02-27T07:40:52Z</time>
      </trkpt>
      <trkpt lat="46.83988" lon="4.7283">
        <ele>244.346442</ele>
        <time>2011-02-27T07:40:59Z</time>
      </trkpt>
      <trkpt lat="46.84" lon="4.72792">
        <ele>244.809969</ele>
        <time>2011-02-27T07:41:19Z</time>
      </trkpt>
      <trkpt lat="46.84005" lon="4.72781">
        <ele>245.670482</ele>
        <time>2011-02-27T07:41:24Z</time>
      </trkpt>
      <trkpt lat="46.84005" lon="4.72781">
        <ele>247.157642</ele>
        <time>2011-02-27T07:41:41Z</time>
      </trkpt>
      <trkpt lat="46.8402" lon="4.7274">
        <ele>248.664505</ele>
        <time>2011-02-27T07:42:33Z</time>
      </trkpt>
      <trkpt lat="46.8402" lon="4.7274">
        <ele>249.67639</ele>
        <time>2011-02-27T07:42:37Z</time>
      </trkpt>
      <trkpt lat="46.84026" lon="4.72701">
        <ele>250.582366</ele>
        <time>2011-02-27T07:43:14Z</time>
      </trkpt>
      <trkpt lat="46.84026" lon="4.72701">
        <ele>251.73697</ele>
        <time>2011-02-27T07:43:25Z</time>
      </trkpt>
      <trkpt lat="46.84026" lon="4.72701">
        <ele>252.538433</ele>
        <time>2011-02-27T07:43:41Z</time>
      </trkpt>
      <trkpt lat="46.84031" lon="4.72656">
        <ele>252.405023</ele>
        <time>2011-02-27T07:44:46Z</time>
      </trkpt>
      <trkpt lat="46.84035" lon="4.72645">
        <ele>253.390298</ele>
        <time>2011-02-27T07:45:02Z</time>
      </trkpt>
      <trkpt lat="46.8404" lon="4.72605">
        <ele>257.691989</ele>
        <time>2011-02-27T07:45:42Z</time>
      </trkpt>
      <trkpt lat="46.84041" lon="4.72592">
        <ele>264.603424</ele>
        <time>2011-02-27T07:45:49Z</time>
      </trkpt>
      <trkpt lat="46.84043" lon="4.72579">
        <ele>271.545387</ele>
        <time>2011-02-27T07:45:56Z</time>
      </trkpt>
      <trkpt lat="46.84044" lon="4.72565">
        <ele>276.813603</ele>
        <time>2011-02-27T07:46:05Z</time>
      </trkpt>
      <trkpt lat="46.84046" lon="4.72551">
        <ele>280.12647</ele>
        <time>2011-02-27T07:46:13Z</time>
      </trkpt>
      <trkpt lat="46.84047" lon="4.72538">
        <ele>281.914472</ele>
        <time>2011-02-27T07:46:23Z</time>
      </trkpt>
      <trkpt lat="46.84047" lon="4.72538">
        <ele>282.489728</ele>
        <time>2011-02-27T07:46:32Z</time>
      </trkpt>
      <trkpt lat="46.8405" lon="4.72497">
        <ele>282.516809</ele>
        <time>2011-02-27T07:46:49Z</time>
      </trkpt>
      <trkpt lat="46.8405" lon="4.72483">
        <ele>282.505615</ele>
        <time>2011-02-27T07:46:55Z</time>
      </trkpt>
      <trkpt lat="46.84054" lon="4.7247">
        <ele>282.644773</ele>
        <time>2011-02-27T07:47:02Z</time>
      </trkpt>
      <trkpt lat="46.84062" lon="4.72462">
        <ele>282.855937</ele>
        <time>2011-02-27T07:47:11Z</time>
      </trkpt>
      <trkpt lat="46.84069" lon="4.72455">
        <ele>283.015085</ele>
        <time>2011-02-27T07:47:20Z</time>
      </trkpt>
      <trkpt lat="46.84079" lon="4.72452">
        <ele>283.081703</ele>
        <time>2011-02-27T07:47:29Z</time>
      </trkpt>
      <trkpt lat="46.84089" lon="4.72449">
        <ele>283.094528</ele>
        <time>2011-02-27T07:47:36Z</time>
      </trkpt>
      <trkpt lat="46.84099" lon="4.72447">
        <ele>283.093042</ele>
        <time>2011-02-27T07:47:42Z</time>
      </trkpt>
      <trkpt lat="46.84108" lon="4.72443">
        <ele>283.134618</ele>
        <time>2011-02-27T07:47:48Z</time>
      </trkpt>
      <trkpt lat="46.84117" lon="4.72445">
        <ele>283.316593</ele>
        <time>2011-02-27T07:47:54Z</time>
      </trkpt>
      <trkpt lat="46.84125" lon="4.72451">
        <ele>283.748226</ele>
        <time>2011-02-27T07:48:00Z</time>
      </trkpt>
      <trkpt lat="46.84134" lon="4.72454">
        <ele>284.475934</ele>
        <time>2011-02-27T07:48:06Z</time>
      </trkpt>
      <trkpt lat="46.84143" lon="4.72458">
        <ele>285.429634</ele>
        <time>2011-02-27T07:48:12Z</time>
      </trkpt>
      <trkpt lat="46.84151" lon="4.72465">
        <ele>286.474242</ele>
        <time>2011-02-27T07:48:19Z</time>
      </trkpt>
      <trkpt lat="46.84161" lon="4.72468">
        <ele>287.536284</ele>
        <time>2011-02-27T07:48:25Z</time>
      </trkpt>
      <trkpt lat="46.8417" lon="4.72474">
        <ele>288.617119</ele>
        <time>2011-02-27T07:48:33Z</time>
      </trkpt>
      <trkpt lat="46.84179" lon="4.72481">
        <ele>289.748917</ele>
        <time>2011-02-27T07:48:40Z</time>
      </trkpt>
      <trkpt lat="46.84189" lon="4.7248">
        <ele>290.919757</ele>
        <time>2011-02-27T07:48:47Z</time>
      </trkpt>
      <trkpt lat="46.84199" lon="4.72482">
        <ele>292.092649</ele>
        <time>2011-02-27T07:48:53Z</time>
      </trkpt>
      <trkpt lat="46.84209" lon="4.72478">
        <ele>293.234809</ele>
        <time>2011-02-27T07:49:00Z</time>
      </trkpt>
      <trkpt lat="46.84217" lon="4.7247">
        <ele>294.314822</ele>
        <time>2011-02-27T07:49:09Z</time>
      </trkpt>
      <trkpt lat="46.84225" lon="4.72464">
        <ele>295.316578</ele>
        <time>2011-02-27T07:49:16Z</time>
      </trkpt>
      <trkpt lat="46.84235" lon="4.72463">
        <ele>296.282174</ele>
        <time>2011-02-27T07:49:21Z</time>
      </trkpt>
      <trkpt lat="46.84235" lon="4.72463">
        <ele>297.123796</ele>
        <time>2011-02-27T07:49:38Z</time>
      </trkpt>
      <trkpt lat="46.84235" lon="4.72463">
        <ele>297.631663</ele>
        <time>2011-02-27T07:50:18Z</time>
      </trkpt>
      <trkpt lat="46.84268" lon="4.72488">
        <ele>297.918972</ele>
        <time>2011-02-27T07:50:29Z</time>
      </trkpt>
      <trkpt lat="46.84276" lon="4.72494">
        <ele>298.347066</ele>
        <time>2011-02-27T07:50:33Z</time>
      </trkpt>
      <trkpt lat="46.84284" lon="4.72499">
        <ele>298.954573</ele>
        <time>2011-02-27T07:50:37Z</time>
      </trkpt>
      <trkpt lat="46.84295" lon="4.72504">
        <ele>300.306969</ele>
        <time>2011-02-27T07:50:42Z</time>
      </trkpt>
      <trkpt lat="46.84303" lon="4.72508">
        <ele>302.819417</ele>
        <time>2011-02-27T07:50:46Z</time>
      </trkpt>
      <trkpt lat="46.84312" lon="4.72515">
        <ele>305.389064</ele>
        <time>2011-02-27T07:50:51Z</time>
      </trkpt>
      <trkpt lat="46.84321" lon="4.72523">
        <ele>306.919023</ele>
        <time>2011-02-27T07:50:57Z</time>
      </trkpt>
      <trkpt lat="46.8433" lon="4.72529">
        <ele>307.611949</ele>
        <time>2011-02-27T07:51:02Z</time>
      </trkpt>
      <trkpt lat="46.84339" lon="4.72531">
        <ele>307.922692</ele>
        <time>2011-02-27T07:51:06Z</time>
      </trkpt>
      <trkpt lat="46.84349" lon="4.72536">
        <ele>308.119239</ele>
        <time>2011-02-27T07:51:10Z</time>
      </trkpt>
      <trkpt lat="46.84358" lon="4.72544">
        <ele>308.254223</ele>
        <time>2011-02-27T07:51:14Z</time>
      </trkpt>
      <trkpt lat="46.84365" lon="4.72552">
        <ele>308.31255</ele>
        <time>2011-02-27T07:51:17Z</time>
      </trkpt>
      <trkpt lat="46.84373" lon="4.72557">
        <ele>308.317949</ele>
        <time>2011-02-27T07:51:20Z</time>
      </trkpt>
      <trkpt lat="46.84383" lon="4.72562">
        <ele>308.247472</ele>
        <time>2011-02-27T07:51:24Z</time>
      </trkpt>
      <trkpt lat="46.84393" lon="4.72567">
        <ele>308.044203</ele>
        <time>2011-02-27T07:51:28Z</time>
      </trkpt>
      <trkpt lat="46.84403" lon="4.72572">
        <ele>307.727474</ele>
        <time>2011-02-27T07:51:32Z</time>
      </trkpt>
      <trkpt lat="46.84413" lon="4.72578">
        <ele>307.34766</ele>
        <time>2011-02-27T07:51:36Z</time>
      </trkpt>
      <trkpt lat="46.84422" lon="4.72583">
        <ele>306.922049</ele>
        <time>2011-02-27T07:51:40Z</time>
      </trkpt>
      <trkpt lat="46.84431" lon="4.72591">
        <ele>306.487086</ele>
        <time>2011-02-27T07:51:44Z</time>
      </trkpt>
      <trkpt lat="46.8444" lon="4.72599">
        <ele>306.080086</ele>
        <time>2011-02-27T07:51:48Z</time>
      </trkpt>
      <trkpt lat="46.8445" lon="4.72606">
        <ele>305.724147</ele>
        <time>2011-02-27T07:51:53Z</time>
      </trkpt>
      <trkpt lat="46.84458" lon="4.72612">
        <ele>305.439022</ele>
        <time>2011-02-27T07:51:57Z</time>
      </trkpt>
      <trkpt lat="46.84467" lon="4.72618">
        <ele>305.221322</ele>
        <time>2011-02-27T07:52:01Z</time>
      </trkpt>
      <trkpt lat="46.84477" lon="4.72624">
        <ele>305.038372</ele>
        <time>2011-02-27T07:52:05Z</time>
      </trkpt>
      <trkpt lat="46.84486" lon="4.7263">
        <ele>304.885157</ele>
        <time>2011-02-27T07:52:08Z</time>
      </trkpt>
      <trkpt lat="46.84495" lon="4.72635">
        <ele>304.792726</ele>
        <time>2011-02-27T07:52:12Z</time>
      </trkpt>
      <trkpt lat="46.84504" lon="4.72641">
        <ele>304.766875</ele>
        <time>2011-02-27T07:52:16Z</time>
      </trkpt>
      <trkpt lat="46.84514" lon="4.72645">
        <ele>304.801781</ele>
        <time>2011-02-27T07:52:20Z</time>
      </trkpt>
      <trkpt lat="46.84523" lon="4.72649">
        <ele>304.924411</ele>
        <time>2011-02-27T07:52:24Z</time>
      </trkpt>
      <trkpt lat="46.84532" lon="4.72653">
        <ele>305.119607</ele>
        <time>2011-02-27T07:52:28Z</time>
      </trkpt>
      <trkpt lat="46.84541" lon="4.72656">
        <ele>305.313719</ele>
        <time>2011-02-27T07:52:32Z</time>
      </trkpt>
      <trkpt lat="46.84552" lon="4.72662">
        <ele>305.448459</ele>
        <time>2011-02-27T07:52:36Z</time>
      </trkpt>
      <trkpt lat="46.84563" lon="4.72667">
        <ele>305.509724</ele>
        <time>2011-02-27T07:52:40Z</time>
      </trkpt>
      <trkpt lat="46.84574" lon="4.72673">
        <ele>305.517403</ele>
        <time>2011-02-27T07:52:44Z</time>
      </trkpt>
      <trkpt lat="46.84584" lon="4.72682">
        <ele>305.481568</ele>
        <time>2011-02-27T07:52:48Z</time>
      </trkpt>
      <trkpt lat="46.84592" lon="4.72693">
        <ele>305.378175</ele>
        <time>2011-02-27T07:52:51Z</time>
      </trkpt>
      <trkpt lat="46.84602" lon="4.72704">
        <ele>305.2316</ele>
        <time>2011-02-27T07:52:54Z</time>
      </trkpt>
      <trkpt lat="46.8461" lon="4.72714">
        <ele>305.120931</ele>
        <time>2011-02-27T07:52:57Z</time>
      </trkpt>
      <trkpt lat="46.84617" lon="4.72705">
        <ele>305.079259</ele>
        <time>2011-02-27T07:53:14Z</time>
      </trkpt>
      <trkpt lat="46.84612" lon="4.72694">
        <ele>305.079455</ele>
        <time>2011-02-27T07:53:21Z</time>
      </trkpt>
      <trkpt lat="46.84606" lon="4.72682">
        <ele>305.145578</ele>
        <time>2011-02-27T07:53:29Z</time>
      </trkpt>
      <trkpt lat="46.84601" lon="4.72669">
        <ele>305.927324</ele>
        <time>2011-02-27T07:53:37Z</time>
      </trkpt>
      <trkpt lat="46.84598" lon="4.72656">
        <ele>307.916133</ele>
        <time>2011-02-27T07:53:43Z</time>
      </trkpt>
      <trkpt lat="46.84596" lon="4.72641">
        <ele>310.371812</ele>
        <time>2011-02-27T07:53:49Z</time>
      </trkpt>
      <trkpt lat="46.84592" lon="4.72627">
        <ele>312.324726</ele>
        <time>2011-02-27T07:53:57Z</time>
      </trkpt>
      <trkpt lat="46.84587" lon="4.72613">
        <ele>313.603481</ele>
        <time>2011-02-27T07:54:03Z</time>
      </trkpt>
      <trkpt lat="46.84585" lon="4.72599">
        <ele>314.380927</ele>
        <time>2011-02-27T07:54:10Z</time>
      </trkpt>
      <trkpt lat="46.84585" lon="4.72584">
        <ele>315.041947</ele>
        <time>2011-02-27T07:54:17Z</time>
      </trkpt>
      <trkpt lat="46.84582" lon="4.7257">
        <ele>315.925285</ele>
        <time>2011-02-27T07:54:23Z</time>
      </trkpt>
      <trkpt lat="46.84584" lon="4.72556">
        <ele>317.082682</ele>
        <time>2011-02-27T07:54:29Z</time>
      </trkpt>
      <trkpt lat="46.84586" lon="4.72542">
        <ele>318.387344</ele>
        <time>2011-02-27T07:54:35Z</time>
      </trkpt>
      <trkpt lat="46.84588" lon="4.72528">
        <ele>319.679775</ele>
        <time>2011-02-27T07:54:41Z</time>
      </trkpt>
      <trkpt lat="46.84591" lon="4.72515">
        <ele>320.823507</ele>
        <time>2011-02-27T07:54:45Z</time>
      </trkpt>
      <trkpt lat="46.84594" lon="4.72501">
        <ele>321.823557</ele>
        <time>2011-02-27T07:54:49Z</time>
      </trkpt>
      <trkpt lat="46.84594" lon="4.72486">
        <ele>322.754885</ele>
        <time>2011-02-27T07:54:53Z</time>
      </trkpt>
      <trkpt lat="46.84598" lon="4.72472">
        <ele>323.622576</ele>
        <time>2011-02-27T07:54:58Z</time>
      </trkpt>
      <trkpt lat="46.84602" lon="4.7246">
        <ele>324.403537</ele>
        <time>2011-02-27T07:55:03Z</time>
      </trkpt>
      <trkpt lat="46.84607" lon="4.72449">
        <ele>325.132761</ele>
        <time>2011-02-27T07:55:08Z</time>
      </trkpt>
      <trkpt lat="46.84613" lon="4.72438">
        <ele>325.914294</ele>
        <time>2011-02-27T07:55:13Z</time>
      </trkpt>
      <trkpt lat="46.84619" lon="4.72428">
        <ele>326.855775</ele>
        <time>2011-02-27T07:55:18Z</time>
      </trkpt>
      <trkpt lat="46.84625" lon="4.72416">
        <ele>328.002511</ele>
        <time>2011-02-27T07:55:24Z</time>
      </trkpt>
      <trkpt lat="46.84632" lon="4.72405">
        <ele>329.324998</ele>
        <time>2011-02-27T07:55:31Z</time>
      </trkpt>
      <trkpt lat="46.84638" lon="4.72392">
        <ele>330.72671</ele>
        <time>2011-02-27T07:55:36Z</time>
      </trkpt>
      <trkpt lat="46.8464" lon="4.72379">
        <ele>332.100996</ele>
        <time>2011-02-27T07:55:41Z</time>
      </trkpt>
      <trkpt lat="46.84643" lon="4.72365">
        <ele>333.419233</ele>
        <time>2011-02-27T07:55:46Z</time>
      </trkpt>
      <trkpt lat="46.84645" lon="4.72351">
        <ele>334.647817</ele>
        <time>2011-02-27T07:55:51Z</time>
      </trkpt>
      <trkpt lat="46.84649" lon="4.72336">
        <ele>335.699326</ele>
        <time>2011-02-27T07:55:56Z</time>
      </trkpt>
      <trkpt lat="46.84652" lon="4.72322">
        <ele>336.530076</ele>
        <time>2011-02-27T07:56:01Z</time>
      </trkpt>
      <trkpt lat="46.84654" lon="4.72309">
        <ele>337.166983</ele>
        <time>2011-02-27T07:56:06Z</time>
      </trkpt>
      <trkpt lat="46.84655" lon="4.72294">
        <ele>337.650529</ele>
        <time>2011-02-27T07:56:11Z</time>
      </trkpt>
      <trkpt lat="46.84655" lon="4.7228">
        <ele>338.009298</ele>
        <time>2011-02-27T07:56:16Z</time>
      </trkpt>
      <trkpt lat="46.84655" lon="4.72265">
        <ele>338.240377</ele>
        <time>2011-02-27T07:56:21Z</time>
      </trkpt>
      <trkpt lat="46.84658" lon="4.72249">
        <ele>338.348686</ele>
        <time>2011-02-27T07:56:26Z</time>
      </trkpt>
      <trkpt lat="46.84663" lon="4.72236">
        <ele>338.382739</ele>
        <time>2011-02-27T07:56:30Z</time>
      </trkpt>
      <trkpt lat="46.84669" lon="4.72223">
        <ele>338.402348</ele>
        <time>2011-02-27T07:56:34Z</time>
      </trkpt>
      <trkpt lat="46.84673" lon="4.72211">
        <ele>338.436638</ele>
        <time>2011-02-27T07:56:37Z</time>
      </trkpt>
      <trkpt lat="46.84677" lon="4.72199">
        <ele>338.506305</ele>
        <time>2011-02-27T07:56:40Z</time>
      </trkpt>
      <trkpt lat="46.84685" lon="4.7219">
        <ele>338.647352</ele>
        <time>2011-02-27T07:56:45Z</time>
      </trkpt>
      <trkpt lat="46.84685" lon="4.7219">
        <ele>338.839205</ele>
        <time>2011-02-27T07:57:02Z</time>
      </trkpt>
      <trkpt lat="46.84685" lon="4.7219">
        <ele>338.986886</ele>
        <time>2011-02-27T07:57:15Z</time>
      </trkpt>
      <trkpt lat="46.84703" lon="4.7215">
        <ele>339.095357</ele>
        <time>2011-02-27T08:00:40Z</time>
      </trkpt>
      <trkpt lat="46.84703" lon="4.7215">
        <ele>339.231333</ele>
        <time>2011-02-27T08:00:44Z</time>
      </trkpt>
      <trkpt lat="46.84714" lon="4.72125">
        <ele>339.427867</ele>
        <time>2011-02-27T08:00:54Z</time>
      </trkpt>
      <trkpt lat="46.8472" lon="4.72105">
        <ele>339.852257</ele>
        <time>2011-02-27T08:00:56Z</time>
      </trkpt>
      <trkpt lat="46.84728" lon="4.72081">
        <ele>341.462925</ele>
        <time>2011-02-27T08:00:59Z</time>
      </trkpt>
      <trkpt lat="46.84733" lon="4.72064">
        <ele>344.47662</ele>
        <time>2011-02-27T08:01:02Z</time>
      </trkpt>
      <trkpt lat="46.84733" lon="4.72064">
        <ele>347.225037</ele>
        <time>2011-02-27T08:01:05Z</time>
      </trkpt>
      <trkpt lat="46.84733" lon="4.72064">
        <ele>348.391971</ele>
        <time>2011-02-27T08:01:32Z</time>
      </trkpt>
      <trkpt lat="46.84751" lon="4.7206">
        <ele>348.410211</ele>
        <time>2011-02-27T08:02:13Z</time>
      </trkpt>
      <trkpt lat="46.84762" lon="4.72062">
        <ele>347.925866</ele>
        <time>2011-02-27T08:02:16Z</time>
      </trkpt>
      <trkpt lat="46.84771" lon="4.72069">
        <ele>346.987199</ele>
        <time>2011-02-27T08:02:20Z</time>
      </trkpt>
      <trkpt lat="46.84782" lon="4.72075">
        <ele>345.626362</ele>
        <time>2011-02-27T08:02:25Z</time>
      </trkpt>
      <trkpt lat="46.84794" lon="4.72079">
        <ele>344.429238</ele>
        <time>2011-02-27T08:02:29Z</time>
      </trkpt>
      <trkpt lat="46.84805" lon="4.72084">
        <ele>343.723707</ele>
        <time>2011-02-27T08:02:32Z</time>
      </trkpt>
      <trkpt lat="46.84817" lon="4.72091">
        <ele>343.185706</ele>
        <time>2011-02-27T08:02:35Z</time>
      </trkpt>
      <trkpt lat="46.84831" lon="4.72099">
        <ele>342.530127</ele>
        <time>2011-02-27T08:02:38Z</time>
      </trkpt>
      <trkpt lat="46.8484" lon="4.72104">
        <ele>341.198426</ele>
        <time>2011-02-27T08:02:40Z</time>
      </trkpt>
      <trkpt lat="46.84855" lon="4.72111">
        <ele>338.58209</ele>
        <time>2011-02-27T08:02:43Z</time>
      </trkpt>
      <trkpt lat="46.8487" lon="4.72121">
        <ele>335.136766</ele>
        <time>2011-02-27T08:02:46Z</time>
      </trkpt>
      <trkpt lat="46.84886" lon="4.72131">
        <ele>332.071099</ele>
        <time>2011-02-27T08:02:49Z</time>
      </trkpt>
      <trkpt lat="46.84902" lon="4.72142">
        <ele>330.039546</ele>
        <time>2011-02-27T08:02:52Z</time>
      </trkpt>
      <trkpt lat="46.84917" lon="4.72148">
        <ele>329.029278</ele>
        <time>2011-02-27T08:02:55Z</time>
      </trkpt>
      <trkpt lat="46.84931" lon="4.7215">
        <ele>328.724094</ele>
        <time>2011-02-27T08:02:58Z</time>
      </trkpt>
      <trkpt lat="46.84943" lon="4.72152">
        <ele>328.760983</ele>
        <time>2011-02-27T08:03:01Z</time>
      </trkpt>
      <trkpt lat="46.84955" lon="4.72153">
        <ele>328.852937</ele>
        <time>2011-02-27T08:03:04Z</time>
      </trkpt>
      <trkpt lat="46.84965" lon="4.72158">
        <ele>328.833051</ele>
        <time>2011-02-27T08:03:07Z</time>
      </trkpt>
      <trkpt lat="46.84975" lon="4.72163">
        <ele>328.654118</ele>
        <time>2011-02-27T08:03:10Z</time>
      </trkpt>
      <trkpt lat="46.84984" lon="4.72167">
        <ele>328.402322</ele>
        <time>2011-02-27T08:03:13Z</time>
      </trkpt>
      <trkpt lat="46.84995" lon="4.7217">
        <ele>328.185146</ele>
        <time>2011-02-27T08:03:17Z</time>
      </trkpt>
      <trkpt lat="46.85004" lon="4.72172">
        <ele>328.043388</ele>
        <time>2011-02-27T08:03:21Z</time>
      </trkpt>
      <trkpt lat="46.85012" lon="4.72179">
        <ele>327.975685</ele>
        <time>2011-02-27T08:03:27Z</time>
      </trkpt>
      <trkpt lat="46.85021" lon="4.72183">
        <ele>327.938192</ele>
        <time>2011-02-27T08:03:31Z</time>
      </trkpt>
      <trkpt lat="46.85033" lon="4.72185">
        <ele>327.874261</ele>
        <time>2011-02-27T08:03:35Z</time>
      </trkpt>
      <trkpt lat="46.85045" lon="4.72187">
        <ele>327.70564</ele>
        <time>2011-02-27T08:03:38Z</time>
      </trkpt>
      <trkpt lat="46.85055" lon="4.7219">
        <ele>327.405863</ele>
        <time>2011-02-27T08:03:40Z</time>
      </trkpt>
      <trkpt lat="46.85069" lon="4.72193">
        <ele>327.029416</ele>
        <time>2011-02-27T08:03:43Z</time>
      </trkpt>
      <trkpt lat="46.85081" lon="4.72196">
        <ele>326.546981</ele>
        <time>2011-02-27T08:03:46Z</time>
      </trkpt>
      <trkpt lat="46.8509" lon="4.722">
        <ele>325.757082</ele>
        <time>2011-02-27T08:03:50Z</time>
      </trkpt>
      <trkpt lat="46.8509" lon="4.722">
        <ele>324.751318</ele>
        <time>2011-02-27T08:03:55Z</time>
      </trkpt>
      <trkpt lat="46.85103" lon="4.72181">
        <ele>323.876061</ele>
        <time>2011-02-27T08:04:05Z</time>
      </trkpt>
      <trkpt lat="46.85108" lon="4.72168">
        <ele>323.243546</ele>
        <time>2011-02-27T08:04:09Z</time>
      </trkpt>
      <trkpt lat="46.85115" lon="4.72157">
        <ele>322.82358</ele>
        <time>2011-02-27T08:04:13Z</time>
      </trkpt>
      <trkpt lat="46.8512" lon="4.72142">
        <ele>322.624804</ele>
        <time>2011-02-27T08:04:16Z</time>
      </trkpt>
      <trkpt lat="46.85127" lon="4.72127">
        <ele>322.557538</ele>
        <time>2011-02-27T08:04:19Z</time>
      </trkpt>
      <trkpt lat="46.85133" lon="4.7211">
        <ele>322.523407</ele>
        <time>2011-02-27T08:04:22Z</time>
      </trkpt>
      <trkpt lat="46.85138" lon="4.72095">
        <ele>322.444929</ele>
        <time>2011-02-27T08:04:25Z</time>
      </trkpt>
      <trkpt lat="46.85141" lon="4.72082">
        <ele>321.864879</ele>
        <time>2011-02-27T08:04:28Z</time>
      </trkpt>
      <trkpt lat="46.8514" lon="4.72066">
        <ele>320.261202</ele>
        <time>2011-02-27T08:04:31Z</time>
      </trkpt>
      <trkpt lat="46.85138" lon="4.72049">
        <ele>318.069168</ele>
        <time>2011-02-27T08:04:36Z</time>
      </trkpt>
      <trkpt lat="46.8514" lon="4.72034">
        <ele>316.287971</ele>
        <time>2011-02-27T08:04:43Z</time>
      </trkpt>
      <trkpt lat="46.85142" lon="4.72019">
        <ele>315.269843</ele>
        <time>2011-02-27T08:04:48Z</time>
      </trkpt>
      <trkpt lat="46.85146" lon="4.72006">
        <ele>314.687302</ele>
        <time>2011-02-27T08:04:54Z</time>
      </trkpt>
      <trkpt lat="46.85146" lon="4.72006">
        <ele>314.223282</ele>
        <time>2011-02-27T08:04:57Z</time>
      </trkpt>
      <trkpt lat="46.85146" lon="4.72006">
        <ele>313.901513</ele>
        <time>2011-02-27T08:05:24Z</time>
      </trkpt>
      <trkpt lat="46.85145" lon="4.72042">
        <ele>313.601393</ele>
        <time>2011-02-27T08:06:14Z</time>
      </trkpt>
      <trkpt lat="46.85142" lon="4.72057">
        <ele>312.954323</ele>
        <time>2011-02-27T08:06:23Z</time>
      </trkpt>
      <trkpt lat="46.85147" lon="4.72069">
        <ele>311.853168</ele>
        <time>2011-02-27T08:06:30Z</time>
      </trkpt>
      <trkpt lat="46.85152" lon="4.72081">
        <ele>310.295179</ele>
        <time>2011-02-27T08:06:37Z</time>
      </trkpt>
      <trkpt lat="46.85148" lon="4.72095">
        <ele>308.502311</ele>
        <time>2011-02-27T08:06:45Z</time>
      </trkpt>
      <trkpt lat="46.85143" lon="4.72107">
        <ele>307.097649</ele>
        <time>2011-02-27T08:06:53Z</time>
      </trkpt>
      <trkpt lat="46.85143" lon="4.72107">
        <ele>306.426794</ele>
        <time>2011-02-27T08:07:07Z</time>
      </trkpt>
      <trkpt lat="46.8513" lon="4.72149">
        <ele>306.249725</ele>
        <time>2011-02-27T08:07:28Z</time>
      </trkpt>
      <trkpt lat="46.85125" lon="4.72161">
        <ele>306.216403</ele>
        <time>2011-02-27T08:07:35Z</time>
      </trkpt>
      <trkpt lat="46.8512" lon="4.72172">
        <ele>306.128551</ele>
        <time>2011-02-27T08:07:41Z</time>
      </trkpt>
      <trkpt lat="46.85115" lon="4.72182">
        <ele>305.896484</ele>
        <time>2011-02-27T08:07:47Z</time>
      </trkpt>
      <trkpt lat="46.85115" lon="4.72182">
        <ele>305.539092</ele>
        <time>2011-02-27T08:08:03Z</time>
      </trkpt>
      <trkpt lat="46.85133" lon="4.72211">
        <ele>305.238491</ele>
        <time>2011-02-27T08:08:52Z</time>
      </trkpt>
      <trkpt lat="46.85133" lon="4.72211">
        <ele>305.092339</ele>
        <time>2011-02-27T08:09:09Z</time>
      </trkpt>
      <trkpt lat="46.85168" lon="4.72217">
        <ele>305.027438</ele>
        <time>2011-02-27T08:09:40Z</time>
      </trkpt>
      <trkpt lat="46.85178" lon="4.72215">
        <ele>305.072621</ele>
        <time>2011-02-27T08:09:47Z</time>
      </trkpt>
      <trkpt lat="46.85188" lon="4.72214">
        <ele>305.42797</ele>
        <time>2011-02-27T08:09:56Z</time>
      </trkpt>
      <trkpt lat="46.85188" lon="4.72214">
        <ele>306.062755</ele>
        <time>2011-02-27T08:10:12Z</time>
      </trkpt>
      <trkpt lat="46.85223" lon="4.72222">
        <ele>306.97229</ele>
        <time>2011-02-27T08:10:35Z</time>
      </trkpt>
      <trkpt lat="46.85233" lon="4.72226">
        <ele>308.214223</ele>
        <time>2011-02-27T08:10:41Z</time>
      </trkpt>
      <trkpt lat="46.85242" lon="4.7223">
        <ele>309.437849</ele>
        <time>2011-02-27T08:10:47Z</time>
      </trkpt>
      <trkpt lat="46.85242" lon="4.7223">
        <ele>310.200818</ele>
        <time>2011-02-27T08:10:59Z</time>
      </trkpt>
      <trkpt lat="46.85242" lon="4.7223">
        <ele>310.501438</ele>
        <time>2011-02-27T08:11:19Z</time>
      </trkpt>
      <trkpt lat="46.85219" lon="4.72219">
        <ele>310.559428</ele>
        <time>2011-02-27T08:13:28Z</time>
      </trkpt>
      <trkpt lat="46.85208" lon="4.72214">
        <ele>310.609923</ele>
        <time>2011-02-27T08:13:32Z</time>
      </trkpt>
      <trkpt lat="46.85197" lon="4.72212">
        <ele>310.682864</ele>
        <time>2011-02-27T08:13:36Z</time>
      </trkpt>
      <trkpt lat="46.85185" lon="4.72211">
        <ele>311.529095</ele>
        <time>2011-02-27T08:13:40Z</time>
      </trkpt>
      <trkpt lat="46.85175" lon="4.7221">
        <ele>313.65364</ele>
        <time>2011-02-27T08:13:43Z</time>
      </trkpt>
      <trkpt lat="46.85164" lon="4.72209">
        <ele>315.867471</ele>
        <time>2011-02-27T08:13:46Z</time>
      </trkpt>
      <trkpt lat="46.85154" lon="4.72211">
        <ele>316.997707</ele>
        <time>2011-02-27T08:13:49Z</time>
      </trkpt>
      <trkpt lat="46.85142" lon="4.72211">
        <ele>317.268593</ele>
        <time>2011-02-27T08:13:53Z</time>
      </trkpt>
      <trkpt lat="46.85133" lon="4.72208">
        <ele>317.168122</ele>
        <time>2011-02-27T08:13:56Z</time>
      </trkpt>
      <trkpt lat="46.85124" lon="4.72203">
        <ele>317.015389</ele>
        <time>2011-02-27T08:13:59Z</time>
      </trkpt>
      <trkpt lat="46.85113" lon="4.722">
        <ele>316.919552</ele>
        <time>2011-02-27T08:14:03Z</time>
      </trkpt>
      <trkpt lat="46.85111" lon="4.72186">
        <ele>316.850837</ele>
        <time>2011-02-27T08:14:11Z</time>
      </trkpt>
      <trkpt lat="46.85118" lon="4.72172">
        <ele>316.749558</ele>
        <time>2011-02-27T08:14:15Z</time>
      </trkpt>
      <trkpt lat="46.85123" lon="4.72162">
        <ele>316.585891</ele>
        <time>2011-02-27T08:14:18Z</time>
      </trkpt>
      <trkpt lat="46.8513" lon="4.72147">
        <ele>316.306234</ele>
        <time>2011-02-27T08:14:22Z</time>
      </trkpt>
      <trkpt lat="46.85138" lon="4.72134">
        <ele>315.877025</ele>
        <time>2011-02-27T08:14:25Z</time>
      </trkpt>
      <trkpt lat="46.85145" lon="4.7212">
        <ele>315.380262</ele>
        <time>2011-02-27T08:14:28Z</time>
      </trkpt>
      <trkpt lat="46.8515" lon="4.72106">
        <ele>314.89552</ele>
        <time>2011-02-27T08:14:32Z</time>
      </trkpt>
      <trkpt lat="46.8515" lon="4.72106">
        <ele>314.477057</ele>
        <time>2011-02-27T08:14:34Z</time>
      </trkpt>
      <trkpt lat="46.85149" lon="4.72081">
        <ele>314.146249</ele>
        <time>2011-02-27T08:14:54Z</time>
      </trkpt>
      <trkpt lat="46.85145" lon="4.72065">
        <ele>313.198048</ele>
        <time>2011-02-27T08:14:57Z</time>
      </trkpt>
      <trkpt lat="46.85137" lon="4.72054">
        <ele>311.026482</ele>
        <time>2011-02-27T08:15:01Z</time>
      </trkpt>
      <trkpt lat="46.8513" lon="4.72045">
        <ele>308.54647</ele>
        <time>2011-02-27T08:15:05Z</time>
      </trkpt>
      <trkpt lat="46.85122" lon="4.72037">
        <ele>307.022571</ele>
        <time>2011-02-27T08:15:10Z</time>
      </trkpt>
      <trkpt lat="46.85114" lon="4.7203">
        <ele>306.539752</ele>
        <time>2011-02-27T08:15:16Z</time>
      </trkpt>
      <trkpt lat="46.85114" lon="4.7203">
        <ele>306.580755</ele>
        <time>2011-02-27T08:15:21Z</time>
      </trkpt>
      <trkpt lat="46.85095" lon="4.72011">
        <ele>306.712213</ele>
        <time>2011-02-27T08:15:28Z</time>
      </trkpt>
      <trkpt lat="46.85087" lon="4.72002">
        <ele>306.770574</ele>
        <time>2011-02-27T08:15:33Z</time>
      </trkpt>
      <trkpt lat="46.85079" lon="4.71995">
        <ele>306.76636</ele>
        <time>2011-02-27T08:15:39Z</time>
      </trkpt>
      <trkpt lat="46.8507" lon="4.71987">
        <ele>306.746563</ele>
        <time>2011-02-27T08:15:45Z</time>
      </trkpt>
      <trkpt lat="46.85061" lon="4.71979">
        <ele>306.751064</ele>
        <time>2011-02-27T08:15:50Z</time>
      </trkpt>
      <trkpt lat="46.85052" lon="4.71969">
        <ele>306.805941</ele>
        <time>2011-02-27T08:15:55Z</time>
      </trkpt>
      <trkpt lat="46.85043" lon="4.7196">
        <ele>306.904183</ele>
        <time>2011-02-27T08:16:00Z</time>
      </trkpt>
      <trkpt lat="46.85036" lon="4.71954">
        <ele>307.050418</ele>
        <time>2011-02-27T08:16:04Z</time>
      </trkpt>
      <trkpt lat="46.85029" lon="4.71945">
        <ele>307.273354</ele>
        <time>2011-02-27T08:16:08Z</time>
      </trkpt>
      <trkpt lat="46.85029" lon="4.71945">
        <ele>307.522593</ele>
        <time>2011-02-27T08:16:13Z</time>
      </trkpt>
      <trkpt lat="46.85029" lon="4.71945">
        <ele>307.689645</ele>
        <time>2011-02-27T08:16:51Z</time>
      </trkpt>
      <trkpt lat="46.85038" lon="4.71945">
        <ele>307.812898</ele>
        <time>2011-02-27T08:18:03Z</time>
      </trkpt>
      <trkpt lat="46.85044" lon="4.71932">
        <ele>308.058463</ele>
        <time>2011-02-27T08:18:07Z</time>
      </trkpt>
      <trkpt lat="46.8505" lon="4.71915">
        <ele>308.498781</ele>
        <time>2011-02-27T08:18:10Z</time>
      </trkpt>
      <trkpt lat="46.85058" lon="4.71899">
        <ele>310.028248</ele>
        <time>2011-02-27T08:18:13Z</time>
      </trkpt>
      <trkpt lat="46.85066" lon="4.71886">
        <ele>313.120437</ele>
        <time>2011-02-27T08:18:16Z</time>
      </trkpt>
      <trkpt lat="46.85075" lon="4.7188">
        <ele>316.498169</ele>
        <time>2011-02-27T08:18:19Z</time>
      </trkpt>
      <trkpt lat="46.85084" lon="4.71887">
        <ele>318.841949</ele>
        <time>2011-02-27T08:18:21Z</time>
      </trkpt>
      <trkpt lat="46.85097" lon="4.71899">
        <ele>319.977343</ele>
        <time>2011-02-27T08:18:24Z</time>
      </trkpt>
      <trkpt lat="46.85107" lon="4.71906">
        <ele>320.163324</ele>
        <time>2011-02-27T08:18:27Z</time>
      </trkpt>
      <trkpt lat="46.85107" lon="4.71906">
        <ele>319.990137</ele>
        <time>2011-02-27T08:18:28Z</time>
      </trkpt>
      <trkpt lat="46.85107" lon="4.71906">
        <ele>319.802366</ele>
        <time>2011-02-27T08:18:56Z</time>
      </trkpt>
      <trkpt lat="46.85125" lon="4.71875">
        <ele>319.669617</ele>
        <time>2011-02-27T08:20:03Z</time>
      </trkpt>
      <trkpt lat="46.85125" lon="4.71875">
        <ele>319.549085</ele>
        <time>2011-02-27T08:20:16Z</time>
      </trkpt>
      <trkpt lat="46.8515" lon="4.71847">
        <ele>319.30201</ele>
        <time>2011-02-27T08:20:39Z</time>
      </trkpt>
      <trkpt lat="46.8515" lon="4.71847">
        <ele>318.961722</ele>
        <time>2011-02-27T08:20:49Z</time>
      </trkpt>
      <trkpt lat="46.8515" lon="4.71847">
        <ele>318.78291</ele>
        <time>2011-02-27T08:21:09Z</time>
      </trkpt>
      <trkpt lat="46.8517" lon="4.71819">
        <ele>318.765792</ele>
        <time>2011-02-27T08:21:34Z</time>
      </trkpt>
      <trkpt lat="46.85176" lon="4.71809">
        <ele>318.089368</ele>
        <time>2011-02-27T08:21:42Z</time>
      </trkpt>
      <trkpt lat="46.8518" lon="4.71791">
        <ele>316.467299</ele>
        <time>2011-02-27T08:21:57Z</time>
      </trkpt>
      <trkpt lat="46.85183" lon="4.71778">
        <ele>314.981519</ele>
        <time>2011-02-27T08:22:13Z</time>
      </trkpt>
      <trkpt lat="46.85186" lon="4.71763">
        <ele>314.479262</ele>
        <time>2011-02-27T08:22:26Z</time>
      </trkpt>
      <trkpt lat="46.85186" lon="4.71763">
        <ele>314.577617</ele>
        <time>2011-02-27T08:22:38Z</time>
      </trkpt>
      <trkpt lat="46.85164" lon="4.71729">
        <ele>314.741978</ele>
        <time>2011-02-27T08:23:17Z</time>
      </trkpt>
      <trkpt lat="46.85164" lon="4.71729">
        <ele>314.775734</ele>
        <time>2011-02-27T08:23:33Z</time>
      </trkpt>
      <trkpt lat="46.85152" lon="4.71683">
        <ele>314.816102</ele>
        <time>2011-02-27T08:23:53Z</time>
      </trkpt>
      <trkpt lat="46.85149" lon="4.7167">
        <ele>314.983865</ele>
        <time>2011-02-27T08:23:59Z</time>
      </trkpt>
      <trkpt lat="46.85146" lon="4.71657">
        <ele>315.559053</ele>
        <time>2011-02-27T08:24:05Z</time>
      </trkpt>
      <trkpt lat="46.85144" lon="4.71643">
        <ele>316.603385</ele>
        <time>2011-02-27T08:24:13Z</time>
      </trkpt>
      <trkpt lat="46.85142" lon="4.7163">
        <ele>317.563303</ele>
        <time>2011-02-27T08:24:20Z</time>
      </trkpt>
      <trkpt lat="46.85139" lon="4.71616">
        <ele>317.969941</ele>
        <time>2011-02-27T08:24:26Z</time>
      </trkpt>
      <trkpt lat="46.85137" lon="4.71602">
        <ele>317.969546</ele>
        <time>2011-02-27T08:24:32Z</time>
      </trkpt>
      <trkpt lat="46.85136" lon="4.71589">
        <ele>317.83074</ele>
        <time>2011-02-27T08:24:37Z</time>
      </trkpt>
      <trkpt lat="46.85133" lon="4.71575">
        <ele>317.717186</ele>
        <time>2011-02-27T08:24:43Z</time>
      </trkpt>
      <trkpt lat="46.85131" lon="4.71561">
        <ele>317.666333</ele>
        <time>2011-02-27T08:24:48Z</time>
      </trkpt>
      <trkpt lat="46.85129" lon="4.71546">
        <ele>317.660447</ele>
        <time>2011-02-27T08:24:52Z</time>
      </trkpt>
      <trkpt lat="46.85125" lon="4.71533">
        <ele>317.67051</ele>
        <time>2011-02-27T08:24:55Z</time>
      </trkpt>
      <trkpt lat="46.85122" lon="4.71518">
        <ele>317.679754</ele>
        <time>2011-02-27T08:25:00Z</time>
      </trkpt>
      <trkpt lat="46.85119" lon="4.71505">
        <ele>317.683838</ele>
        <time>2011-02-27T08:25:05Z</time>
      </trkpt>
      <trkpt lat="46.85114" lon="4.71489">
        <ele>317.674248</ele>
        <time>2011-02-27T08:25:12Z</time>
      </trkpt>
      <trkpt lat="46.85108" lon="4.71477">
        <ele>317.644753</ele>
        <time>2011-02-27T08:25:18Z</time>
      </trkpt>
      <trkpt lat="46.85104" lon="4.71463">
        <ele>317.605043</ele>
        <time>2011-02-27T08:25:24Z</time>
      </trkpt>
      <trkpt lat="46.851" lon="4.71448">
        <ele>317.57022</ele>
        <time>2011-02-27T08:25:29Z</time>
      </trkpt>
      <trkpt lat="46.85095" lon="4.71434">
        <ele>317.54768</ele>
        <time>2011-02-27T08:25:34Z</time>
      </trkpt>
      <trkpt lat="46.85091" lon="4.71421">
        <ele>317.538118</ele>
        <time>2011-02-27T08:25:39Z</time>
      </trkpt>
      <trkpt lat="46.85086" lon="4.71407">
        <ele>317.537349</ele>
        <time>2011-02-27T08:25:44Z</time>
      </trkpt>
      <trkpt lat="46.85079" lon="4.71395">
        <ele>317.542031</ele>
        <time>2011-02-27T08:25:49Z</time>
      </trkpt>
      <trkpt lat="46.85073" lon="4.71383">
        <ele>317.550074</ele>
        <time>2011-02-27T08:25:54Z</time>
      </trkpt>
      <trkpt lat="46.85066" lon="4.71371">
        <ele>317.572268</ele>
        <time>2011-02-27T08:25:58Z</time>
      </trkpt>
      <trkpt lat="46.85058" lon="4.71362">
        <ele>317.642794</ele>
        <time>2011-02-27T08:26:03Z</time>
      </trkpt>
      <trkpt lat="46.8505" lon="4.71352">
        <ele>317.811756</ele>
        <time>2011-02-27T08:26:09Z</time>
      </trkpt>
      <trkpt lat="46.85043" lon="4.71341">
        <ele>318.101071</ele>
        <time>2011-02-27T08:26:14Z</time>
      </trkpt>
      <trkpt lat="46.85036" lon="4.71328">
        <ele>318.509782</ele>
        <time>2011-02-27T08:26:18Z</time>
      </trkpt>
      <trkpt lat="46.8503" lon="4.71312">
        <ele>319.067645</ele>
        <time>2011-02-27T08:26:31Z</time>
      </trkpt>
      <trkpt lat="46.8503" lon="4.71312">
        <ele>319.676374</ele>
        <time>2011-02-27T08:26:40Z</time>
      </trkpt>
      <trkpt lat="46.8503" lon="4.71312">
        <ele>320.092879</ele>
        <time>2011-02-27T08:27:01Z</time>
      </trkpt>
      <trkpt lat="46.85011" lon="4.71281">
        <ele>320.328692</ele>
        <time>2011-02-27T08:29:16Z</time>
      </trkpt>
      <trkpt lat="46.85002" lon="4.71273">
        <ele>320.63974</ele>
        <time>2011-02-27T08:29:21Z</time>
      </trkpt>
      <trkpt lat="46.84995" lon="4.71264">
        <ele>321.148148</ele>
        <time>2011-02-27T08:29:25Z</time>
      </trkpt>
      <trkpt lat="46.84987" lon="4.71255">
        <ele>323.042401</ele>
        <time>2011-02-27T08:29:29Z</time>
      </trkpt>
      <trkpt lat="46.84979" lon="4.71245">
        <ele>327.02609</ele>
        <time>2011-02-27T08:29:33Z</time>
      </trkpt>
      <trkpt lat="46.84971" lon="4.71238">
        <ele>331.161693</ele>
        <time>2011-02-27T08:29:39Z</time>
      </trkpt>
      <trkpt lat="46.84964" lon="4.71228">
        <ele>333.540673</ele>
        <time>2011-02-27T08:29:46Z</time>
      </trkpt>
      <trkpt lat="46.84955" lon="4.71219">
        <ele>334.473256</ele>
        <time>2011-02-27T08:29:52Z</time>
      </trkpt>
      <trkpt lat="46.84947" lon="4.71212">
        <ele>334.771202</ele>
        <time>2011-02-27T08:29:58Z</time>
      </trkpt>
      <trkpt lat="46.84937" lon="4.71206">
        <ele>334.960309</ele>
        <time>2011-02-27T08:30:04Z</time>
      </trkpt>
      <trkpt lat="46.84929" lon="4.71198">
        <ele>335.172594</ele>
        <time>2011-02-27T08:30:08Z</time>
      </trkpt>
      <trkpt lat="46.8492" lon="4.71188">
        <ele>335.358844</ele>
        <time>2011-02-27T08:30:12Z</time>
      </trkpt>
      <trkpt lat="46.84912" lon="4.71179">
        <ele>335.505283</ele>
        <time>2011-02-27T08:30:16Z</time>
      </trkpt>
      <trkpt lat="46.84902" lon="4.71174">
        <ele>335.650388</ele>
        <time>2011-02-27T08:30:21Z</time>
      </trkpt>
      <trkpt lat="46.84893" lon="4.71168">
        <ele>335.823124</ele>
        <time>2011-02-27T08:30:25Z</time>
      </trkpt>
      <trkpt lat="46.84884" lon="4.71166">
        <ele>336.020792</ele>
        <time>2011-02-27T08:30:30Z</time>
      </trkpt>
      <trkpt lat="46.84873" lon="4.71162">
        <ele>336.234766</ele>
        <time>2011-02-27T08:30:35Z</time>
      </trkpt>
      <trkpt lat="46.84863" lon="4.71157">
        <ele>336.460401</ele>
        <time>2011-02-27T08:30:39Z</time>
      </trkpt>
      <trkpt lat="46.84853" lon="4.71153">
        <ele>336.679955</ele>
        <time>2011-02-27T08:30:43Z</time>
      </trkpt>
      <trkpt lat="46.84842" lon="4.71149">
        <ele>336.853099</ele>
        <time>2011-02-27T08:30:46Z</time>
      </trkpt>
      <trkpt lat="46.84831" lon="4.71141">
        <ele>336.945002</ele>
        <time>2011-02-27T08:30:49Z</time>
      </trkpt>
      <trkpt lat="46.84819" lon="4.71128">
        <ele>336.964777</ele>
        <time>2011-02-27T08:30:52Z</time>
      </trkpt>
      <trkpt lat="46.84813" lon="4.71111">
        <ele>336.870592</ele>
        <time>2011-02-27T08:30:55Z</time>
      </trkpt>
      <trkpt lat="46.84813" lon="4.71111">
        <ele>336.64061</ele>
        <time>2011-02-27T08:30:59Z</time>
      </trkpt>
      <trkpt lat="46.84813" lon="4.71111">
        <ele>336.400478</ele>
        <time>2011-02-27T08:31:27Z</time>
      </trkpt>
      <trkpt lat="46.84794" lon="4.71094">
        <ele>336.225046</ele>
        <time>2011-02-27T08:33:03Z</time>
      </trkpt>
      <trkpt lat="46.84782" lon="4.71093">
        <ele>336.039139</ele>
        <time>2011-02-27T08:33:06Z</time>
      </trkpt>
      <trkpt lat="46.84765" lon="4.71078">
        <ele>335.839813</ele>
        <time>2011-02-27T08:33:09Z</time>
      </trkpt>
      <trkpt lat="46.84744" lon="4.71056">
        <ele>335.705219</ele>
        <time>2011-02-27T08:33:12Z</time>
      </trkpt>
      <trkpt lat="46.84725" lon="4.71031">
        <ele>335.660801</ele>
        <time>2011-02-27T08:33:15Z</time>
      </trkpt>
      <trkpt lat="46.84708" lon="4.71019">
        <ele>335.604807</ele>
        <time>2011-02-27T08:33:17Z</time>
      </trkpt>
      <trkpt lat="46.84685" lon="4.70989">
        <ele>335.458375</ele>
        <time>2011-02-27T08:33:20Z</time>
      </trkpt>
      <trkpt lat="46.84671" lon="4.70968">
        <ele>335.125162</ele>
        <time>2011-02-27T08:33:22Z</time>
      </trkpt>
      <trkpt lat="46.84651" lon="4.70951">
        <ele>334.461012</ele>
        <time>2011-02-27T08:33:25Z</time>
      </trkpt>
      <trkpt lat="46.84642" lon="4.7094">
        <ele>333.326834</ele>
        <time>2011-02-27T08:33:27Z</time>
      </trkpt>
      <trkpt lat="46.84632" lon="4.70929">
        <ele>331.726445</ele>
        <time>2011-02-27T08:33:30Z</time>
      </trkpt>
      <trkpt lat="46.84625" lon="4.70918">
        <ele>329.82106</ele>
        <time>2011-02-27T08:33:33Z</time>
      </trkpt>
      <trkpt lat="46.84619" lon="4.70907">
        <ele>327.874546</ele>
        <time>2011-02-27T08:33:39Z</time>
      </trkpt>
      <trkpt lat="46.8461" lon="4.70902">
        <ele>326.104469</ele>
        <time>2011-02-27T08:33:44Z</time>
      </trkpt>
      <trkpt lat="46.84601" lon="4.70894">
        <ele>324.539055</ele>
        <time>2011-02-27T08:33:48Z</time>
      </trkpt>
      <trkpt lat="46.84594" lon="4.70884">
        <ele>323.124575</ele>
        <time>2011-02-27T08:33:52Z</time>
      </trkpt>
      <trkpt lat="46.84587" lon="4.70871">
        <ele>321.973272</ele>
        <time>2011-02-27T08:33:55Z</time>
      </trkpt>
      <trkpt lat="46.8458" lon="4.70853">
        <ele>321.144174</ele>
        <time>2011-02-27T08:33:58Z</time>
      </trkpt>
      <trkpt lat="46.84573" lon="4.70839">
        <ele>320.516766</ele>
        <time>2011-02-27T08:34:01Z</time>
      </trkpt>
      <trkpt lat="46.84567" lon="4.70829">
        <ele>319.984749</ele>
        <time>2011-02-27T08:34:04Z</time>
      </trkpt>
      <trkpt lat="46.8456" lon="4.70815">
        <ele>319.044605</ele>
        <time>2011-02-27T08:34:07Z</time>
      </trkpt>
      <trkpt lat="46.84552" lon="4.70798">
        <ele>317.219479</ele>
        <time>2011-02-27T08:34:10Z</time>
      </trkpt>
      <trkpt lat="46.84546" lon="4.70787">
        <ele>315.078944</ele>
        <time>2011-02-27T08:34:12Z</time>
      </trkpt>
      <trkpt lat="46.84541" lon="4.70775">
        <ele>313.545426</ele>
        <time>2011-02-27T08:34:14Z</time>
      </trkpt>
      <trkpt lat="46.84534" lon="4.7076">
        <ele>312.316316</ele>
        <time>2011-02-27T08:34:17Z</time>
      </trkpt>
      <trkpt lat="46.84526" lon="4.70743">
        <ele>310.571669</ele>
        <time>2011-02-27T08:34:20Z</time>
      </trkpt>
      <trkpt lat="46.8452" lon="4.70732">
        <ele>308.346651</ele>
        <time>2011-02-27T08:34:22Z</time>
      </trkpt>
      <trkpt lat="46.84513" lon="4.70723">
        <ele>306.223997</ele>
        <time>2011-02-27T08:34:24Z</time>
      </trkpt>
      <trkpt lat="46.84504" lon="4.7071">
        <ele>304.479475</ele>
        <time>2011-02-27T08:34:27Z</time>
      </trkpt>
      <trkpt lat="46.84494" lon="4.70698">
        <ele>303.232904</ele>
        <time>2011-02-27T08:34:30Z</time>
      </trkpt>
      <trkpt lat="46.84484" lon="4.70689">
        <ele>302.526067</ele>
        <time>2011-02-27T08:34:33Z</time>
      </trkpt>
      <trkpt lat="46.84475" lon="4.70681">
        <ele>302.233516</ele>
        <time>2011-02-27T08:34:36Z</time>
      </trkpt>
      <trkpt lat="46.84466" lon="4.70674">
        <ele>302.160895</ele>
        <time>2011-02-27T08:34:39Z</time>
      </trkpt>
      <trkpt lat="46.84457" lon="4.70667">
        <ele>302.177164</ele>
        <time>2011-02-27T08:34:42Z</time>
      </trkpt>
      <trkpt lat="46.84446" lon="4.7066">
        <ele>302.210088</ele>
        <time>2011-02-27T08:34:45Z</time>
      </trkpt>
      <trkpt lat="46.84435" lon="4.70651">
        <ele>302.25036</ele>
        <time>2011-02-27T08:34:48Z</time>
      </trkpt>
      <trkpt lat="46.84427" lon="4.70644">
        <ele>302.322861</ele>
        <time>2011-02-27T08:34:50Z</time>
      </trkpt>
      <trkpt lat="46.84422" lon="4.70629">
        <ele>302.550419</ele>
        <time>2011-02-27T08:34:52Z</time>
      </trkpt>
      <trkpt lat="46.84426" lon="4.70606">
        <ele>303.121149</ele>
        <time>2011-02-27T08:34:55Z</time>
      </trkpt>
      <trkpt lat="46.84434" lon="4.70584">
        <ele>303.978202</ele>
        <time>2011-02-27T08:34:58Z</time>
      </trkpt>
      <trkpt lat="46.8444" lon="4.7057">
        <ele>304.76633</ele>
        <time>2011-02-27T08:35:00Z</time>
      </trkpt>
      <trkpt lat="46.84448" lon="4.70552">
        <ele>305.25726</ele>
        <time>2011-02-27T08:35:03Z</time>
      </trkpt>
      <trkpt lat="46.84453" lon="4.70539">
        <ele>305.589326</ele>
        <time>2011-02-27T08:35:05Z</time>
      </trkpt>
      <trkpt lat="46.84459" lon="4.70517">
        <ele>305.998756</ele>
        <time>2011-02-27T08:35:08Z</time>
      </trkpt>
      <trkpt lat="46.84464" lon="4.70497">
        <ele>306.515004</ele>
        <time>2011-02-27T08:35:11Z</time>
      </trkpt>
      <trkpt lat="46.84466" lon="4.70484">
        <ele>306.980623</ele>
        <time>2011-02-27T08:35:14Z</time>
      </trkpt>
      <trkpt lat="46.84466" lon="4.70484">
        <ele>307.248328</ele>
        <time>2011-02-27T08:35:15Z</time>
      </trkpt>
      <trkpt lat="46.84469" lon="4.70464">
        <ele>307.316968</ele>
        <time>2011-02-27T08:35:20Z</time>
      </trkpt>
      <trkpt lat="46.84462" lon="4.70454">
        <ele>307.287382</ele>
        <time>2011-02-27T08:35:24Z</time>
      </trkpt>
      <trkpt lat="46.84452" lon="4.7045">
        <ele>307.224835</ele>
        <time>2011-02-27T08:35:28Z</time>
      </trkpt>
      <trkpt lat="46.84444" lon="4.70444">
        <ele>307.159785</ele>
        <time>2011-02-27T08:35:32Z</time>
      </trkpt>
      <trkpt lat="46.84436" lon="4.70436">
        <ele>307.117072</ele>
        <time>2011-02-27T08:35:38Z</time>
      </trkpt>
      <trkpt lat="46.84428" lon="4.7043">
        <ele>307.103488</ele>
        <time>2011-02-27T08:35:43Z</time>
      </trkpt>
      <trkpt lat="46.84428" lon="4.7043">
        <ele>307.105443</ele>
        <time>2011-02-27T08:35:47Z</time>
      </trkpt>
      <trkpt lat="46.84419" lon="4.70422">
        <ele>307.135199</ele>
        <time>2011-02-27T08:35:50Z</time>
      </trkpt>
      <trkpt lat="46.84411" lon="4.70412">
        <ele>307.228352</ele>
        <time>2011-02-27T08:35:57Z</time>
      </trkpt>
      <trkpt lat="46.84411" lon="4.70412">
        <ele>307.362695</ele>
        <time>2011-02-27T08:36:00Z</time>
      </trkpt>
      <trkpt lat="46.84394" lon="4.70393">
        <ele>307.474046</ele>
        <time>2011-02-27T08:36:09Z</time>
      </trkpt>
      <trkpt lat="46.84384" lon="4.70386">
        <ele>307.556663</ele>
        <time>2011-02-27T08:36:13Z</time>
      </trkpt>
      <trkpt lat="46.84373" lon="4.70381">
        <ele>307.654617</ele>
        <time>2011-02-27T08:36:17Z</time>
      </trkpt>
      <trkpt lat="46.84361" lon="4.70377">
        <ele>307.845585</ele>
        <time>2011-02-27T08:36:21Z</time>
      </trkpt>
      <trkpt lat="46.84351" lon="4.70373">
        <ele>308.158717</ele>
        <time>2011-02-27T08:36:24Z</time>
      </trkpt>
      <trkpt lat="46.84339" lon="4.70367">
        <ele>308.500239</ele>
        <time>2011-02-27T08:36:27Z</time>
      </trkpt>
      <trkpt lat="46.8433" lon="4.70361">
        <ele>308.766862</ele>
        <time>2011-02-27T08:36:29Z</time>
      </trkpt>
      <trkpt lat="46.84314" lon="4.70346">
        <ele>308.941894</ele>
        <time>2011-02-27T08:36:32Z</time>
      </trkpt>
      <trkpt lat="46.84303" lon="4.70333">
        <ele>309.115434</ele>
        <time>2011-02-27T08:36:34Z</time>
      </trkpt>
      <trkpt lat="46.84282" lon="4.70329">
        <ele>309.39797</ele>
        <time>2011-02-27T08:36:37Z</time>
      </trkpt>
      <trkpt lat="46.84267" lon="4.70334">
        <ele>309.722036</ele>
        <time>2011-02-27T08:36:39Z</time>
      </trkpt>
      <trkpt lat="46.84251" lon="4.70335">
        <ele>309.930368</ele>
        <time>2011-02-27T08:36:41Z</time>
      </trkpt>
      <trkpt lat="46.84232" lon="4.70359">
        <ele>309.994692</ele>
        <time>2011-02-27T08:36:44Z</time>
      </trkpt>
      <trkpt lat="46.84225" lon="4.7038">
        <ele>309.941354</ele>
        <time>2011-02-27T08:36:46Z</time>
      </trkpt>
      <trkpt lat="46.84215" lon="4.70392">
        <ele>309.713111</ele>
        <time>2011-02-27T08:36:48Z</time>
      </trkpt>
      <trkpt lat="46.84202" lon="4.70389">
        <ele>309.206313</ele>
        <time>2011-02-27T08:36:50Z</time>
      </trkpt>
      <trkpt lat="46.84186" lon="4.70384">
        <ele>308.391017</ele>
        <time>2011-02-27T08:36:52Z</time>
      </trkpt>
      <trkpt lat="46.84158" lon="4.70374">
        <ele>307.37142</ele>
        <time>2011-02-27T08:36:55Z</time>
      </trkpt>
      <trkpt lat="46.84124" lon="4.70369">
        <ele>306.315564</ele>
        <time>2011-02-27T08:36:58Z</time>
      </trkpt>
      <trkpt lat="46.84104" lon="4.70375">
        <ele>305.310881</ele>
        <time>2011-02-27T08:37:00Z</time>
      </trkpt>
      <trkpt lat="46.84086" lon="4.70383">
        <ele>304.274745</ele>
        <time>2011-02-27T08:37:02Z</time>
      </trkpt>
      <trkpt lat="46.84071" lon="4.70379">
        <ele>303.091209</ele>
        <time>2011-02-27T08:37:05Z</time>
      </trkpt>
      <trkpt lat="46.84068" lon="4.70367">
        <ele>301.830695</ele>
        <time>2011-02-27T08:37:08Z</time>
      </trkpt>
      <trkpt lat="46.84073" lon="4.70355">
        <ele>300.611446</ele>
        <time>2011-02-27T08:37:11Z</time>
      </trkpt>
      <trkpt lat="46.8408" lon="4.70343">
        <ele>299.248255</ele>
        <time>2011-02-27T08:37:15Z</time>
      </trkpt>
      <trkpt lat="46.84085" lon="4.70329">
        <ele>297.740493</ele>
        <time>2011-02-27T08:37:20Z</time>
      </trkpt>
      <trkpt lat="46.84085" lon="4.70329">
        <ele>296.604983</ele>
        <time>2011-02-27T08:37:24Z</time>
      </trkpt>
      <trkpt lat="46.84099" lon="4.70285">
        <ele>296.127194</ele>
        <time>2011-02-27T08:37:39Z</time>
      </trkpt>
      <trkpt lat="46.84099" lon="4.70285">
        <ele>296.019462</ele>
        <time>2011-02-27T08:37:43Z</time>
      </trkpt>
      <trkpt lat="46.84113" lon="4.70237">
        <ele>295.968864</ele>
        <time>2011-02-27T08:37:59Z</time>
      </trkpt>
      <trkpt lat="46.84119" lon="4.70219">
        <ele>295.84908</ele>
        <time>2011-02-27T08:38:08Z</time>
      </trkpt>
      <trkpt lat="46.84126" lon="4.70206">
        <ele>295.466908</ele>
        <time>2011-02-27T08:38:16Z</time>
      </trkpt>
      <trkpt lat="46.84134" lon="4.702">
        <ele>294.632519</ele>
        <time>2011-02-27T08:38:24Z</time>
      </trkpt>
      <trkpt lat="46.84144" lon="4.70185">
        <ele>293.592074</ele>
        <time>2011-02-27T08:38:34Z</time>
      </trkpt>
      <trkpt lat="46.84149" lon="4.70173">
        <ele>292.806761</ele>
        <time>2011-02-27T08:38:41Z</time>
      </trkpt>
      <trkpt lat="46.84155" lon="4.70162">
        <ele>292.400741</ele>
        <time>2011-02-27T08:38:48Z</time>
      </trkpt>
      <trkpt lat="46.84161" lon="4.7015">
        <ele>292.246199</ele>
        <time>2011-02-27T08:38:54Z</time>
      </trkpt>
      <trkpt lat="46.84166" lon="4.70137">
        <ele>292.219908</ele>
        <time>2011-02-27T08:38:59Z</time>
      </trkpt>
      <trkpt lat="46.84172" lon="4.70124">
        <ele>292.24417</ele>
        <time>2011-02-27T08:39:05Z</time>
      </trkpt>
      <trkpt lat="46.84177" lon="4.70113">
        <ele>292.279583</ele>
        <time>2011-02-27T08:39:12Z</time>
      </trkpt>
      <trkpt lat="46.84183" lon="4.70099">
        <ele>292.333809</ele>
        <time>2011-02-27T08:39:20Z</time>
      </trkpt>
      <trkpt lat="46.84189" lon="4.70087">
        <ele>292.436369</ele>
        <time>2011-02-27T08:39:27Z</time>
      </trkpt>
      <trkpt lat="46.84193" lon="4.70075">
        <ele>292.612387</ele>
        <time>2011-02-27T08:39:33Z</time>
      </trkpt>
      <trkpt lat="46.84198" lon="4.70062">
        <ele>292.87997</ele>
        <time>2011-02-27T08:39:41Z</time>
      </trkpt>
      <trkpt lat="46.84204" lon="4.70052">
        <ele>293.24103</ele>
        <time>2011-02-27T08:39:47Z</time>
      </trkpt>
      <trkpt lat="46.8421" lon="4.70041">
        <ele>293.670153</ele>
        <time>2011-02-27T08:39:53Z</time>
      </trkpt>
      <trkpt lat="46.84215" lon="4.7003">
        <ele>294.175543</ele>
        <time>2011-02-27T08:39:59Z</time>
      </trkpt>
      <trkpt lat="46.84222" lon="4.70019">
        <ele>294.826162</ele>
        <time>2011-02-27T08:40:05Z</time>
      </trkpt>
      <trkpt lat="46.84228" lon="4.70009">
        <ele>295.667567</ele>
        <time>2011-02-27T08:40:10Z</time>
      </trkpt>
      <trkpt lat="46.84228" lon="4.70009">
        <ele>296.520358</ele>
        <time>2011-02-27T08:40:26Z</time>
      </trkpt>
      <trkpt lat="46.84228" lon="4.70009">
        <ele>297.071246</ele>
        <time>2011-02-27T08:40:40Z</time>
      </trkpt>
      <trkpt lat="46.84248" lon="4.69968">
        <ele>297.401482</ele>
        <time>2011-02-27T08:42:45Z</time>
      </trkpt>
      <trkpt lat="46.84253" lon="4.69956">
        <ele>297.952347</ele>
        <time>2011-02-27T08:42:49Z</time>
      </trkpt>
      <trkpt lat="46.84259" lon="4.69944">
        <ele>298.886326</ele>
        <time>2011-02-27T08:42:53Z</time>
      </trkpt>
      <trkpt lat="46.84264" lon="4.69931">
        <ele>301.957124</ele>
        <time>2011-02-27T08:42:57Z</time>
      </trkpt>
      <trkpt lat="46.8427" lon="4.69919">
        <ele>308.126</ele>
        <time>2011-02-27T08:43:01Z</time>
      </trkpt>
      <trkpt lat="46.84276" lon="4.69907">
        <ele>314.294376</ele>
        <time>2011-02-27T08:43:05Z</time>
      </trkpt>
      <trkpt lat="46.84281" lon="4.69897">
        <ele>317.583214</ele>
        <time>2011-02-27T08:43:08Z</time>
      </trkpt>
      <trkpt lat="46.84288" lon="4.69887">
        <ele>318.669882</ele>
        <time>2011-02-27T08:43:11Z</time>
      </trkpt>
      <trkpt lat="46.84293" lon="4.69875">
        <ele>318.89237</ele>
        <time>2011-02-27T08:43:14Z</time>
      </trkpt>
      <trkpt lat="46.84298" lon="4.69859">
        <ele>319.049822</ele>
        <time>2011-02-27T08:43:18Z</time>
      </trkpt>
      <trkpt lat="46.84303" lon="4.69847">
        <ele>319.343839</ele>
        <time>2011-02-27T08:43:21Z</time>
      </trkpt>
      <trkpt lat="46.84308" lon="4.69836">
        <ele>319.717255</ele>
        <time>2011-02-27T08:43:24Z</time>
      </trkpt>
      <trkpt lat="46.84315" lon="4.69823">
        <ele>320.107682</ele>
        <time>2011-02-27T08:43:27Z</time>
      </trkpt>
      <trkpt lat="46.84322" lon="4.69809">
        <ele>320.481846</ele>
        <time>2011-02-27T08:43:30Z</time>
      </trkpt>
      <trkpt lat="46.84329" lon="4.69795">
        <ele>320.812662</ele>
        <time>2011-02-27T08:43:33Z</time>
      </trkpt>
      <trkpt lat="46.84336" lon="4.69781">
        <ele>321.089716</ele>
        <time>2011-02-27T08:43:36Z</time>
      </trkpt>
      <trkpt lat="46.84345" lon="4.69775">
        <ele>321.323845</ele>
        <time>2011-02-27T08:43:41Z</time>
      </trkpt>
      <trkpt lat="46.84345" lon="4.69775">
        <ele>321.501724</ele>
        <time>2011-02-27T08:43:45Z</time>
      </trkpt>
      <trkpt lat="46.84332" lon="4.69765">
        <ele>321.656282</ele>
        <time>2011-02-27T08:43:57Z</time>
      </trkpt>
      <trkpt lat="46.84325" lon="4.69755">
        <ele>321.833583</ele>
        <time>2011-02-27T08:44:01Z</time>
      </trkpt>
      <trkpt lat="46.84318" lon="4.69745">
        <ele>321.983196</ele>
        <time>2011-02-27T08:44:05Z</time>
      </trkpt>
      <trkpt lat="46.8431" lon="4.69736">
        <ele>322.032099</ele>
        <time>2011-02-27T08:44:09Z</time>
      </trkpt>
      <trkpt lat="46.84303" lon="4.69727">
        <ele>321.982415</ele>
        <time>2011-02-27T08:44:13Z</time>
      </trkpt>
      <trkpt lat="46.84293" lon="4.69722">
        <ele>321.866181</ele>
        <time>2011-02-27T08:44:18Z</time>
      </trkpt>
      <trkpt lat="46.84284" lon="4.69727">
        <ele>321.744503</ele>
        <time>2011-02-27T08:44:22Z</time>
      </trkpt>
      <trkpt lat="46.84275" lon="4.69736">
        <ele>321.658962</ele>
        <time>2011-02-27T08:44:27Z</time>
      </trkpt>
      <trkpt lat="46.84268" lon="4.69744">
        <ele>321.599486</ele>
        <time>2011-02-27T08:44:31Z</time>
      </trkpt>
      <trkpt lat="46.84261" lon="4.69756">
        <ele>321.547212</ele>
        <time>2011-02-27T08:44:36Z</time>
      </trkpt>
      <trkpt lat="46.84254" lon="4.69767">
        <ele>321.499381</ele>
        <time>2011-02-27T08:44:40Z</time>
      </trkpt>
      <trkpt lat="46.84246" lon="4.69778">
        <ele>321.452059</ele>
        <time>2011-02-27T08:44:44Z</time>
      </trkpt>
      <trkpt lat="46.84239" lon="4.69789">
        <ele>321.402464</ele>
        <time>2011-02-27T08:44:48Z</time>
      </trkpt>
      <trkpt lat="46.84232" lon="4.69799">
        <ele>321.347699</ele>
        <time>2011-02-27T08:44:51Z</time>
      </trkpt>
      <trkpt lat="46.84224" lon="4.69808">
        <ele>321.281075</ele>
        <time>2011-02-27T08:44:54Z</time>
      </trkpt>
      <trkpt lat="46.84218" lon="4.69819">
        <ele>321.207291</ele>
        <time>2011-02-27T08:44:57Z</time>
      </trkpt>
      <trkpt lat="46.84211" lon="4.69828">
        <ele>321.148232</ele>
        <time>2011-02-27T08:45:00Z</time>
      </trkpt>
      <trkpt lat="46.84203" lon="4.69839">
        <ele>321.119598</ele>
        <time>2011-02-27T08:45:04Z</time>
      </trkpt>
      <trkpt lat="46.84196" lon="4.69849">
        <ele>321.114894</ele>
        <time>2011-02-27T08:45:08Z</time>
      </trkpt>
      <trkpt lat="46.84189" lon="4.69859">
        <ele>321.126258</ele>
        <time>2011-02-27T08:45:13Z</time>
      </trkpt>
      <trkpt lat="46.84182" lon="4.69871">
        <ele>321.159139</ele>
        <time>2011-02-27T08:45:18Z</time>
      </trkpt>
      <trkpt lat="46.84175" lon="4.69882">
        <ele>321.210924</ele>
        <time>2011-02-27T08:45:22Z</time>
      </trkpt>
      <trkpt lat="46.84166" lon="4.69891">
        <ele>321.258586</ele>
        <time>2011-02-27T08:45:25Z</time>
      </trkpt>
      <trkpt lat="46.84156" lon="4.6989">
        <ele>321.283766</ele>
        <time>2011-02-27T08:45:28Z</time>
      </trkpt>
      <trkpt lat="46.84148" lon="4.69885">
        <ele>321.28912</ele>
        <time>2011-02-27T08:45:32Z</time>
      </trkpt>
      <trkpt lat="46.84139" lon="4.69877">
        <ele>321.283889</ele>
        <time>2011-02-27T08:45:36Z</time>
      </trkpt>
      <trkpt lat="46.84131" lon="4.69868">
        <ele>321.244197</ele>
        <time>2011-02-27T08:45:40Z</time>
      </trkpt>
      <trkpt lat="46.84122" lon="4.6986">
        <ele>321.13302</ele>
        <time>2011-02-27T08:45:44Z</time>
      </trkpt>
      <trkpt lat="46.84114" lon="4.69853">
        <ele>320.942665</ele>
        <time>2011-02-27T08:45:48Z</time>
      </trkpt>
      <trkpt lat="46.84106" lon="4.69844">
        <ele>320.684628</ele>
        <time>2011-02-27T08:45:52Z</time>
      </trkpt>
      <trkpt lat="46.841" lon="4.69835">
        <ele>320.378272</ele>
        <time>2011-02-27T08:45:55Z</time>
      </trkpt>
      <trkpt lat="46.84093" lon="4.69826">
        <ele>320.056717</ele>
        <time>2011-02-27T08:45:58Z</time>
      </trkpt>
      <trkpt lat="46.84084" lon="4.69818">
        <ele>319.737002</ele>
        <time>2011-02-27T08:46:01Z</time>
      </trkpt>
      <trkpt lat="46.84075" lon="4.69811">
        <ele>319.421628</ele>
        <time>2011-02-27T08:46:04Z</time>
      </trkpt>
      <trkpt lat="46.84066" lon="4.69805">
        <ele>319.111366</ele>
        <time>2011-02-27T08:46:08Z</time>
      </trkpt>
      <trkpt lat="46.84057" lon="4.69797">
        <ele>318.810675</ele>
        <time>2011-02-27T08:46:14Z</time>
      </trkpt>
      <trkpt lat="46.84049" lon="4.6979">
        <ele>318.526749</ele>
        <time>2011-02-27T08:46:19Z</time>
      </trkpt>
      <trkpt lat="46.84039" lon="4.69782">
        <ele>318.248681</ele>
        <time>2011-02-27T08:46:24Z</time>
      </trkpt>
      <trkpt lat="46.84031" lon="4.69768">
        <ele>317.949449</ele>
        <time>2011-02-27T08:46:28Z</time>
      </trkpt>
      <trkpt lat="46.84026" lon="4.69758">
        <ele>317.639998</ele>
        <time>2011-02-27T08:46:31Z</time>
      </trkpt>
      <trkpt lat="46.84017" lon="4.6975">
        <ele>317.332048</ele>
        <time>2011-02-27T08:46:35Z</time>
      </trkpt>
      <trkpt lat="46.84009" lon="4.69744">
        <ele>317.010625</ele>
        <time>2011-02-27T08:46:38Z</time>
      </trkpt>
      <trkpt lat="46.84001" lon="4.69736">
        <ele>316.725351</ele>
        <time>2011-02-27T08:46:41Z</time>
      </trkpt>
      <trkpt lat="46.83993" lon="4.6973">
        <ele>316.563169</ele>
        <time>2011-02-27T08:46:44Z</time>
      </trkpt>
      <trkpt lat="46.83982" lon="4.69723">
        <ele>316.522494</ele>
        <time>2011-02-27T08:46:48Z</time>
      </trkpt>
      <trkpt lat="46.83974" lon="4.69718">
        <ele>316.546222</ele>
        <time>2011-02-27T08:46:51Z</time>
      </trkpt>
      <trkpt lat="46.83965" lon="4.69714">
        <ele>316.624961</ele>
        <time>2011-02-27T08:46:54Z</time>
      </trkpt>
      <trkpt lat="46.83954" lon="4.69711">
        <ele>316.812594</ele>
        <time>2011-02-27T08:46:57Z</time>
      </trkpt>
      <trkpt lat="46.83945" lon="4.69704">
        <ele>317.134056</ele>
        <time>2011-02-27T08:47:01Z</time>
      </trkpt>
      <trkpt lat="46.83937" lon="4.69698">
        <ele>317.541444</ele>
        <time>2011-02-27T08:47:05Z</time>
      </trkpt>
      <trkpt lat="46.8393" lon="4.69688">
        <ele>317.989683</ele>
        <time>2011-02-27T08:47:09Z</time>
      </trkpt>
      <trkpt lat="46.83921" lon="4.6968">
        <ele>318.493707</ele>
        <time>2011-02-27T08:47:13Z</time>
      </trkpt>
      <trkpt lat="46.83914" lon="4.69671">
        <ele>319.081634</ele>
        <time>2011-02-27T08:47:17Z</time>
      </trkpt>
      <trkpt lat="46.83906" lon="4.6966">
        <ele>319.740576</ele>
        <time>2011-02-27T08:47:21Z</time>
      </trkpt>
      <trkpt lat="46.83897" lon="4.69648">
        <ele>320.428368</ele>
        <time>2011-02-27T08:47:25Z</time>
      </trkpt>
      <trkpt lat="46.83891" lon="4.69637">
        <ele>321.114771</ele>
        <time>2011-02-27T08:47:28Z</time>
      </trkpt>
      <trkpt lat="46.83885" lon="4.69626">
        <ele>321.782057</ele>
        <time>2011-02-27T08:47:31Z</time>
      </trkpt>
      <trkpt lat="46.83876" lon="4.69621">
        <ele>322.423383</ele>
        <time>2011-02-27T08:47:34Z</time>
      </trkpt>
      <trkpt lat="46.83866" lon="4.69625">
        <ele>323.019936</ele>
        <time>2011-02-27T08:47:36Z</time>
      </trkpt>
      <trkpt lat="46.83851" lon="4.69641">
        <ele>323.540916</ele>
        <time>2011-02-27T08:47:39Z</time>
      </trkpt>
      <trkpt lat="46.83842" lon="4.69641">
        <ele>324.176836</ele>
        <time>2011-02-27T08:47:41Z</time>
      </trkpt>
      <trkpt lat="46.83833" lon="4.69631">
        <ele>325.263634</ele>
        <time>2011-02-27T08:47:44Z</time>
      </trkpt>
      <trkpt lat="46.83836" lon="4.69615">
        <ele>326.595843</ele>
        <time>2011-02-27T08:47:47Z</time>
      </trkpt>
      <trkpt lat="46.83842" lon="4.69595">
        <ele>327.530739</ele>
        <time>2011-02-27T08:47:50Z</time>
      </trkpt>
      <trkpt lat="46.83842" lon="4.69595">
        <ele>327.854173</ele>
        <time>2011-02-27T08:47:54Z</time>
      </trkpt>
      <trkpt lat="46.83842" lon="4.69595">
        <ele>327.808758</ele>
        <time>2011-02-27T08:48:02Z</time>
      </trkpt>
      <trkpt lat="46.83829" lon="4.69607">
        <ele>327.596533</ele>
        <time>2011-02-27T08:48:04Z</time>
      </trkpt>
      <trkpt lat="46.8382" lon="4.69615">
        <ele>327.302395</ele>
        <time>2011-02-27T08:48:07Z</time>
      </trkpt>
      <trkpt lat="46.83803" lon="4.69621">
        <ele>326.931402</ele>
        <time>2011-02-27T08:48:10Z</time>
      </trkpt>
      <trkpt lat="46.83783" lon="4.69625">
        <ele>326.493758</ele>
        <time>2011-02-27T08:48:13Z</time>
      </trkpt>
      <trkpt lat="46.83765" lon="4.69618">
        <ele>326.082695</ele>
        <time>2011-02-27T08:48:16Z</time>
      </trkpt>
      <trkpt lat="46.83754" lon="4.69609">
        <ele>325.55265</ele>
        <time>2011-02-27T08:48:18Z</time>
      </trkpt>
      <trkpt lat="46.83737" lon="4.69595">
        <ele>324.623841</ele>
        <time>2011-02-27T08:48:21Z</time>
      </trkpt>
      <trkpt lat="46.83729" lon="4.69578">
        <ele>323.435787</ele>
        <time>2011-02-27T08:48:23Z</time>
      </trkpt>
      <trkpt lat="46.83725" lon="4.69562">
        <ele>322.308539</ele>
        <time>2011-02-27T08:48:25Z</time>
      </trkpt>
      <trkpt lat="46.83725" lon="4.69562">
        <ele>321.422351</ele>
        <time>2011-02-27T08:48:29Z</time>
      </trkpt>
      <trkpt lat="46.8374" lon="4.69515">
        <ele>320.628573</ele>
        <time>2011-02-27T08:48:47Z</time>
      </trkpt>
      <trkpt lat="46.83747" lon="4.69506">
        <ele>319.489678</ele>
        <time>2011-02-27T08:48:52Z</time>
      </trkpt>
      <trkpt lat="46.83754" lon="4.69496">
        <ele>317.9747</ele>
        <time>2011-02-27T08:48:57Z</time>
      </trkpt>
      <trkpt lat="46.8376" lon="4.69483">
        <ele>316.479851</ele>
        <time>2011-02-27T08:49:03Z</time>
      </trkpt>
      <trkpt lat="46.83768" lon="4.69472">
        <ele>315.274779</ele>
        <time>2011-02-27T08:49:09Z</time>
      </trkpt>
      <trkpt lat="46.83775" lon="4.69462">
        <ele>314.477127</ele>
        <time>2011-02-27T08:49:14Z</time>
      </trkpt>
      <trkpt lat="46.83783" lon="4.69452">
        <ele>314.006635</ele>
        <time>2011-02-27T08:49:20Z</time>
      </trkpt>
      <trkpt lat="46.83789" lon="4.69442">
        <ele>313.671109</ele>
        <time>2011-02-27T08:49:25Z</time>
      </trkpt>
      <trkpt lat="46.83797" lon="4.69434">
        <ele>313.386305</ele>
        <time>2011-02-27T08:49:30Z</time>
      </trkpt>
      <trkpt lat="46.83805" lon="4.69424">
        <ele>313.164294</ele>
        <time>2011-02-27T08:49:35Z</time>
      </trkpt>
      <trkpt lat="46.83814" lon="4.69416">
        <ele>313.029015</ele>
        <time>2011-02-27T08:49:40Z</time>
      </trkpt>
      <trkpt lat="46.83822" lon="4.69406">
        <ele>312.976285</ele>
        <time>2011-02-27T08:49:45Z</time>
      </trkpt>
      <trkpt lat="46.8383" lon="4.69399">
        <ele>312.973593</ele>
        <time>2011-02-27T08:49:50Z</time>
      </trkpt>
      <trkpt lat="46.83839" lon="4.69391">
        <ele>312.986593</ele>
        <time>2011-02-27T08:49:55Z</time>
      </trkpt>
      <trkpt lat="46.83847" lon="4.69381">
        <ele>313.003819</ele>
        <time>2011-02-27T08:50:00Z</time>
      </trkpt>
      <trkpt lat="46.83852" lon="4.69371">
        <ele>313.031038</ele>
        <time>2011-02-27T08:50:06Z</time>
      </trkpt>
      <trkpt lat="46.83852" lon="4.69371">
        <ele>313.063632</ele>
        <time>2011-02-27T08:50:16Z</time>
      </trkpt>
      <trkpt lat="46.83852" lon="4.69371">
        <ele>313.085974</ele>
        <time>2011-02-27T08:50:32Z</time>
      </trkpt>
      <trkpt lat="46.8383" lon="4.69349">
        <ele>313.095592</ele>
        <time>2011-02-27T08:52:26Z</time>
      </trkpt>
      <trkpt lat="46.83825" lon="4.69336">
        <ele>313.108761</ele>
        <time>2011-02-27T08:52:34Z</time>
      </trkpt>
      <trkpt lat="46.8382" lon="4.69324">
        <ele>313.151194</ele>
        <time>2011-02-27T08:52:39Z</time>
      </trkpt>
      <trkpt lat="46.83813" lon="4.69312">
        <ele>313.923742</ele>
        <time>2011-02-27T08:52:45Z</time>
      </trkpt>
      <trkpt lat="46.83806" lon="4.69303">
        <ele>315.886567</ele>
        <time>2011-02-27T08:52:51Z</time>
      </trkpt>
      <trkpt lat="46.83806" lon="4.69303">
        <ele>317.981608</ele>
        <time>2011-02-27T08:53:07Z</time>
      </trkpt>
      <trkpt lat="46.83779" lon="4.69319">
        <ele>319.121786</ele>
        <time>2011-02-27T08:54:00Z</time>
      </trkpt>
      <trkpt lat="46.8377" lon="4.69314">
        <ele>319.519582</ele>
        <time>2011-02-27T08:54:09Z</time>
      </trkpt>
      <trkpt lat="46.83761" lon="4.6931">
        <ele>319.657405</ele>
        <time>2011-02-27T08:54:16Z</time>
      </trkpt>
      <trkpt lat="46.8375" lon="4.6931">
        <ele>321.175722</ele>
        <time>2011-02-27T08:54:22Z</time>
      </trkpt>
      <trkpt lat="46.8374" lon="4.69312">
        <ele>325.542431</ele>
        <time>2011-02-27T08:54:27Z</time>
      </trkpt>
      <trkpt lat="46.8373" lon="4.69311">
        <ele>331.219101</ele>
        <time>2011-02-27T08:54:32Z</time>
      </trkpt>
      <trkpt lat="46.83721" lon="4.69311">
        <ele>335.558047</ele>
        <time>2011-02-27T08:54:37Z</time>
      </trkpt>
      <trkpt lat="46.83711" lon="4.69313">
        <ele>337.90667</ele>
        <time>2011-02-27T08:54:42Z</time>
      </trkpt>
      <trkpt lat="46.83702" lon="4.69308">
        <ele>338.849166</ele>
        <time>2011-02-27T08:54:47Z</time>
      </trkpt>
      <trkpt lat="46.83694" lon="4.69298">
        <ele>339.152373</ele>
        <time>2011-02-27T08:54:52Z</time>
      </trkpt>
      <trkpt lat="46.83694" lon="4.69298">
        <ele>339.2605</ele>
        <time>2011-02-27T08:55:08Z</time>
      </trkpt>
      <trkpt lat="46.83694" lon="4.69298">
        <ele>339.302677</ele>
        <time>2011-02-27T08:55:22Z</time>
      </trkpt>
      <trkpt lat="46.83684" lon="4.6927">
        <ele>339.343669</ele>
        <time>2011-02-27T08:55:57Z</time>
      </trkpt>
      <trkpt lat="46.83678" lon="4.69259">
        <ele>339.462825</ele>
        <time>2011-02-27T08:55:59Z</time>
      </trkpt>
      <trkpt lat="46.83677" lon="4.69238">
        <ele>339.644093</ele>
        <time>2011-02-27T08:56:02Z</time>
      </trkpt>
      <trkpt lat="46.83682" lon="4.69222">
        <ele>340.18079</ele>
        <time>2011-02-27T08:56:05Z</time>
      </trkpt>
      <trkpt lat="46.8369" lon="4.69214">
        <ele>341.840954</ele>
        <time>2011-02-27T08:56:08Z</time>
      </trkpt>
      <trkpt lat="46.837" lon="4.69207">
        <ele>344.918418</ele>
        <time>2011-02-27T08:56:11Z</time>
      </trkpt>
      <trkpt lat="46.8371" lon="4.69201">
        <ele>348.490968</ele>
        <time>2011-02-27T08:56:14Z</time>
      </trkpt>
      <trkpt lat="46.83716" lon="4.69189">
        <ele>351.189136</ele>
        <time>2011-02-27T08:56:17Z</time>
      </trkpt>
      <trkpt lat="46.83712" lon="4.69175">
        <ele>352.423457</ele>
        <time>2011-02-27T08:56:20Z</time>
      </trkpt>
      <trkpt lat="46.83701" lon="4.6917">
        <ele>352.597968</ele>
        <time>2011-02-27T08:56:23Z</time>
      </trkpt>
      <trkpt lat="46.83692" lon="4.69169">
        <ele>352.377509</ele>
        <time>2011-02-27T08:56:26Z</time>
      </trkpt>
      <trkpt lat="46.83681" lon="4.6917">
        <ele>352.020255</ele>
        <time>2011-02-27T08:56:30Z</time>
      </trkpt>
      <trkpt lat="46.83672" lon="4.69178">
        <ele>351.46175</ele>
        <time>2011-02-27T08:56:34Z</time>
      </trkpt>
      <trkpt lat="46.83665" lon="4.69187">
        <ele>350.819639</ele>
        <time>2011-02-27T08:56:37Z</time>
      </trkpt>
      <trkpt lat="46.83665" lon="4.69187">
        <ele>350.377478</ele>
        <time>2011-02-27T08:56:39Z</time>
      </trkpt>
      <trkpt lat="46.83637" lon="4.69175">
        <ele>350.190039</ele>
        <time>2011-02-27T08:57:37Z</time>
      </trkpt>
      <trkpt lat="46.83637" lon="4.69175">
        <ele>350.12155</ele>
        <time>2011-02-27T08:57:38Z</time>
      </trkpt>
      <trkpt lat="46.83637" lon="4.69175">
        <ele>350.059196</ele>
        <time>2011-02-27T08:57:39Z</time>
      </trkpt>
      <trkpt lat="46.83637" lon="4.69175">
        <ele>349.965752</ele>
        <time>2011-02-27T08:57:39Z</time>
      </trkpt>
      <trkpt lat="46.83637" lon="4.69175">
        <ele>349.851739</ele>
        <time>2011-02-27T08:57:40Z</time>
      </trkpt>
      <trkpt lat="46.83637" lon="4.69175">
        <ele>349.749192</ele>
        <time>2011-02-27T08:57:40Z</time>
      </trkpt>
      <trkpt lat="46.8363" lon="4.69182">
        <ele>349.666228</ele>
        <time>2011-02-27T08:57:41Z</time>
      </trkpt>
      <trkpt lat="46.83622" lon="4.69193">
        <ele>349.600523</ele>
        <time>2011-02-27T08:57:46Z</time>
      </trkpt>
      <trkpt lat="46.83615" lon="4.69204">
        <ele>349.546088</ele>
        <time>2011-02-27T08:57:52Z</time>
      </trkpt>
      <trkpt lat="46.83615" lon="4.69204">
        <ele>349.452455</ele>
        <time>2011-02-27T08:57:54Z</time>
      </trkpt>
      <trkpt lat="46.83615" lon="4.69204">
        <ele>349.290622</ele>
        <time>2011-02-27T08:58:22Z</time>
      </trkpt>
      <trkpt lat="46.83638" lon="4.69177">
        <ele>348.560983</ele>
        <time>2011-02-27T08:58:39Z</time>
      </trkpt>
      <trkpt lat="46.83648" lon="4.69179">
        <ele>346.872023</ele>
        <time>2011-02-27T08:58:51Z</time>
      </trkpt>
      <trkpt lat="46.83661" lon="4.69183">
        <ele>344.907491</ele>
        <time>2011-02-27T08:58:58Z</time>
      </trkpt>
      <trkpt lat="46.83672" lon="4.69177">
        <ele>343.40405</ele>
        <time>2011-02-27T08:59:06Z</time>
      </trkpt>
      <trkpt lat="46.83681" lon="4.69174">
        <ele>342.345702</ele>
        <time>2011-02-27T08:59:11Z</time>
      </trkpt>
      <trkpt lat="46.8369" lon="4.69171">
        <ele>341.717892</ele>
        <time>2011-02-27T08:59:16Z</time>
      </trkpt>
      <trkpt lat="46.83699" lon="4.6917">
        <ele>341.491354</ele>
        <time>2011-02-27T08:59:20Z</time>
      </trkpt>
      <trkpt lat="46.83709" lon="4.69175">
        <ele>341.479447</ele>
        <time>2011-02-27T08:59:25Z</time>
      </trkpt>
      <trkpt lat="46.83716" lon="4.69187">
        <ele>341.509408</ele>
        <time>2011-02-27T08:59:30Z</time>
      </trkpt>
      <trkpt lat="46.83714" lon="4.69201">
        <ele>341.506106</ele>
        <time>2011-02-27T08:59:36Z</time>
      </trkpt>
      <trkpt lat="46.83705" lon="4.69207">
        <ele>341.46004</ele>
        <time>2011-02-27T08:59:41Z</time>
      </trkpt>
      <trkpt lat="46.83696" lon="4.69214">
        <ele>341.347399</ele>
        <time>2011-02-27T08:59:45Z</time>
      </trkpt>
      <trkpt lat="46.83687" lon="4.69218">
        <ele>341.110107</ele>
        <time>2011-02-27T08:59:48Z</time>
      </trkpt>
      <trkpt lat="46.83677" lon="4.69223">
        <ele>340.745829</ele>
        <time>2011-02-27T08:59:52Z</time>
      </trkpt>
      <trkpt lat="46.83671" lon="4.69234">
        <ele>340.341947</ele>
        <time>2011-02-27T08:59:56Z</time>
      </trkpt>
      <trkpt lat="46.83664" lon="4.69249">
        <ele>339.997326</ele>
        <time>2011-02-27T09:00:00Z</time>
      </trkpt>
      <trkpt lat="46.83658" lon="4.69263">
        <ele>339.737457</ele>
        <time>2011-02-27T09:00:03Z</time>
      </trkpt>
      <trkpt lat="46.8365" lon="4.6928">
        <ele>339.53156</ele>
        <time>2011-02-27T09:00:06Z</time>
      </trkpt>
      <trkpt lat="46.8364" lon="4.69288">
        <ele>339.350614</ele>
        <time>2011-02-27T09:00:09Z</time>
      </trkpt>
      <trkpt lat="46.8364" lon="4.69288">
        <ele>339.187515</ele>
        <time>2011-02-27T09:00:12Z</time>
      </trkpt>
      <trkpt lat="46.8364" lon="4.69288">
        <ele>339.053043</ele>
        <time>2011-02-27T09:00:48Z</time>
      </trkpt>
      <trkpt lat="46.8366" lon="4.69265">
        <ele>338.947111</ele>
        <time>2011-02-27T09:02:34Z</time>
      </trkpt>
      <trkpt lat="46.83667" lon="4.69252">
        <ele>338.710314</ele>
        <time>2011-02-27T09:02:40Z</time>
      </trkpt>
      <trkpt lat="46.83675" lon="4.69239">
        <ele>338.178036</ele>
        <time>2011-02-27T09:02:47Z</time>
      </trkpt>
      <trkpt lat="46.83675" lon="4.69239">
        <ele>337.537921</ele>
        <time>2011-02-27T09:02:56Z</time>
      </trkpt>
      <trkpt lat="46.83685" lon="4.69286">
        <ele>337.114826</ele>
        <time>2011-02-27T09:03:16Z</time>
      </trkpt>
      <trkpt lat="46.83685" lon="4.69286">
        <ele>336.920347</ele>
        <time>2011-02-27T09:03:29Z</time>
      </trkpt>
      <trkpt lat="46.83685" lon="4.69286">
        <ele>336.778698</ele>
        <time>2011-02-27T09:03:45Z</time>
      </trkpt>
      <trkpt lat="46.83709" lon="4.69311">
        <ele>336.660966</ele>
        <time>2011-02-27T09:04:09Z</time>
      </trkpt>
      <trkpt lat="46.83719" lon="4.69311">
        <ele>336.679423</ele>
        <time>2011-02-27T09:04:17Z</time>
      </trkpt>
      <trkpt lat="46.83728" lon="4.69307">
        <ele>336.880366</ele>
        <time>2011-02-27T09:04:23Z</time>
      </trkpt>
      <trkpt lat="46.8374" lon="4.69304">
        <ele>337.108854</ele>
        <time>2011-02-27T09:04:28Z</time>
      </trkpt>
      <trkpt lat="46.83752" lon="4.69302">
        <ele>337.176162</ele>
        <time>2011-02-27T09:04:31Z</time>
      </trkpt>
      <trkpt lat="46.83763" lon="4.69298">
        <ele>337.100589</ele>
        <time>2011-02-27T09:04:34Z</time>
      </trkpt>
      <trkpt lat="46.83774" lon="4.69296">
        <ele>337.016254</ele>
        <time>2011-02-27T09:04:37Z</time>
      </trkpt>
      <trkpt lat="46.83787" lon="4.69299">
        <ele>336.729481</ele>
        <time>2011-02-27T09:04:40Z</time>
      </trkpt>
      <trkpt lat="46.83795" lon="4.6931">
        <ele>335.843736</ele>
        <time>2011-02-27T09:04:42Z</time>
      </trkpt>
      <trkpt lat="46.83802" lon="4.69322">
        <ele>334.540835</ele>
        <time>2011-02-27T09:04:44Z</time>
      </trkpt>
      <trkpt lat="46.83802" lon="4.69322">
        <ele>333.520745</ele>
        <time>2011-02-27T09:04:48Z</time>
      </trkpt>
      <trkpt lat="46.83821" lon="4.69344">
        <ele>332.779382</ele>
        <time>2011-02-27T09:05:10Z</time>
      </trkpt>
      <trkpt lat="46.83834" lon="4.69359">
        <ele>331.536848</ele>
        <time>2011-02-27T09:05:13Z</time>
      </trkpt>
      <trkpt lat="46.83838" lon="4.69376">
        <ele>329.337</ele>
        <time>2011-02-27T09:05:16Z</time>
      </trkpt>
      <trkpt lat="46.83829" lon="4.69388">
        <ele>326.706593</ele>
        <time>2011-02-27T09:05:19Z</time>
      </trkpt>
      <trkpt lat="46.83821" lon="4.69398">
        <ele>324.481267</ele>
        <time>2011-02-27T09:05:21Z</time>
      </trkpt>
      <trkpt lat="46.8381" lon="4.69413">
        <ele>322.969409</ele>
        <time>2011-02-27T09:05:24Z</time>
      </trkpt>
      <trkpt lat="46.83802" lon="4.69424">
        <ele>321.929078</ele>
        <time>2011-02-27T09:05:26Z</time>
      </trkpt>
      <trkpt lat="46.8379" lon="4.69437">
        <ele>321.052313</ele>
        <time>2011-02-27T09:05:29Z</time>
      </trkpt>
      <trkpt lat="46.83778" lon="4.69447">
        <ele>320.170638</ele>
        <time>2011-02-27T09:05:32Z</time>
      </trkpt>
      <trkpt lat="46.83768" lon="4.69459">
        <ele>319.342396</ele>
        <time>2011-02-27T09:05:35Z</time>
      </trkpt>
      <trkpt lat="46.83759" lon="4.69473">
        <ele>318.551028</ele>
        <time>2011-02-27T09:05:38Z</time>
      </trkpt>
      <trkpt lat="46.83752" lon="4.69486">
        <ele>317.706655</ele>
        <time>2011-02-27T09:05:41Z</time>
      </trkpt>
      <trkpt lat="46.83747" lon="4.69497">
        <ele>316.925989</ele>
        <time>2011-02-27T09:05:45Z</time>
      </trkpt>
      <trkpt lat="46.83747" lon="4.69497">
        <ele>316.444427</ele>
        <time>2011-02-27T09:05:46Z</time>
      </trkpt>
      <trkpt lat="46.83741" lon="4.69519">
        <ele>316.245036</ele>
        <time>2011-02-27T09:05:52Z</time>
      </trkpt>
      <trkpt lat="46.83734" lon="4.69528">
        <ele>316.12835</ele>
        <time>2011-02-27T09:05:56Z</time>
      </trkpt>
      <trkpt lat="46.83734" lon="4.69528">
        <ele>315.980259</ele>
        <time>2011-02-27T09:05:58Z</time>
      </trkpt>
      <trkpt lat="46.83724" lon="4.69549">
        <ele>315.840803</ele>
        <time>2011-02-27T09:06:03Z</time>
      </trkpt>
      <trkpt lat="46.83715" lon="4.69573">
        <ele>315.734977</ele>
        <time>2011-02-27T09:06:06Z</time>
      </trkpt>
      <trkpt lat="46.83708" lon="4.69599">
        <ele>315.608429</ele>
        <time>2011-02-27T09:06:08Z</time>
      </trkpt>
      <trkpt lat="46.837" lon="4.69623">
        <ele>315.243933</ele>
        <time>2011-02-27T09:06:10Z</time>
      </trkpt>
      <trkpt lat="46.83687" lon="4.69645">
        <ele>314.280164</ele>
        <time>2011-02-27T09:06:12Z</time>
      </trkpt>
      <trkpt lat="46.83662" lon="4.69674">
        <ele>312.722793</ele>
        <time>2011-02-27T09:06:15Z</time>
      </trkpt>
      <trkpt lat="46.83635" lon="4.69705">
        <ele>311.015309</ele>
        <time>2011-02-27T09:06:18Z</time>
      </trkpt>
      <trkpt lat="46.83618" lon="4.6973">
        <ele>309.443722</ele>
        <time>2011-02-27T09:06:20Z</time>
      </trkpt>
      <trkpt lat="46.83592" lon="4.69757">
        <ele>308.024771</ele>
        <time>2011-02-27T09:06:23Z</time>
      </trkpt>
      <trkpt lat="46.8357" lon="4.69774">
        <ele>306.665359</ele>
        <time>2011-02-27T09:06:25Z</time>
      </trkpt>
      <trkpt lat="46.83536" lon="4.69795">
        <ele>305.323582</ele>
        <time>2011-02-27T09:06:28Z</time>
      </trkpt>
      <trkpt lat="46.83515" lon="4.69805">
        <ele>303.835882</ele>
        <time>2011-02-27T09:06:30Z</time>
      </trkpt>
      <trkpt lat="46.83487" lon="4.69816">
        <ele>301.955302</ele>
        <time>2011-02-27T09:06:33Z</time>
      </trkpt>
      <trkpt lat="46.83469" lon="4.69824">
        <ele>300.009132</ele>
        <time>2011-02-27T09:06:36Z</time>
      </trkpt>
      <trkpt lat="46.83461" lon="4.6983">
        <ele>298.620407</ele>
        <time>2011-02-27T09:06:39Z</time>
      </trkpt>
      <trkpt lat="46.83461" lon="4.6983">
        <ele>297.901485</ele>
        <time>2011-02-27T09:06:40Z</time>
      </trkpt>
      <trkpt lat="46.83458" lon="4.69851">
        <ele>297.510433</ele>
        <time>2011-02-27T09:06:52Z</time>
      </trkpt>
      <trkpt lat="46.83461" lon="4.69866">
        <ele>296.830287</ele>
        <time>2011-02-27T09:06:55Z</time>
      </trkpt>
      <trkpt lat="46.83466" lon="4.69883">
        <ele>295.669491</ele>
        <time>2011-02-27T09:06:58Z</time>
      </trkpt>
      <trkpt lat="46.83469" lon="4.69896">
        <ele>294.407492</ele>
        <time>2011-02-27T09:07:00Z</time>
      </trkpt>
      <trkpt lat="46.8347" lon="4.69914">
        <ele>293.320009</ele>
        <time>2011-02-27T09:07:03Z</time>
      </trkpt>
      <trkpt lat="46.8347" lon="4.69914">
        <ele>292.556801</ele>
        <time>2011-02-27T09:07:06Z</time>
      </trkpt>
      <trkpt lat="46.83456" lon="4.69901">
        <ele>292.015447</ele>
        <time>2011-02-27T09:07:11Z</time>
      </trkpt>
      <trkpt lat="46.83451" lon="4.69889">
        <ele>291.157923</ele>
        <time>2011-02-27T09:07:14Z</time>
      </trkpt>
      <trkpt lat="46.83446" lon="4.69877">
        <ele>289.784058</ele>
        <time>2011-02-27T09:07:17Z</time>
      </trkpt>
      <trkpt lat="46.83441" lon="4.69865">
        <ele>288.271717</ele>
        <time>2011-02-27T09:07:20Z</time>
      </trkpt>
      <trkpt lat="46.83436" lon="4.69851">
        <ele>287.020277</ele>
        <time>2011-02-27T09:07:24Z</time>
      </trkpt>
      <trkpt lat="46.83436" lon="4.69851">
        <ele>286.219923</ele>
        <time>2011-02-27T09:07:25Z</time>
      </trkpt>
      <trkpt lat="46.83427" lon="4.69831">
        <ele>285.798093</ele>
        <time>2011-02-27T09:07:31Z</time>
      </trkpt>
      <trkpt lat="46.83423" lon="4.6982">
        <ele>285.45967</ele>
        <time>2011-02-27T09:07:34Z</time>
      </trkpt>
      <trkpt lat="46.83418" lon="4.69807">
        <ele>284.958749</ele>
        <time>2011-02-27T09:07:37Z</time>
      </trkpt>
      <trkpt lat="46.83412" lon="4.69797">
        <ele>284.144148</ele>
        <time>2011-02-27T09:07:40Z</time>
      </trkpt>
      <trkpt lat="46.83412" lon="4.69797">
        <ele>283.135862</ele>
        <time>2011-02-27T09:07:43Z</time>
      </trkpt>
      <trkpt lat="46.83394" lon="4.69778">
        <ele>282.287291</ele>
        <time>2011-02-27T09:07:50Z</time>
      </trkpt>
      <trkpt lat="46.83385" lon="4.69773">
        <ele>281.655802</ele>
        <time>2011-02-27T09:07:54Z</time>
      </trkpt>
      <trkpt lat="46.83376" lon="4.69764">
        <ele>281.040725</ele>
        <time>2011-02-27T09:07:58Z</time>
      </trkpt>
      <trkpt lat="46.83369" lon="4.69753">
        <ele>280.172194</ele>
        <time>2011-02-27T09:08:02Z</time>
      </trkpt>
      <trkpt lat="46.83361" lon="4.69741">
        <ele>278.929139</ele>
        <time>2011-02-27T09:08:06Z</time>
      </trkpt>
      <trkpt lat="46.83354" lon="4.69733">
        <ele>277.63832</ele>
        <time>2011-02-27T09:08:09Z</time>
      </trkpt>
      <trkpt lat="46.83346" lon="4.69726">
        <ele>276.611264</ele>
        <time>2011-02-27T09:08:12Z</time>
      </trkpt>
      <trkpt lat="46.83335" lon="4.69719">
        <ele>275.784205</ele>
        <time>2011-02-27T09:08:16Z</time>
      </trkpt>
      <trkpt lat="46.83328" lon="4.69708">
        <ele>275.05031</ele>
        <time>2011-02-27T09:08:19Z</time>
      </trkpt>
      <trkpt lat="46.83322" lon="4.69698">
        <ele>274.38585</ele>
        <time>2011-02-27T09:08:22Z</time>
      </trkpt>
      <trkpt lat="46.83313" lon="4.69695">
        <ele>273.769782</ele>
        <time>2011-02-27T09:08:25Z</time>
      </trkpt>
      <trkpt lat="46.83313" lon="4.69695">
        <ele>273.240032</ele>
        <time>2011-02-27T09:08:27Z</time>
      </trkpt>
      <trkpt lat="46.8329" lon="4.69738">
        <ele>272.852984</ele>
        <time>2011-02-27T09:08:51Z</time>
      </trkpt>
      <trkpt lat="46.8329" lon="4.69738">
        <ele>272.586163</ele>
        <time>2011-02-27T09:08:54Z</time>
      </trkpt>
      <trkpt lat="46.83278" lon="4.69777">
        <ele>272.364745</ele>
        <time>2011-02-27T09:09:08Z</time>
      </trkpt>
      <trkpt lat="46.83276" lon="4.6979">
        <ele>272.099276</ele>
        <time>2011-02-27T09:09:13Z</time>
      </trkpt>
      <trkpt lat="46.83274" lon="4.69803">
        <ele>271.181087</ele>
        <time>2011-02-27T09:09:17Z</time>
      </trkpt>
      <trkpt lat="46.83269" lon="4.69817">
        <ele>268.80806</ele>
        <time>2011-02-27T09:09:22Z</time>
      </trkpt>
      <trkpt lat="46.83264" lon="4.6983">
        <ele>265.486583</ele>
        <time>2011-02-27T09:09:27Z</time>
      </trkpt>
      <trkpt lat="46.83261" lon="4.69844">
        <ele>262.759352</ele>
        <time>2011-02-27T09:09:32Z</time>
      </trkpt>
      <trkpt lat="46.83258" lon="4.69859">
        <ele>261.357341</ele>
        <time>2011-02-27T09:09:38Z</time>
      </trkpt>
      <trkpt lat="46.83256" lon="4.69872">
        <ele>260.991686</ele>
        <time>2011-02-27T09:09:43Z</time>
      </trkpt>
      <trkpt lat="46.83254" lon="4.69886">
        <ele>261.11619</ele>
        <time>2011-02-27T09:09:49Z</time>
      </trkpt>
      <trkpt lat="46.83248" lon="4.69904">
        <ele>261.342232</ele>
        <time>2011-02-27T09:10:00Z</time>
      </trkpt>
      <trkpt lat="46.83248" lon="4.69904">
        <ele>261.529045</ele>
        <time>2011-02-27T09:10:17Z</time>
      </trkpt>
      <trkpt lat="46.83248" lon="4.69904">
        <ele>261.633353</ele>
        <time>2011-02-27T09:10:54Z</time>
      </trkpt>
      <trkpt lat="46.83228" lon="4.69942">
        <ele>261.760386</ele>
        <time>2011-02-27T09:14:40Z</time>
      </trkpt>
      <trkpt lat="46.83223" lon="4.69953">
        <ele>262.15938</ele>
        <time>2011-02-27T09:14:47Z</time>
      </trkpt>
      <trkpt lat="46.83217" lon="4.69966">
        <ele>263.229823</ele>
        <time>2011-02-27T09:14:53Z</time>
      </trkpt>
      <trkpt lat="46.83213" lon="4.69981">
        <ele>267.39643</ele>
        <time>2011-02-27T09:14:58Z</time>
      </trkpt>
      <trkpt lat="46.83209" lon="4.69997">
        <ele>275.396648</ele>
        <time>2011-02-27T09:15:03Z</time>
      </trkpt>
      <trkpt lat="46.83204" lon="4.70012">
        <ele>282.91244</ele>
        <time>2011-02-27T09:15:07Z</time>
      </trkpt>
      <trkpt lat="46.83199" lon="4.70027">
        <ele>286.474581</ele>
        <time>2011-02-27T09:15:11Z</time>
      </trkpt>
      <trkpt lat="46.83192" lon="4.70039">
        <ele>287.164005</ele>
        <time>2011-02-27T09:15:15Z</time>
      </trkpt>
      <trkpt lat="46.83189" lon="4.70051">
        <ele>286.781054</ele>
        <time>2011-02-27T09:15:18Z</time>
      </trkpt>
      <trkpt lat="46.83184" lon="4.70066">
        <ele>286.367536</ele>
        <time>2011-02-27T09:15:22Z</time>
      </trkpt>
      <trkpt lat="46.83179" lon="4.70078">
        <ele>286.213073</ele>
        <time>2011-02-27T09:15:25Z</time>
      </trkpt>
      <trkpt lat="46.83174" lon="4.70093">
        <ele>286.252634</ele>
        <time>2011-02-27T09:15:29Z</time>
      </trkpt>
      <trkpt lat="46.83168" lon="4.70105">
        <ele>286.355878</ele>
        <time>2011-02-27T09:15:33Z</time>
      </trkpt>
      <trkpt lat="46.83163" lon="4.70118">
        <ele>286.451164</ele>
        <time>2011-02-27T09:15:38Z</time>
      </trkpt>
      <trkpt lat="46.8316" lon="4.70131">
        <ele>286.530691</ele>
        <time>2011-02-27T09:15:42Z</time>
      </trkpt>
      <trkpt lat="46.83154" lon="4.70141">
        <ele>286.597807</ele>
        <time>2011-02-27T09:15:47Z</time>
      </trkpt>
      <trkpt lat="46.83148" lon="4.70153">
        <ele>286.639411</ele>
        <time>2011-02-27T09:15:52Z</time>
      </trkpt>
      <trkpt lat="46.83142" lon="4.70165">
        <ele>286.651572</ele>
        <time>2011-02-27T09:15:56Z</time>
      </trkpt>
      <trkpt lat="46.83135" lon="4.70177">
        <ele>286.645625</ele>
        <time>2011-02-27T09:16:00Z</time>
      </trkpt>
      <trkpt lat="46.8313" lon="4.70191">
        <ele>286.621496</ele>
        <time>2011-02-27T09:16:05Z</time>
      </trkpt>
      <trkpt lat="46.83125" lon="4.70205">
        <ele>286.563511</ele>
        <time>2011-02-27T09:16:10Z</time>
      </trkpt>
      <trkpt lat="46.8312" lon="4.70218">
        <ele>286.466532</ele>
        <time>2011-02-27T09:16:15Z</time>
      </trkpt>
      <trkpt lat="46.83115" lon="4.70231">
        <ele>286.364441</ele>
        <time>2011-02-27T09:16:20Z</time>
      </trkpt>
      <trkpt lat="46.83111" lon="4.70245">
        <ele>286.281247</ele>
        <time>2011-02-27T09:16:25Z</time>
      </trkpt>
      <trkpt lat="46.83107" lon="4.70257">
        <ele>286.194033</ele>
        <time>2011-02-27T09:16:32Z</time>
      </trkpt>
      <trkpt lat="46.83103" lon="4.70271">
        <ele>286.100709</ele>
        <time>2011-02-27T09:16:39Z</time>
      </trkpt>
      <trkpt lat="46.83099" lon="4.70284">
        <ele>286.038222</ele>
        <time>2011-02-27T09:16:45Z</time>
      </trkpt>
      <trkpt lat="46.83093" lon="4.70296">
        <ele>286.017825</ele>
        <time>2011-02-27T09:16:50Z</time>
      </trkpt>
      <trkpt lat="46.83088" lon="4.70309">
        <ele>286.031301</ele>
        <time>2011-02-27T09:16:55Z</time>
      </trkpt>
      <trkpt lat="46.83083" lon="4.70321">
        <ele>286.089799</ele>
        <time>2011-02-27T09:16:59Z</time>
      </trkpt>
      <trkpt lat="46.83077" lon="4.70332">
        <ele>286.219166</ele>
        <time>2011-02-27T09:17:03Z</time>
      </trkpt>
      <trkpt lat="46.83071" lon="4.70344">
        <ele>286.430812</ele>
        <time>2011-02-27T09:17:08Z</time>
      </trkpt>
      <trkpt lat="46.83065" lon="4.70355">
        <ele>286.708148</ele>
        <time>2011-02-27T09:17:12Z</time>
      </trkpt>
      <trkpt lat="46.83061" lon="4.7037">
        <ele>287.02374</ele>
        <time>2011-02-27T09:17:17Z</time>
      </trkpt>
      <trkpt lat="46.83056" lon="4.70384">
        <ele>287.366826</ele>
        <time>2011-02-27T09:17:22Z</time>
      </trkpt>
      <trkpt lat="46.8305" lon="4.70396">
        <ele>287.738032</ele>
        <time>2011-02-27T09:17:27Z</time>
      </trkpt>
      <trkpt lat="46.83045" lon="4.70409">
        <ele>288.140236</ele>
        <time>2011-02-27T09:17:32Z</time>
      </trkpt>
      <trkpt lat="46.83038" lon="4.70417">
        <ele>288.585205</ele>
        <time>2011-02-27T09:17:37Z</time>
      </trkpt>
      <trkpt lat="46.83029" lon="4.70418">
        <ele>289.087046</ele>
        <time>2011-02-27T09:17:42Z</time>
      </trkpt>
      <trkpt lat="46.83018" lon="4.70419">
        <ele>289.627797</ele>
        <time>2011-02-27T09:17:46Z</time>
      </trkpt>
      <trkpt lat="46.83008" lon="4.70421">
        <ele>290.162985</ele>
        <time>2011-02-27T09:17:50Z</time>
      </trkpt>
      <trkpt lat="46.82997" lon="4.70421">
        <ele>290.754292</ele>
        <time>2011-02-27T09:17:54Z</time>
      </trkpt>
      <trkpt lat="46.82987" lon="4.70421">
        <ele>291.561432</ele>
        <time>2011-02-27T09:17:58Z</time>
      </trkpt>
      <trkpt lat="46.82977" lon="4.7042">
        <ele>292.615384</ele>
        <time>2011-02-27T09:18:02Z</time>
      </trkpt>
      <trkpt lat="46.82966" lon="4.70421">
        <ele>293.770319</ele>
        <time>2011-02-27T09:18:06Z</time>
      </trkpt>
      <trkpt lat="46.82956" lon="4.70422">
        <ele>294.878833</ele>
        <time>2011-02-27T09:18:10Z</time>
      </trkpt>
      <trkpt lat="46.82946" lon="4.70422">
        <ele>295.886955</ele>
        <time>2011-02-27T09:18:14Z</time>
      </trkpt>
      <trkpt lat="46.82937" lon="4.70421">
        <ele>296.827954</ele>
        <time>2011-02-27T09:18:18Z</time>
      </trkpt>
      <trkpt lat="46.82927" lon="4.70416">
        <ele>297.750584</ele>
        <time>2011-02-27T09:18:22Z</time>
      </trkpt>
      <trkpt lat="46.82918" lon="4.70408">
        <ele>298.670132</ele>
        <time>2011-02-27T09:18:26Z</time>
      </trkpt>
      <trkpt lat="46.8291" lon="4.70399">
        <ele>299.567705</ele>
        <time>2011-02-27T09:18:29Z</time>
      </trkpt>
      <trkpt lat="46.82903" lon="4.70389">
        <ele>300.432281</ele>
        <time>2011-02-27T09:18:32Z</time>
      </trkpt>
      <trkpt lat="46.82896" lon="4.70381">
        <ele>301.283036</ele>
        <time>2011-02-27T09:18:35Z</time>
      </trkpt>
      <trkpt lat="46.82888" lon="4.70368">
        <ele>302.111896</ele>
        <time>2011-02-27T09:18:39Z</time>
      </trkpt>
      <trkpt lat="46.82884" lon="4.70355">
        <ele>302.872524</ele>
        <time>2011-02-27T09:18:42Z</time>
      </trkpt>
      <trkpt lat="46.82879" lon="4.70343">
        <ele>303.568174</ele>
        <time>2011-02-27T09:18:45Z</time>
      </trkpt>
      <trkpt lat="46.82875" lon="4.70331">
        <ele>304.295589</ele>
        <time>2011-02-27T09:18:48Z</time>
      </trkpt>
      <trkpt lat="46.8287" lon="4.70319">
        <ele>305.125307</ele>
        <time>2011-02-27T09:18:51Z</time>
      </trkpt>
      <trkpt lat="46.82865" lon="4.70305">
        <ele>306.011591</ele>
        <time>2011-02-27T09:18:55Z</time>
      </trkpt>
      <trkpt lat="46.8286" lon="4.70292">
        <ele>306.881336</ele>
        <time>2011-02-27T09:18:59Z</time>
      </trkpt>
      <trkpt lat="46.82854" lon="4.7028">
        <ele>307.710878</ele>
        <time>2011-02-27T09:19:03Z</time>
      </trkpt>
      <trkpt lat="46.82846" lon="4.70269">
        <ele>308.52311</ele>
        <time>2011-02-27T09:19:08Z</time>
      </trkpt>
      <trkpt lat="46.82837" lon="4.70259">
        <ele>309.363777</ele>
        <time>2011-02-27T09:19:13Z</time>
      </trkpt>
      <trkpt lat="46.82828" lon="4.70251">
        <ele>310.231508</ele>
        <time>2011-02-27T09:19:18Z</time>
      </trkpt>
      <trkpt lat="46.8282" lon="4.70243">
        <ele>311.110919</ele>
        <time>2011-02-27T09:19:23Z</time>
      </trkpt>
      <trkpt lat="46.82812" lon="4.70236">
        <ele>312.020934</ele>
        <time>2011-02-27T09:19:27Z</time>
      </trkpt>
      <trkpt lat="46.82803" lon="4.70228">
        <ele>312.965294</ele>
        <time>2011-02-27T09:19:32Z</time>
      </trkpt>
      <trkpt lat="46.82796" lon="4.7022">
        <ele>313.913277</ele>
        <time>2011-02-27T09:19:37Z</time>
      </trkpt>
      <trkpt lat="46.82788" lon="4.70213">
        <ele>314.809765</ele>
        <time>2011-02-27T09:19:42Z</time>
      </trkpt>
      <trkpt lat="46.82779" lon="4.70205">
        <ele>315.635251</ele>
        <time>2011-02-27T09:19:48Z</time>
      </trkpt>
      <trkpt lat="46.82772" lon="4.70197">
        <ele>316.443424</ele>
        <time>2011-02-27T09:19:54Z</time>
      </trkpt>
      <trkpt lat="46.82764" lon="4.7019">
        <ele>317.273915</ele>
        <time>2011-02-27T09:20:00Z</time>
      </trkpt>
      <trkpt lat="46.82757" lon="4.70181">
        <ele>318.120092</ele>
        <time>2011-02-27T09:20:05Z</time>
      </trkpt>
      <trkpt lat="46.82747" lon="4.70173">
        <ele>318.980096</ele>
        <time>2011-02-27T09:20:09Z</time>
      </trkpt>
      <trkpt lat="46.82738" lon="4.70164">
        <ele>319.849997</ele>
        <time>2011-02-27T09:20:13Z</time>
      </trkpt>
      <trkpt lat="46.82729" lon="4.70156">
        <ele>320.696192</ele>
        <time>2011-02-27T09:20:17Z</time>
      </trkpt>
      <trkpt lat="46.82722" lon="4.70147">
        <ele>321.455138</ele>
        <time>2011-02-27T09:20:21Z</time>
      </trkpt>
      <trkpt lat="46.82714" lon="4.70137">
        <ele>322.086228</ele>
        <time>2011-02-27T09:20:25Z</time>
      </trkpt>
      <trkpt lat="46.82706" lon="4.70127">
        <ele>322.60876</ele>
        <time>2011-02-27T09:20:30Z</time>
      </trkpt>
      <trkpt lat="46.82697" lon="4.70117">
        <ele>323.061982</ele>
        <time>2011-02-27T09:20:35Z</time>
      </trkpt>
      <trkpt lat="46.8269" lon="4.7011">
        <ele>323.472518</ele>
        <time>2011-02-27T09:20:39Z</time>
      </trkpt>
      <trkpt lat="46.82682" lon="4.70103">
        <ele>323.867657</ele>
        <time>2011-02-27T09:20:43Z</time>
      </trkpt>
      <trkpt lat="46.82672" lon="4.70094">
        <ele>324.272715</ele>
        <time>2011-02-27T09:20:48Z</time>
      </trkpt>
      <trkpt lat="46.82664" lon="4.70089">
        <ele>324.6798</ele>
        <time>2011-02-27T09:20:52Z</time>
      </trkpt>
      <trkpt lat="46.82656" lon="4.70082">
        <ele>325.057225</ele>
        <time>2011-02-27T09:20:56Z</time>
      </trkpt>
      <trkpt lat="46.82647" lon="4.70078">
        <ele>325.422336</ele>
        <time>2011-02-27T09:21:00Z</time>
      </trkpt>
      <trkpt lat="46.82637" lon="4.70071">
        <ele>325.828974</ele>
        <time>2011-02-27T09:21:05Z</time>
      </trkpt>
      <trkpt lat="46.82629" lon="4.70064">
        <ele>326.285206</ele>
        <time>2011-02-27T09:21:10Z</time>
      </trkpt>
      <trkpt lat="46.8262" lon="4.70057">
        <ele>326.752531</ele>
        <time>2011-02-27T09:21:15Z</time>
      </trkpt>
      <trkpt lat="46.82612" lon="4.70049">
        <ele>327.213355</ele>
        <time>2011-02-27T09:21:20Z</time>
      </trkpt>
      <trkpt lat="46.82604" lon="4.70042">
        <ele>327.675478</ele>
        <time>2011-02-27T09:21:25Z</time>
      </trkpt>
      <trkpt lat="46.82596" lon="4.70034">
        <ele>328.134268</ele>
        <time>2011-02-27T09:21:31Z</time>
      </trkpt>
      <trkpt lat="46.82588" lon="4.70023">
        <ele>328.562563</ele>
        <time>2011-02-27T09:21:37Z</time>
      </trkpt>
      <trkpt lat="46.82579" lon="4.70016">
        <ele>328.933142</ele>
        <time>2011-02-27T09:21:42Z</time>
      </trkpt>
      <trkpt lat="46.82571" lon="4.7001">
        <ele>329.239717</ele>
        <time>2011-02-27T09:21:47Z</time>
      </trkpt>
      <trkpt lat="46.82562" lon="4.70005">
        <ele>329.52087</ele>
        <time>2011-02-27T09:21:52Z</time>
      </trkpt>
      <trkpt lat="46.82552" lon="4.69998">
        <ele>329.842137</ele>
        <time>2011-02-27T09:21:58Z</time>
      </trkpt>
      <trkpt lat="46.82544" lon="4.69992">
        <ele>330.252251</ele>
        <time>2011-02-27T09:22:01Z</time>
      </trkpt>
      <trkpt lat="46.82534" lon="4.69988">
        <ele>330.759181</ele>
        <time>2011-02-27T09:22:05Z</time>
      </trkpt>
      <trkpt lat="46.82524" lon="4.69989">
        <ele>331.340715</ele>
        <time>2011-02-27T09:22:11Z</time>
      </trkpt>
      <trkpt lat="46.82513" lon="4.69987">
        <ele>331.921615</ele>
        <time>2011-02-27T09:22:16Z</time>
      </trkpt>
      <trkpt lat="46.82503" lon="4.69983">
        <ele>332.424186</ele>
        <time>2011-02-27T09:22:21Z</time>
      </trkpt>
      <trkpt lat="46.82494" lon="4.69981">
        <ele>332.886404</ele>
        <time>2011-02-27T09:22:26Z</time>
      </trkpt>
      <trkpt lat="46.82485" lon="4.69977">
        <ele>333.384923</ele>
        <time>2011-02-27T09:22:30Z</time>
      </trkpt>
      <trkpt lat="46.82475" lon="4.69973">
        <ele>333.893717</ele>
        <time>2011-02-27T09:22:35Z</time>
      </trkpt>
      <trkpt lat="46.82465" lon="4.69971">
        <ele>334.358343</ele>
        <time>2011-02-27T09:22:41Z</time>
      </trkpt>
      <trkpt lat="46.82455" lon="4.69964">
        <ele>334.766753</ele>
        <time>2011-02-27T09:22:46Z</time>
      </trkpt>
      <trkpt lat="46.82445" lon="4.69959">
        <ele>335.145466</ele>
        <time>2011-02-27T09:22:51Z</time>
      </trkpt>
      <trkpt lat="46.82436" lon="4.69956">
        <ele>335.563725</ele>
        <time>2011-02-27T09:22:56Z</time>
      </trkpt>
      <trkpt lat="46.82425" lon="4.69954">
        <ele>336.075497</ele>
        <time>2011-02-27T09:23:02Z</time>
      </trkpt>
      <trkpt lat="46.82415" lon="4.69951">
        <ele>336.675313</ele>
        <time>2011-02-27T09:23:08Z</time>
      </trkpt>
      <trkpt lat="46.82405" lon="4.69946">
        <ele>337.315828</ele>
        <time>2011-02-27T09:23:13Z</time>
      </trkpt>
      <trkpt lat="46.82396" lon="4.6994">
        <ele>337.949695</ele>
        <time>2011-02-27T09:23:17Z</time>
      </trkpt>
      <trkpt lat="46.82388" lon="4.69932">
        <ele>338.553834</ele>
        <time>2011-02-27T09:23:21Z</time>
      </trkpt>
      <trkpt lat="46.82379" lon="4.69923">
        <ele>339.108627</ele>
        <time>2011-02-27T09:23:26Z</time>
      </trkpt>
      <trkpt lat="46.8237" lon="4.69915">
        <ele>339.607824</ele>
        <time>2011-02-27T09:23:31Z</time>
      </trkpt>
      <trkpt lat="46.82362" lon="4.69909">
        <ele>340.100921</ele>
        <time>2011-02-27T09:23:36Z</time>
      </trkpt>
      <trkpt lat="46.82353" lon="4.69901">
        <ele>340.674542</ele>
        <time>2011-02-27T09:23:41Z</time>
      </trkpt>
      <trkpt lat="46.82345" lon="4.69893">
        <ele>341.408927</ele>
        <time>2011-02-27T09:23:47Z</time>
      </trkpt>
      <trkpt lat="46.82337" lon="4.69887">
        <ele>342.315406</ele>
        <time>2011-02-27T09:23:52Z</time>
      </trkpt>
      <trkpt lat="46.82327" lon="4.69884">
        <ele>343.327844</ele>
        <time>2011-02-27T09:23:56Z</time>
      </trkpt>
      <trkpt lat="46.82317" lon="4.69876">
        <ele>344.398312</ele>
        <time>2011-02-27T09:24:00Z</time>
      </trkpt>
      <trkpt lat="46.82309" lon="4.69871">
        <ele>345.512294</ele>
        <time>2011-02-27T09:24:03Z</time>
      </trkpt>
      <trkpt lat="46.82294" lon="4.69857">
        <ele>346.595706</ele>
        <time>2011-02-27T09:24:06Z</time>
      </trkpt>
      <trkpt lat="46.82285" lon="4.69842">
        <ele>347.549686</ele>
        <time>2011-02-27T09:24:09Z</time>
      </trkpt>
      <trkpt lat="46.8228" lon="4.69829">
        <ele>348.335256</ele>
        <time>2011-02-27T09:24:11Z</time>
      </trkpt>
      <trkpt lat="46.82271" lon="4.69809">
        <ele>349.435805</ele>
        <time>2011-02-27T09:24:14Z</time>
      </trkpt>
      <trkpt lat="46.82264" lon="4.69797">
        <ele>351.340157</ele>
        <time>2011-02-27T09:24:17Z</time>
      </trkpt>
      <trkpt lat="46.82264" lon="4.69797">
        <ele>353.41662</ele>
        <time>2011-02-27T09:24:19Z</time>
      </trkpt>
      <trkpt lat="46.82264" lon="4.69797">
        <ele>354.660857</ele>
        <time>2011-02-27T09:24:47Z</time>
      </trkpt>
      <trkpt lat="46.82287" lon="4.69835">
        <ele>355.00485</ele>
        <time>2011-02-27T09:25:39Z</time>
      </trkpt>
      <trkpt lat="46.82294" lon="4.69845">
        <ele>354.683361</ele>
        <time>2011-02-27T09:25:43Z</time>
      </trkpt>
      <trkpt lat="46.82307" lon="4.69862">
        <ele>353.777479</ele>
        <time>2011-02-27T09:25:51Z</time>
      </trkpt>
      <trkpt lat="46.82315" lon="4.69871">
        <ele>352.63336</ele>
        <time>2011-02-27T09:25:56Z</time>
      </trkpt>
      <trkpt lat="46.82324" lon="4.69877">
        <ele>351.704293</ele>
        <time>2011-02-27T09:26:00Z</time>
      </trkpt>
      <trkpt lat="46.82333" lon="4.69879">
        <ele>351.133134</ele>
        <time>2011-02-27T09:26:05Z</time>
      </trkpt>
      <trkpt lat="46.82341" lon="4.6987">
        <ele>350.855865</ele>
        <time>2011-02-27T09:26:10Z</time>
      </trkpt>
      <trkpt lat="46.82346" lon="4.69858">
        <ele>350.71276</ele>
        <time>2011-02-27T09:26:14Z</time>
      </trkpt>
      <trkpt lat="46.82347" lon="4.69845">
        <ele>350.588369</ele>
        <time>2011-02-27T09:26:18Z</time>
      </trkpt>
      <trkpt lat="46.82347" lon="4.69831">
        <ele>350.502672</ele>
        <time>2011-02-27T09:26:22Z</time>
      </trkpt>
      <trkpt lat="46.82345" lon="4.69816">
        <ele>350.473672</ele>
        <time>2011-02-27T09:26:26Z</time>
      </trkpt>
      <trkpt lat="46.82349" lon="4.69802">
        <ele>350.488427</ele>
        <time>2011-02-27T09:26:30Z</time>
      </trkpt>
      <trkpt lat="46.82349" lon="4.69786">
        <ele>350.563542</ele>
        <time>2011-02-27T09:26:34Z</time>
      </trkpt>
      <trkpt lat="46.82356" lon="4.69776">
        <ele>350.7276</ele>
        <time>2011-02-27T09:26:38Z</time>
      </trkpt>
      <trkpt lat="46.82365" lon="4.69771">
        <ele>350.963048</ele>
        <time>2011-02-27T09:26:44Z</time>
      </trkpt>
      <trkpt lat="46.82365" lon="4.69771">
        <ele>351.186566</ele>
        <time>2011-02-27T09:26:48Z</time>
      </trkpt>
      <trkpt lat="46.82399" lon="4.69771">
        <ele>351.3436</ele>
        <time>2011-02-27T09:27:03Z</time>
      </trkpt>
      <trkpt lat="46.82399" lon="4.69771">
        <ele>351.446631</ele>
        <time>2011-02-27T09:27:06Z</time>
      </trkpt>
      <trkpt lat="46.82426" lon="4.69749">
        <ele>351.5245</ele>
        <time>2011-02-27T09:27:19Z</time>
      </trkpt>
      <trkpt lat="46.82434" lon="4.6974">
        <ele>351.611343</ele>
        <time>2011-02-27T09:27:23Z</time>
      </trkpt>
      <trkpt lat="46.82443" lon="4.69732">
        <ele>351.715314</ele>
        <time>2011-02-27T09:27:28Z</time>
      </trkpt>
      <trkpt lat="46.82452" lon="4.69728">
        <ele>351.747014</ele>
        <time>2011-02-27T09:27:33Z</time>
      </trkpt>
      <trkpt lat="46.82459" lon="4.69721">
        <ele>351.658991</ele>
        <time>2011-02-27T09:27:38Z</time>
      </trkpt>
      <trkpt lat="46.82469" lon="4.69717">
        <ele>351.493556</ele>
        <time>2011-02-27T09:27:44Z</time>
      </trkpt>
      <trkpt lat="46.8248" lon="4.69707">
        <ele>351.309349</ele>
        <time>2011-02-27T09:27:57Z</time>
      </trkpt>
      <trkpt lat="46.8248" lon="4.69707">
        <ele>351.138217</ele>
        <time>2011-02-27T09:28:10Z</time>
      </trkpt>
      <trkpt lat="46.82509" lon="4.69706">
        <ele>350.991733</ele>
        <time>2011-02-27T09:28:47Z</time>
      </trkpt>
      <trkpt lat="46.82519" lon="4.69702">
        <ele>350.817266</ele>
        <time>2011-02-27T09:28:54Z</time>
      </trkpt>
      <trkpt lat="46.82529" lon="4.69703">
        <ele>350.500542</ele>
        <time>2011-02-27T09:28:59Z</time>
      </trkpt>
      <trkpt lat="46.82538" lon="4.69704">
        <ele>349.793068</ele>
        <time>2011-02-27T09:29:07Z</time>
      </trkpt>
      <trkpt lat="46.82538" lon="4.69704">
        <ele>348.750975</ele>
        <time>2011-02-27T09:29:21Z</time>
      </trkpt>
      <trkpt lat="46.82538" lon="4.69704">
        <ele>347.898154</ele>
        <time>2011-02-27T09:29:37Z</time>
      </trkpt>
      <trkpt lat="46.82571" lon="4.69702">
        <ele>347.48672</ele>
        <time>2011-02-27T09:31:39Z</time>
      </trkpt>
      <trkpt lat="46.82577" lon="4.69692">
        <ele>347.212539</ele>
        <time>2011-02-27T09:31:47Z</time>
      </trkpt>
      <trkpt lat="46.82577" lon="4.69692">
        <ele>346.901738</ele>
        <time>2011-02-27T09:31:56Z</time>
      </trkpt>
      <trkpt lat="46.82606" lon="4.69688">
        <ele>346.536454</ele>
        <time>2011-02-27T09:32:27Z</time>
      </trkpt>
      <trkpt lat="46.82615" lon="4.69686">
        <ele>346.110664</ele>
        <time>2011-02-27T09:32:35Z</time>
      </trkpt>
      <trkpt lat="46.82625" lon="4.69686">
        <ele>345.750199</ele>
        <time>2011-02-27T09:32:51Z</time>
      </trkpt>
      <trkpt lat="46.82631" lon="4.69698">
        <ele>345.31831</ele>
        <time>2011-02-27T09:33:03Z</time>
      </trkpt>
      <trkpt lat="46.82639" lon="4.69704">
        <ele>344.459773</ele>
        <time>2011-02-27T09:33:12Z</time>
      </trkpt>
      <trkpt lat="46.82648" lon="4.69703">
        <ele>343.081116</ele>
        <time>2011-02-27T09:33:18Z</time>
      </trkpt>
      <trkpt lat="46.82658" lon="4.69705">
        <ele>341.385553</ele>
        <time>2011-02-27T09:33:25Z</time>
      </trkpt>
      <trkpt lat="46.82669" lon="4.69707">
        <ele>339.806822</ele>
        <time>2011-02-27T09:33:35Z</time>
      </trkpt>
      <trkpt lat="46.82679" lon="4.69707">
        <ele>338.729726</ele>
        <time>2011-02-27T09:33:43Z</time>
      </trkpt>
      <trkpt lat="46.82688" lon="4.69707">
        <ele>338.097746</ele>
        <time>2011-02-27T09:33:53Z</time>
      </trkpt>
      <trkpt lat="46.82688" lon="4.69707">
        <ele>337.733382</ele>
        <time>2011-02-27T09:34:07Z</time>
      </trkpt>
      <trkpt lat="46.8272" lon="4.69711">
        <ele>337.497523</ele>
        <time>2011-02-27T09:34:34Z</time>
      </trkpt>
      <trkpt lat="46.82729" lon="4.69717">
        <ele>337.236532</ele>
        <time>2011-02-27T09:34:43Z</time>
      </trkpt>
      <trkpt lat="46.82739" lon="4.6972">
        <ele>336.860261</ele>
        <time>2011-02-27T09:34:52Z</time>
      </trkpt>
      <trkpt lat="46.82747" lon="4.69729">
        <ele>336.132416</ele>
        <time>2011-02-27T09:34:59Z</time>
      </trkpt>
      <trkpt lat="46.82754" lon="4.69739">
        <ele>334.900099</ele>
        <time>2011-02-27T09:35:05Z</time>
      </trkpt>
      <trkpt lat="46.82762" lon="4.69748">
        <ele>333.54921</ele>
        <time>2011-02-27T09:35:10Z</time>
      </trkpt>
      <trkpt lat="46.82769" lon="4.69758">
        <ele>332.49594</ele>
        <time>2011-02-27T09:35:15Z</time>
      </trkpt>
      <trkpt lat="46.82778" lon="4.69759">
        <ele>331.726785</ele>
        <time>2011-02-27T09:35:21Z</time>
      </trkpt>
      <trkpt lat="46.82788" lon="4.69755">
        <ele>331.112731</ele>
        <time>2011-02-27T09:35:26Z</time>
      </trkpt>
      <trkpt lat="46.82797" lon="4.69751">
        <ele>330.570757</ele>
        <time>2011-02-27T09:35:31Z</time>
      </trkpt>
      <trkpt lat="46.82805" lon="4.69747">
        <ele>330.022222</ele>
        <time>2011-02-27T09:35:37Z</time>
      </trkpt>
      <trkpt lat="46.82815" lon="4.69746">
        <ele>329.345548</ele>
        <time>2011-02-27T09:35:44Z</time>
      </trkpt>
      <trkpt lat="46.82826" lon="4.69749">
        <ele>328.526376</ele>
        <time>2011-02-27T09:35:49Z</time>
      </trkpt>
      <trkpt lat="46.82836" lon="4.6975">
        <ele>327.736575</ele>
        <time>2011-02-27T09:35:54Z</time>
      </trkpt>
      <trkpt lat="46.82845" lon="4.69747">
        <ele>327.143897</ele>
        <time>2011-02-27T09:35:59Z</time>
      </trkpt>
      <trkpt lat="46.82842" lon="4.69733">
        <ele>326.781971</ele>
        <time>2011-02-27T09:36:04Z</time>
      </trkpt>
      <trkpt lat="46.82836" lon="4.6972">
        <ele>326.592682</ele>
        <time>2011-02-27T09:36:08Z</time>
      </trkpt>
      <trkpt lat="46.82829" lon="4.69711">
        <ele>326.475131</ele>
        <time>2011-02-27T09:36:11Z</time>
      </trkpt>
      <trkpt lat="46.82822" lon="4.69701">
        <ele>326.317538</ele>
        <time>2011-02-27T09:36:14Z</time>
      </trkpt>
      <trkpt lat="46.82815" lon="4.69688">
        <ele>326.076091</ele>
        <time>2011-02-27T09:36:17Z</time>
      </trkpt>
      <trkpt lat="46.82809" lon="4.69673">
        <ele>325.787733</ele>
        <time>2011-02-27T09:36:20Z</time>
      </trkpt>
      <trkpt lat="46.82795" lon="4.69666">
        <ele>325.5011</ele>
        <time>2011-02-27T09:36:23Z</time>
      </trkpt>
      <trkpt lat="46.82783" lon="4.6966">
        <ele>325.217107</ele>
        <time>2011-02-27T09:36:25Z</time>
      </trkpt>
      <trkpt lat="46.82772" lon="4.69654">
        <ele>324.897759</ele>
        <time>2011-02-27T09:36:27Z</time>
      </trkpt>
      <trkpt lat="46.82755" lon="4.69648">
        <ele>324.517405</ele>
        <time>2011-02-27T09:36:30Z</time>
      </trkpt>
      <trkpt lat="46.82741" lon="4.69639">
        <ele>323.644489</ele>
        <time>2011-02-27T09:36:32Z</time>
      </trkpt>
      <trkpt lat="46.82721" lon="4.69619">
        <ele>321.783657</ele>
        <time>2011-02-27T09:36:35Z</time>
      </trkpt>
      <trkpt lat="46.82721" lon="4.69619">
        <ele>319.540664</ele>
        <time>2011-02-27T09:36:37Z</time>
      </trkpt>
      <trkpt lat="46.82706" lon="4.69583">
        <ele>317.75015</ele>
        <time>2011-02-27T09:36:41Z</time>
      </trkpt>
      <trkpt lat="46.82708" lon="4.69555">
        <ele>316.321446</ele>
        <time>2011-02-27T09:36:43Z</time>
      </trkpt>
      <trkpt lat="46.8271" lon="4.69528">
        <ele>314.678828</ele>
        <time>2011-02-27T09:36:45Z</time>
      </trkpt>
      <trkpt lat="46.82714" lon="4.69493">
        <ele>312.356882</ele>
        <time>2011-02-27T09:36:48Z</time>
      </trkpt>
      <trkpt lat="46.82714" lon="4.69493">
        <ele>309.804372</ele>
        <time>2011-02-27T09:36:51Z</time>
      </trkpt>
      <trkpt lat="46.82724" lon="4.69438">
        <ele>307.642467</ele>
        <time>2011-02-27T09:37:34Z</time>
      </trkpt>
      <trkpt lat="46.82726" lon="4.69421">
        <ele>305.4933</ele>
        <time>2011-02-27T09:37:47Z</time>
      </trkpt>
      <trkpt lat="46.82729" lon="4.69407">
        <ele>303.054873</ele>
        <time>2011-02-27T09:38:00Z</time>
      </trkpt>
      <trkpt lat="46.82733" lon="4.69395">
        <ele>300.512964</ele>
        <time>2011-02-27T09:38:14Z</time>
      </trkpt>
      <trkpt lat="46.82738" lon="4.69382">
        <ele>298.150882</ele>
        <time>2011-02-27T09:38:27Z</time>
      </trkpt>
      <trkpt lat="46.82738" lon="4.69382">
        <ele>296.521916</ele>
        <time>2011-02-27T09:38:36Z</time>
      </trkpt>
      <trkpt lat="46.82738" lon="4.69342">
        <ele>295.783213</ele>
        <time>2011-02-27T09:39:19Z</time>
      </trkpt>
      <trkpt lat="46.82734" lon="4.69321">
        <ele>295.528434</ele>
        <time>2011-02-27T09:39:32Z</time>
      </trkpt>
      <trkpt lat="46.82732" lon="4.69307">
        <ele>295.459105</ele>
        <time>2011-02-27T09:39:39Z</time>
      </trkpt>
      <trkpt lat="46.82729" lon="4.69293">
        <ele>295.517276</ele>
        <time>2011-02-27T09:39:46Z</time>
      </trkpt>
      <trkpt lat="46.82728" lon="4.69279">
        <ele>295.67756</ele>
        <time>2011-02-27T09:39:54Z</time>
      </trkpt>
      <trkpt lat="46.82727" lon="4.69265">
        <ele>295.904266</ele>
        <time>2011-02-27T09:40:02Z</time>
      </trkpt>
      <trkpt lat="46.82724" lon="4.69251">
        <ele>296.121134</ele>
        <time>2011-02-27T09:40:09Z</time>
      </trkpt>
      <trkpt lat="46.82723" lon="4.69236">
        <ele>296.322742</ele>
        <time>2011-02-27T09:40:16Z</time>
      </trkpt>
      <trkpt lat="46.82723" lon="4.69236">
        <ele>296.538461</ele>
        <time>2011-02-27T09:40:30Z</time>
      </trkpt>
      <trkpt lat="46.82723" lon="4.69236">
        <ele>296.711195</ele>
        <time>2011-02-27T09:40:46Z</time>
      </trkpt>
      <trkpt lat="46.82705" lon="4.692">
        <ele>296.825105</ele>
        <time>2011-02-27T09:41:09Z</time>
      </trkpt>
      <trkpt lat="46.82696" lon="4.6919">
        <ele>296.986959</ele>
        <time>2011-02-27T09:41:13Z</time>
      </trkpt>
      <trkpt lat="46.82685" lon="4.69181">
        <ele>297.244248</ele>
        <time>2011-02-27T09:41:16Z</time>
      </trkpt>
      <trkpt lat="46.82671" lon="4.69172">
        <ele>297.585702</ele>
        <time>2011-02-27T09:41:19Z</time>
      </trkpt>
      <trkpt lat="46.82663" lon="4.69166">
        <ele>297.939862</ele>
        <time>2011-02-27T09:41:21Z</time>
      </trkpt>
      <trkpt lat="46.82651" lon="4.69158">
        <ele>298.176036</ele>
        <time>2011-02-27T09:41:24Z</time>
      </trkpt>
      <trkpt lat="46.8264" lon="4.69149">
        <ele>298.252723</ele>
        <time>2011-02-27T09:41:27Z</time>
      </trkpt>
      <trkpt lat="46.8263" lon="4.69142">
        <ele>298.235545</ele>
        <time>2011-02-27T09:41:30Z</time>
      </trkpt>
      <trkpt lat="46.82618" lon="4.69138">
        <ele>298.18391</ele>
        <time>2011-02-27T09:41:33Z</time>
      </trkpt>
      <trkpt lat="46.82606" lon="4.69134">
        <ele>298.114554</ele>
        <time>2011-02-27T09:41:36Z</time>
      </trkpt>
      <trkpt lat="46.82593" lon="4.6913">
        <ele>298.029415</ele>
        <time>2011-02-27T09:41:39Z</time>
      </trkpt>
      <trkpt lat="46.82584" lon="4.69127">
        <ele>297.953503</ele>
        <time>2011-02-27T09:41:41Z</time>
      </trkpt>
      <trkpt lat="46.82571" lon="4.69127">
        <ele>297.888382</ele>
        <time>2011-02-27T09:41:44Z</time>
      </trkpt>
      <trkpt lat="46.82558" lon="4.69127">
        <ele>297.80282</ele>
        <time>2011-02-27T09:41:47Z</time>
      </trkpt>
      <trkpt lat="46.82546" lon="4.69132">
        <ele>297.708764</ele>
        <time>2011-02-27T09:41:50Z</time>
      </trkpt>
      <trkpt lat="46.82534" lon="4.69141">
        <ele>297.624775</ele>
        <time>2011-02-27T09:41:53Z</time>
      </trkpt>
      <trkpt lat="46.82525" lon="4.69153">
        <ele>297.520265</ele>
        <time>2011-02-27T09:41:55Z</time>
      </trkpt>
      <trkpt lat="46.82517" lon="4.69166">
        <ele>297.360378</ele>
        <time>2011-02-27T09:41:57Z</time>
      </trkpt>
      <trkpt lat="46.82506" lon="4.69183">
        <ele>297.071501</ele>
        <time>2011-02-27T09:42:00Z</time>
      </trkpt>
      <trkpt lat="46.82495" lon="4.69197">
        <ele>296.560394</ele>
        <time>2011-02-27T09:42:03Z</time>
      </trkpt>
      <trkpt lat="46.82485" lon="4.69205">
        <ele>295.88752</ele>
        <time>2011-02-27T09:42:06Z</time>
      </trkpt>
      <trkpt lat="46.82475" lon="4.69209">
        <ele>295.293723</ele>
        <time>2011-02-27T09:42:09Z</time>
      </trkpt>
      <trkpt lat="46.82466" lon="4.69208">
        <ele>294.964979</ele>
        <time>2011-02-27T09:42:12Z</time>
      </trkpt>
      <trkpt lat="46.82456" lon="4.69208">
        <ele>294.880134</ele>
        <time>2011-02-27T09:42:15Z</time>
      </trkpt>
      <trkpt lat="46.82446" lon="4.69208">
        <ele>294.905596</ele>
        <time>2011-02-27T09:42:18Z</time>
      </trkpt>
      <trkpt lat="46.82437" lon="4.69208">
        <ele>294.947495</ele>
        <time>2011-02-27T09:42:21Z</time>
      </trkpt>
      <trkpt lat="46.82428" lon="4.69206">
        <ele>294.965971</ele>
        <time>2011-02-27T09:42:24Z</time>
      </trkpt>
      <trkpt lat="46.82419" lon="4.69205">
        <ele>294.944239</ele>
        <time>2011-02-27T09:42:27Z</time>
      </trkpt>
      <trkpt lat="46.82408" lon="4.69202">
        <ele>294.874081</ele>
        <time>2011-02-27T09:42:31Z</time>
      </trkpt>
      <trkpt lat="46.82398" lon="4.69199">
        <ele>294.756303</ele>
        <time>2011-02-27T09:42:35Z</time>
      </trkpt>
      <trkpt lat="46.82398" lon="4.69199">
        <ele>294.609854</ele>
        <time>2011-02-27T09:42:38Z</time>
      </trkpt>
      <trkpt lat="46.82365" lon="4.69202">
        <ele>294.472427</ele>
        <time>2011-02-27T09:42:50Z</time>
      </trkpt>
      <trkpt lat="46.82353" lon="4.692">
        <ele>294.346632</ele>
        <time>2011-02-27T09:42:55Z</time>
      </trkpt>
      <trkpt lat="46.82343" lon="4.69199">
        <ele>294.211337</ele>
        <time>2011-02-27T09:42:59Z</time>
      </trkpt>
      <trkpt lat="46.82332" lon="4.69197">
        <ele>294.093168</ele>
        <time>2011-02-27T09:43:03Z</time>
      </trkpt>
      <trkpt lat="46.82321" lon="4.69194">
        <ele>294.032366</ele>
        <time>2011-02-27T09:43:07Z</time>
      </trkpt>
      <trkpt lat="46.8231" lon="4.69193">
        <ele>294.072175</ele>
        <time>2011-02-27T09:43:11Z</time>
      </trkpt>
      <trkpt lat="46.82298" lon="4.69192">
        <ele>294.231319</ele>
        <time>2011-02-27T09:43:15Z</time>
      </trkpt>
      <trkpt lat="46.82287" lon="4.69192">
        <ele>294.487029</ele>
        <time>2011-02-27T09:43:19Z</time>
      </trkpt>
      <trkpt lat="46.82278" lon="4.69191">
        <ele>294.840138</ele>
        <time>2011-02-27T09:43:22Z</time>
      </trkpt>
      <trkpt lat="46.82269" lon="4.69189">
        <ele>295.291777</ele>
        <time>2011-02-27T09:43:25Z</time>
      </trkpt>
      <trkpt lat="46.82259" lon="4.69187">
        <ele>295.797799</ele>
        <time>2011-02-27T09:43:28Z</time>
      </trkpt>
      <trkpt lat="46.82249" lon="4.69184">
        <ele>296.31102</ele>
        <time>2011-02-27T09:43:31Z</time>
      </trkpt>
      <trkpt lat="46.82238" lon="4.69181">
        <ele>296.785443</ele>
        <time>2011-02-27T09:43:34Z</time>
      </trkpt>
      <trkpt lat="46.82228" lon="4.69178">
        <ele>297.205511</ele>
        <time>2011-02-27T09:43:37Z</time>
      </trkpt>
      <trkpt lat="46.82218" lon="4.69175">
        <ele>297.590879</ele>
        <time>2011-02-27T09:43:40Z</time>
      </trkpt>
      <trkpt lat="46.82207" lon="4.69173">
        <ele>297.961769</ele>
        <time>2011-02-27T09:43:43Z</time>
      </trkpt>
      <trkpt lat="46.82195" lon="4.6917">
        <ele>298.326317</ele>
        <time>2011-02-27T09:43:46Z</time>
      </trkpt>
      <trkpt lat="46.82182" lon="4.69168">
        <ele>298.686232</ele>
        <time>2011-02-27T09:43:49Z</time>
      </trkpt>
      <trkpt lat="46.82171" lon="4.69165">
        <ele>299.04615</ele>
        <time>2011-02-27T09:43:52Z</time>
      </trkpt>
      <trkpt lat="46.82159" lon="4.69164">
        <ele>299.809095</ele>
        <time>2011-02-27T09:43:55Z</time>
      </trkpt>
      <trkpt lat="46.82149" lon="4.69162">
        <ele>301.383902</ele>
        <time>2011-02-27T09:43:57Z</time>
      </trkpt>
      <trkpt lat="46.8214" lon="4.6916">
        <ele>303.352224</ele>
        <time>2011-02-27T09:43:59Z</time>
      </trkpt>
      <trkpt lat="46.82125" lon="4.69156">
        <ele>304.914946</ele>
        <time>2011-02-27T09:44:02Z</time>
      </trkpt>
      <trkpt lat="46.82109" lon="4.69152">
        <ele>305.753214</ele>
        <time>2011-02-27T09:44:05Z</time>
      </trkpt>
      <trkpt lat="46.82097" lon="4.69149">
        <ele>305.980706</ele>
        <time>2011-02-27T09:44:07Z</time>
      </trkpt>
      <trkpt lat="46.82088" lon="4.69146">
        <ele>305.918989</ele>
        <time>2011-02-27T09:44:09Z</time>
      </trkpt>
      <trkpt lat="46.82073" lon="4.69142">
        <ele>305.818989</ele>
        <time>2011-02-27T09:44:12Z</time>
      </trkpt>
      <trkpt lat="46.82059" lon="4.69137">
        <ele>305.767436</ele>
        <time>2011-02-27T09:44:15Z</time>
      </trkpt>
      <trkpt lat="46.82046" lon="4.69134">
        <ele>305.757163</ele>
        <time>2011-02-27T09:44:18Z</time>
      </trkpt>
      <trkpt lat="46.82035" lon="4.69131">
        <ele>305.764602</ele>
        <time>2011-02-27T09:44:21Z</time>
      </trkpt>
      <trkpt lat="46.82022" lon="4.69127">
        <ele>305.775879</ele>
        <time>2011-02-27T09:44:24Z</time>
      </trkpt>
      <trkpt lat="46.8201" lon="4.69123">
        <ele>305.807972</ele>
        <time>2011-02-27T09:44:27Z</time>
      </trkpt>
      <trkpt lat="46.81998" lon="4.69121">
        <ele>305.917005</ele>
        <time>2011-02-27T09:44:30Z</time>
      </trkpt>
      <trkpt lat="46.81989" lon="4.69119">
        <ele>306.151732</ele>
        <time>2011-02-27T09:44:33Z</time>
      </trkpt>
      <trkpt lat="46.81978" lon="4.69114">
        <ele>306.445137</ele>
        <time>2011-02-27T09:44:37Z</time>
      </trkpt>
      <trkpt lat="46.81968" lon="4.6911">
        <ele>306.653995</ele>
        <time>2011-02-27T09:44:41Z</time>
      </trkpt>
      <trkpt lat="46.81968" lon="4.6911">
        <ele>306.727451</ele>
        <time>2011-02-27T09:44:42Z</time>
      </trkpt>
      <trkpt lat="46.81953" lon="4.69118">
        <ele>306.722399</ele>
        <time>2011-02-27T09:44:52Z</time>
      </trkpt>
      <trkpt lat="46.81953" lon="4.69118">
        <ele>306.694539</ele>
        <time>2011-02-27T09:44:56Z</time>
      </trkpt>
      <trkpt lat="46.8195" lon="4.69147">
        <ele>306.671123</ele>
        <time>2011-02-27T09:45:20Z</time>
      </trkpt>
      <trkpt lat="46.81949" lon="4.6916">
        <ele>306.659767</ele>
        <time>2011-02-27T09:45:23Z</time>
      </trkpt>
      <trkpt lat="46.81947" lon="4.69176">
        <ele>306.657899</ele>
        <time>2011-02-27T09:45:26Z</time>
      </trkpt>
      <trkpt lat="46.81943" lon="4.69191">
        <ele>306.693427</ele>
        <time>2011-02-27T09:45:29Z</time>
      </trkpt>
      <trkpt lat="46.81938" lon="4.69206">
        <ele>306.800323</ele>
        <time>2011-02-27T09:45:32Z</time>
      </trkpt>
      <trkpt lat="46.81934" lon="4.69221">
        <ele>306.952398</ele>
        <time>2011-02-27T09:45:35Z</time>
      </trkpt>
      <trkpt lat="46.8193" lon="4.69237">
        <ele>307.09785</ele>
        <time>2011-02-27T09:45:38Z</time>
      </trkpt>
      <trkpt lat="46.81927" lon="4.69252">
        <ele>307.346036</ele>
        <time>2011-02-27T09:45:41Z</time>
      </trkpt>
      <trkpt lat="46.81925" lon="4.69266">
        <ele>307.913806</ele>
        <time>2011-02-27T09:45:44Z</time>
      </trkpt>
      <trkpt lat="46.81922" lon="4.69279">
        <ele>308.790518</ele>
        <time>2011-02-27T09:45:47Z</time>
      </trkpt>
      <trkpt lat="46.81918" lon="4.69294">
        <ele>309.663591</ele>
        <time>2011-02-27T09:45:50Z</time>
      </trkpt>
      <trkpt lat="46.81915" lon="4.69307">
        <ele>310.241862</ele>
        <time>2011-02-27T09:45:53Z</time>
      </trkpt>
      <trkpt lat="46.81913" lon="4.69321">
        <ele>310.475498</ele>
        <time>2011-02-27T09:45:56Z</time>
      </trkpt>
      <trkpt lat="46.81915" lon="4.69337">
        <ele>310.503285</ele>
        <time>2011-02-27T09:46:00Z</time>
      </trkpt>
      <trkpt lat="46.81916" lon="4.69353">
        <ele>310.473806</ele>
        <time>2011-02-27T09:46:04Z</time>
      </trkpt>
      <trkpt lat="46.81916" lon="4.69368">
        <ele>310.462247</ele>
        <time>2011-02-27T09:46:08Z</time>
      </trkpt>
      <trkpt lat="46.81918" lon="4.69383">
        <ele>310.496745</ele>
        <time>2011-02-27T09:46:12Z</time>
      </trkpt>
      <trkpt lat="46.8192" lon="4.69398">
        <ele>310.58536</ele>
        <time>2011-02-27T09:46:16Z</time>
      </trkpt>
      <trkpt lat="46.81924" lon="4.69414">
        <ele>310.710186</ele>
        <time>2011-02-27T09:46:20Z</time>
      </trkpt>
      <trkpt lat="46.81927" lon="4.69427">
        <ele>310.840127</ele>
        <time>2011-02-27T09:46:23Z</time>
      </trkpt>
      <trkpt lat="46.8193" lon="4.6944">
        <ele>310.960823</ele>
        <time>2011-02-27T09:46:26Z</time>
      </trkpt>
      <trkpt lat="46.81934" lon="4.69452">
        <ele>311.077573</ele>
        <time>2011-02-27T09:46:29Z</time>
      </trkpt>
      <trkpt lat="46.81937" lon="4.69465">
        <ele>311.195984</ele>
        <time>2011-02-27T09:46:32Z</time>
      </trkpt>
      <trkpt lat="46.8194" lon="4.69478">
        <ele>311.309176</ele>
        <time>2011-02-27T09:46:35Z</time>
      </trkpt>
      <trkpt lat="46.81944" lon="4.69493">
        <ele>311.410685</ele>
        <time>2011-02-27T09:46:39Z</time>
      </trkpt>
      <trkpt lat="46.81948" lon="4.69506">
        <ele>311.504783</ele>
        <time>2011-02-27T09:46:43Z</time>
      </trkpt>
      <trkpt lat="46.81951" lon="4.69519">
        <ele>311.597295</ele>
        <time>2011-02-27T09:46:47Z</time>
      </trkpt>
      <trkpt lat="46.81954" lon="4.69532">
        <ele>311.694307</ele>
        <time>2011-02-27T09:46:51Z</time>
      </trkpt>
      <trkpt lat="46.81954" lon="4.69532">
        <ele>311.785257</ele>
        <time>2011-02-27T09:46:53Z</time>
      </trkpt>
      <trkpt lat="46.81944" lon="4.69574">
        <ele>311.855475</ele>
        <time>2011-02-27T09:47:06Z</time>
      </trkpt>
      <trkpt lat="46.81944" lon="4.69574">
        <ele>311.905823</ele>
        <time>2011-02-27T09:47:09Z</time>
      </trkpt>
      <trkpt lat="46.81929" lon="4.69621">
        <ele>311.950103</ele>
        <time>2011-02-27T09:47:34Z</time>
      </trkpt>
      <trkpt lat="46.81931" lon="4.6964">
        <ele>312.009553</ele>
        <time>2011-02-27T09:47:47Z</time>
      </trkpt>
      <trkpt lat="46.81933" lon="4.69653">
        <ele>312.288802</ele>
        <time>2011-02-27T09:47:56Z</time>
      </trkpt>
      <trkpt lat="46.81938" lon="4.69665">
        <ele>313.480171</ele>
        <time>2011-02-27T09:48:04Z</time>
      </trkpt>
      <trkpt lat="46.81944" lon="4.69674">
        <ele>315.955485</ele>
        <time>2011-02-27T09:48:13Z</time>
      </trkpt>
      <trkpt lat="46.81944" lon="4.69674">
        <ele>318.704825</ele>
        <time>2011-02-27T09:48:25Z</time>
      </trkpt>
      <trkpt lat="46.81953" lon="4.69712">
        <ele>320.553864</ele>
        <time>2011-02-27T09:48:57Z</time>
      </trkpt>
      <trkpt lat="46.81953" lon="4.69712">
        <ele>321.437931</ele>
        <time>2011-02-27T09:49:09Z</time>
      </trkpt>
      <trkpt lat="46.81953" lon="4.69712">
        <ele>321.725408</ele>
        <time>2011-02-27T09:49:44Z</time>
      </trkpt>
      <trkpt lat="46.81945" lon="4.69754">
        <ele>321.780015</ele>
        <time>2011-02-27T09:50:15Z</time>
      </trkpt>
      <trkpt lat="46.81942" lon="4.69768">
        <ele>321.967948</ele>
        <time>2011-02-27T09:50:22Z</time>
      </trkpt>
      <trkpt lat="46.81939" lon="4.69782">
        <ele>323.040688</ele>
        <time>2011-02-27T09:50:27Z</time>
      </trkpt>
      <trkpt lat="46.81936" lon="4.69796">
        <ele>327.303423</ele>
        <time>2011-02-27T09:50:32Z</time>
      </trkpt>
      <trkpt lat="46.81933" lon="4.69809">
        <ele>335.003587</ele>
        <time>2011-02-27T09:50:38Z</time>
      </trkpt>
      <trkpt lat="46.81928" lon="4.69822">
        <ele>342.209616</ele>
        <time>2011-02-27T09:50:44Z</time>
      </trkpt>
      <trkpt lat="46.81924" lon="4.69835">
        <ele>346.077811</ele>
        <time>2011-02-27T09:50:50Z</time>
      </trkpt>
      <trkpt lat="46.81921" lon="4.69849">
        <ele>347.505878</ele>
        <time>2011-02-27T09:50:56Z</time>
      </trkpt>
      <trkpt lat="46.81924" lon="4.69864">
        <ele>348.072212</ele>
        <time>2011-02-27T09:51:03Z</time>
      </trkpt>
      <trkpt lat="46.8193" lon="4.69876">
        <ele>348.705176</ele>
        <time>2011-02-27T09:51:09Z</time>
      </trkpt>
      <trkpt lat="46.81929" lon="4.69889">
        <ele>349.613753</ele>
        <time>2011-02-27T09:51:16Z</time>
      </trkpt>
      <trkpt lat="46.81922" lon="4.69898">
        <ele>350.686937</ele>
        <time>2011-02-27T09:51:22Z</time>
      </trkpt>
      <trkpt lat="46.81914" lon="4.69908">
        <ele>351.787307</ele>
        <time>2011-02-27T09:51:28Z</time>
      </trkpt>
      <trkpt lat="46.81908" lon="4.69918">
        <ele>352.841986</ele>
        <time>2011-02-27T09:51:33Z</time>
      </trkpt>
      <trkpt lat="46.81902" lon="4.6993">
        <ele>353.817465</ele>
        <time>2011-02-27T09:51:38Z</time>
      </trkpt>
      <trkpt lat="46.81896" lon="4.69941">
        <ele>354.684592</ele>
        <time>2011-02-27T09:51:42Z</time>
      </trkpt>
      <trkpt lat="46.81889" lon="4.69954">
        <ele>355.41488</ele>
        <time>2011-02-27T09:51:45Z</time>
      </trkpt>
      <trkpt lat="46.81883" lon="4.6997">
        <ele>356.004501</ele>
        <time>2011-02-27T09:51:48Z</time>
      </trkpt>
      <trkpt lat="46.81877" lon="4.69984">
        <ele>356.471927</ele>
        <time>2011-02-27T09:51:51Z</time>
      </trkpt>
      <trkpt lat="46.81871" lon="4.69998">
        <ele>356.846558</ele>
        <time>2011-02-27T09:51:54Z</time>
      </trkpt>
      <trkpt lat="46.81864" lon="4.70014">
        <ele>357.391657</ele>
        <time>2011-02-27T09:51:57Z</time>
      </trkpt>
      <trkpt lat="46.81859" lon="4.70029">
        <ele>358.259967</ele>
        <time>2011-02-27T09:52:00Z</time>
      </trkpt>
      <trkpt lat="46.81859" lon="4.70029">
        <ele>359.062352</ele>
        <time>2011-02-27T09:52:03Z</time>
      </trkpt>
      <trkpt lat="46.81859" lon="4.70029">
        <ele>359.433823</ele>
        <time>2011-02-27T09:52:29Z</time>
      </trkpt>
      <trkpt lat="46.81868" lon="4.70049">
        <ele>359.540682</ele>
        <time>2011-02-27T09:52:35Z</time>
      </trkpt>
      <trkpt lat="46.81877" lon="4.70058">
        <ele>359.685377</ele>
        <time>2011-02-27T09:52:39Z</time>
      </trkpt>
      <trkpt lat="46.81885" lon="4.70066">
        <ele>359.943332</ele>
        <time>2011-02-27T09:52:43Z</time>
      </trkpt>
      <trkpt lat="46.81885" lon="4.70066">
        <ele>360.162986</ele>
        <time>2011-02-27T09:52:48Z</time>
      </trkpt>
      <trkpt lat="46.8192" lon="4.70097">
        <ele>360.253925</ele>
        <time>2011-02-27T09:53:07Z</time>
      </trkpt>
      <trkpt lat="46.8192" lon="4.70097">
        <ele>360.258858</ele>
        <time>2011-02-27T09:53:10Z</time>
      </trkpt>
      <trkpt lat="46.8194" lon="4.70127">
        <ele>360.237522</ele>
        <time>2011-02-27T09:53:25Z</time>
      </trkpt>
      <trkpt lat="46.81948" lon="4.70144">
        <ele>360.22606</ele>
        <time>2011-02-27T09:53:33Z</time>
      </trkpt>
      <trkpt lat="46.81951" lon="4.70157">
        <ele>360.335454</ele>
        <time>2011-02-27T09:53:38Z</time>
      </trkpt>
      <trkpt lat="46.81959" lon="4.70177">
        <ele>360.733494</ele>
        <time>2011-02-27T09:53:46Z</time>
      </trkpt>
      <trkpt lat="46.81966" lon="4.70202">
        <ele>361.440754</ele>
        <time>2011-02-27T09:53:57Z</time>
      </trkpt>
      <trkpt lat="46.8197" lon="4.70217">
        <ele>362.262842</ele>
        <time>2011-02-27T09:54:01Z</time>
      </trkpt>
      <trkpt lat="46.81974" lon="4.70231">
        <ele>363.022652</ele>
        <time>2011-02-27T09:54:04Z</time>
      </trkpt>
      <trkpt lat="46.81978" lon="4.70244">
        <ele>363.729008</ele>
        <time>2011-02-27T09:54:07Z</time>
      </trkpt>
      <trkpt lat="46.81981" lon="4.70257">
        <ele>364.383258</ele>
        <time>2011-02-27T09:54:10Z</time>
      </trkpt>
      <trkpt lat="46.81984" lon="4.70271">
        <ele>364.856194</ele>
        <time>2011-02-27T09:54:13Z</time>
      </trkpt>
      <trkpt lat="46.81984" lon="4.70291">
        <ele>365.107604</ele>
        <time>2011-02-27T09:54:16Z</time>
      </trkpt>
      <trkpt lat="46.81983" lon="4.70318">
        <ele>365.230233</ele>
        <time>2011-02-27T09:54:19Z</time>
      </trkpt>
      <trkpt lat="46.81983" lon="4.70346">
        <ele>365.301435</ele>
        <time>2011-02-27T09:54:22Z</time>
      </trkpt>
      <trkpt lat="46.8198" lon="4.70371">
        <ele>365.434534</ele>
        <time>2011-02-27T09:54:25Z</time>
      </trkpt>
      <trkpt lat="46.8197" lon="4.70385">
        <ele>365.692965</ele>
        <time>2011-02-27T09:54:27Z</time>
      </trkpt>
      <trkpt lat="46.81959" lon="4.704">
        <ele>366.038855</ele>
        <time>2011-02-27T09:54:29Z</time>
      </trkpt>
      <trkpt lat="46.81948" lon="4.70411">
        <ele>366.485157</ele>
        <time>2011-02-27T09:54:31Z</time>
      </trkpt>
      <trkpt lat="46.81932" lon="4.70425">
        <ele>367.002463</ele>
        <time>2011-02-27T09:54:34Z</time>
      </trkpt>
      <trkpt lat="46.81931" lon="4.70443">
        <ele>367.417883</ele>
        <time>2011-02-27T09:54:37Z</time>
      </trkpt>
      <trkpt lat="46.81931" lon="4.70466">
        <ele>367.639178</ele>
        <time>2011-02-27T09:54:40Z</time>
      </trkpt>
      <trkpt lat="46.81935" lon="4.70497">
        <ele>367.70535</ele>
        <time>2011-02-27T09:54:43Z</time>
      </trkpt>
      <trkpt lat="46.8194" lon="4.70515">
        <ele>367.673928</ele>
        <time>2011-02-27T09:54:45Z</time>
      </trkpt>
      <trkpt lat="46.81943" lon="4.70533">
        <ele>367.560986</ele>
        <time>2011-02-27T09:54:48Z</time>
      </trkpt>
      <trkpt lat="46.81937" lon="4.7055">
        <ele>367.286574</ele>
        <time>2011-02-27T09:54:50Z</time>
      </trkpt>
      <trkpt lat="46.8193" lon="4.70569">
        <ele>366.655887</ele>
        <time>2011-02-27T09:54:52Z</time>
      </trkpt>
      <trkpt lat="46.8192" lon="4.70603">
        <ele>365.62532</ele>
        <time>2011-02-27T09:54:55Z</time>
      </trkpt>
      <trkpt lat="46.81912" lon="4.70629">
        <ele>364.293233</ele>
        <time>2011-02-27T09:54:57Z</time>
      </trkpt>
      <trkpt lat="46.81902" lon="4.70658">
        <ele>362.684412</ele>
        <time>2011-02-27T09:55:00Z</time>
      </trkpt>
      <trkpt lat="46.81893" lon="4.70679">
        <ele>360.803667</ele>
        <time>2011-02-27T09:55:03Z</time>
      </trkpt>
      <trkpt lat="46.81884" lon="4.70692">
        <ele>358.82343</ele>
        <time>2011-02-27T09:55:05Z</time>
      </trkpt>
      <trkpt lat="46.81873" lon="4.70705">
        <ele>356.949765</ele>
        <time>2011-02-27T09:55:07Z</time>
      </trkpt>
      <trkpt lat="46.81863" lon="4.7072">
        <ele>355.224643</ele>
        <time>2011-02-27T09:55:10Z</time>
      </trkpt>
      <trkpt lat="46.81862" lon="4.70741">
        <ele>353.609709</ele>
        <time>2011-02-27T09:55:13Z</time>
      </trkpt>
      <trkpt lat="46.81863" lon="4.7076">
        <ele>352.186771</ele>
        <time>2011-02-27T09:55:15Z</time>
      </trkpt>
      <trkpt lat="46.81866" lon="4.70785">
        <ele>350.819531</ele>
        <time>2011-02-27T09:55:18Z</time>
      </trkpt>
      <trkpt lat="46.81864" lon="4.70803">
        <ele>349.114109</ele>
        <time>2011-02-27T09:55:21Z</time>
      </trkpt>
      <trkpt lat="46.81852" lon="4.70819">
        <ele>347.014735</ele>
        <time>2011-02-27T09:55:24Z</time>
      </trkpt>
      <trkpt lat="46.81837" lon="4.70832">
        <ele>344.725655</ele>
        <time>2011-02-27T09:55:27Z</time>
      </trkpt>
      <trkpt lat="46.81821" lon="4.70835">
        <ele>342.187968</ele>
        <time>2011-02-27T09:55:30Z</time>
      </trkpt>
      <trkpt lat="46.81811" lon="4.70834">
        <ele>339.24668</ele>
        <time>2011-02-27T09:55:32Z</time>
      </trkpt>
      <trkpt lat="46.81798" lon="4.70835">
        <ele>335.95036</ele>
        <time>2011-02-27T09:55:35Z</time>
      </trkpt>
      <trkpt lat="46.81789" lon="4.70844">
        <ele>332.586109</ele>
        <time>2011-02-27T09:55:37Z</time>
      </trkpt>
      <trkpt lat="46.81773" lon="4.70869">
        <ele>329.674816</ele>
        <time>2011-02-27T09:55:40Z</time>
      </trkpt>
      <trkpt lat="46.81763" lon="4.70889">
        <ele>327.392283</ele>
        <time>2011-02-27T09:55:42Z</time>
      </trkpt>
      <trkpt lat="46.81754" lon="4.7091">
        <ele>325.401968</ele>
        <time>2011-02-27T09:55:44Z</time>
      </trkpt>
      <trkpt lat="46.81754" lon="4.70931">
        <ele>323.25307</ele>
        <time>2011-02-27T09:55:46Z</time>
      </trkpt>
      <trkpt lat="46.81753" lon="4.70958">
        <ele>320.808649</ele>
        <time>2011-02-27T09:55:49Z</time>
      </trkpt>
      <trkpt lat="46.81745" lon="4.70969">
        <ele>318.221811</ele>
        <time>2011-02-27T09:55:51Z</time>
      </trkpt>
      <trkpt lat="46.81726" lon="4.70974">
        <ele>315.663051</ele>
        <time>2011-02-27T09:55:54Z</time>
      </trkpt>
      <trkpt lat="46.81718" lon="4.70983">
        <ele>313.137628</ele>
        <time>2011-02-27T09:55:56Z</time>
      </trkpt>
      <trkpt lat="46.81714" lon="4.70996">
        <ele>310.772844</ele>
        <time>2011-02-27T09:55:59Z</time>
      </trkpt>
      <trkpt lat="46.81712" lon="4.7101">
        <ele>308.727283</ele>
        <time>2011-02-27T09:56:03Z</time>
      </trkpt>
      <trkpt lat="46.81712" lon="4.7101">
        <ele>307.198727</ele>
        <time>2011-02-27T09:56:05Z</time>
      </trkpt>
      <trkpt lat="46.81712" lon="4.7101">
        <ele>306.380637</ele>
        <time>2011-02-27T09:56:33Z</time>
      </trkpt>
      <trkpt lat="46.81738" lon="4.71023">
        <ele>306.04594</ele>
        <time>2011-02-27T09:58:55Z</time>
      </trkpt>
      <trkpt lat="46.81749" lon="4.71027">
        <ele>305.710821</ele>
        <time>2011-02-27T09:58:59Z</time>
      </trkpt>
      <trkpt lat="46.8176" lon="4.71031">
        <ele>305.274006</ele>
        <time>2011-02-27T09:59:03Z</time>
      </trkpt>
      <trkpt lat="46.8177" lon="4.71036">
        <ele>302.523522</ele>
        <time>2011-02-27T09:59:07Z</time>
      </trkpt>
      <trkpt lat="46.81781" lon="4.71042">
        <ele>295.982902</ele>
        <time>2011-02-27T09:59:11Z</time>
      </trkpt>
      <trkpt lat="46.81791" lon="4.71047">
        <ele>289.043671</ele>
        <time>2011-02-27T09:59:15Z</time>
      </trkpt>
      <trkpt lat="46.81801" lon="4.71052">
        <ele>285.1064</ele>
        <time>2011-02-27T09:59:20Z</time>
      </trkpt>
      <trkpt lat="46.81811" lon="4.71059">
        <ele>283.579901</ele>
        <time>2011-02-27T09:59:25Z</time>
      </trkpt>
      <trkpt lat="46.8182" lon="4.71063">
        <ele>283.052786</ele>
        <time>2011-02-27T09:59:29Z</time>
      </trkpt>
      <trkpt lat="46.81828" lon="4.71068">
        <ele>282.595727</ele>
        <time>2011-02-27T09:59:33Z</time>
      </trkpt>
      <trkpt lat="46.81839" lon="4.71072">
        <ele>281.880106</ele>
        <time>2011-02-27T09:59:38Z</time>
      </trkpt>
      <trkpt lat="46.81847" lon="4.71076">
        <ele>280.974854</ele>
        <time>2011-02-27T09:59:42Z</time>
      </trkpt>
      <trkpt lat="46.81858" lon="4.71081">
        <ele>280.084344</ele>
        <time>2011-02-27T09:59:47Z</time>
      </trkpt>
      <trkpt lat="46.81868" lon="4.71083">
        <ele>279.308128</ele>
        <time>2011-02-27T09:59:52Z</time>
      </trkpt>
      <trkpt lat="46.81877" lon="4.71085">
        <ele>278.645916</ele>
        <time>2011-02-27T09:59:56Z</time>
      </trkpt>
      <trkpt lat="46.81886" lon="4.71088">
        <ele>278.090231</ele>
        <time>2011-02-27T10:00:00Z</time>
      </trkpt>
      <trkpt lat="46.81896" lon="4.71093">
        <ele>277.619007</ele>
        <time>2011-02-27T10:00:04Z</time>
      </trkpt>
      <trkpt lat="46.81906" lon="4.71098">
        <ele>277.212464</ele>
        <time>2011-02-27T10:00:08Z</time>
      </trkpt>
      <trkpt lat="46.81916" lon="4.71106">
        <ele>276.882703</ele>
        <time>2011-02-27T10:00:12Z</time>
      </trkpt>
      <trkpt lat="46.81926" lon="4.71115">
        <ele>276.63557</ele>
        <time>2011-02-27T10:00:16Z</time>
      </trkpt>
      <trkpt lat="46.81935" lon="4.7112">
        <ele>276.458692</ele>
        <time>2011-02-27T10:00:19Z</time>
      </trkpt>
      <trkpt lat="46.81946" lon="4.71125">
        <ele>276.33779</ele>
        <time>2011-02-27T10:00:22Z</time>
      </trkpt>
      <trkpt lat="46.81958" lon="4.71137">
        <ele>276.267684</ele>
        <time>2011-02-27T10:00:25Z</time>
      </trkpt>
      <trkpt lat="46.8197" lon="4.71149">
        <ele>276.242221</ele>
        <time>2011-02-27T10:00:28Z</time>
      </trkpt>
      <trkpt lat="46.81982" lon="4.71161">
        <ele>276.243049</ele>
        <time>2011-02-27T10:00:31Z</time>
      </trkpt>
      <trkpt lat="46.8199" lon="4.71168">
        <ele>276.367657</ele>
        <time>2011-02-27T10:00:33Z</time>
      </trkpt>
      <trkpt lat="46.81999" lon="4.71175">
        <ele>276.822782</ele>
        <time>2011-02-27T10:00:35Z</time>
      </trkpt>
      <trkpt lat="46.82008" lon="4.7118">
        <ele>277.619445</ele>
        <time>2011-02-27T10:00:37Z</time>
      </trkpt>
      <trkpt lat="46.82017" lon="4.71185">
        <ele>278.426573</ele>
        <time>2011-02-27T10:00:39Z</time>
      </trkpt>
      <trkpt lat="46.82027" lon="4.71188">
        <ele>278.910338</ele>
        <time>2011-02-27T10:00:41Z</time>
      </trkpt>
      <trkpt lat="46.82036" lon="4.71191">
        <ele>279.044143</ele>
        <time>2011-02-27T10:00:43Z</time>
      </trkpt>
      <trkpt lat="46.82046" lon="4.71193">
        <ele>278.99072</ele>
        <time>2011-02-27T10:00:45Z</time>
      </trkpt>
      <trkpt lat="46.82059" lon="4.71196">
        <ele>278.867575</ele>
        <time>2011-02-27T10:00:48Z</time>
      </trkpt>
      <trkpt lat="46.82074" lon="4.71201">
        <ele>278.729579</ele>
        <time>2011-02-27T10:00:51Z</time>
      </trkpt>
      <trkpt lat="46.82096" lon="4.71211">
        <ele>278.602871</ele>
        <time>2011-02-27T10:00:54Z</time>
      </trkpt>
      <trkpt lat="46.82113" lon="4.71216">
        <ele>278.499654</ele>
        <time>2011-02-27T10:00:56Z</time>
      </trkpt>
      <trkpt lat="46.82138" lon="4.71221">
        <ele>278.420778</ele>
        <time>2011-02-27T10:00:59Z</time>
      </trkpt>
      <trkpt lat="46.82154" lon="4.71223">
        <ele>278.329035</ele>
        <time>2011-02-27T10:01:01Z</time>
      </trkpt>
      <trkpt lat="46.82172" lon="4.71225">
        <ele>278.118839</ele>
        <time>2011-02-27T10:01:04Z</time>
      </trkpt>
      <trkpt lat="46.82183" lon="4.71226">
        <ele>277.684467</ele>
        <time>2011-02-27T10:01:07Z</time>
      </trkpt>
      <trkpt lat="46.82194" lon="4.71228">
        <ele>277.080863</ele>
        <time>2011-02-27T10:01:10Z</time>
      </trkpt>
      <trkpt lat="46.82205" lon="4.71231">
        <ele>276.485073</ele>
        <time>2011-02-27T10:01:13Z</time>
      </trkpt>
      <trkpt lat="46.82215" lon="4.71233">
        <ele>276.041665</ele>
        <time>2011-02-27T10:01:16Z</time>
      </trkpt>
      <trkpt lat="46.82224" lon="4.71237">
        <ele>275.734525</ele>
        <time>2011-02-27T10:01:19Z</time>
      </trkpt>
      <trkpt lat="46.82234" lon="4.71241">
        <ele>275.427765</ele>
        <time>2011-02-27T10:01:22Z</time>
      </trkpt>
      <trkpt lat="46.82244" lon="4.71246">
        <ele>275.096179</ele>
        <time>2011-02-27T10:01:25Z</time>
      </trkpt>
      <trkpt lat="46.82254" lon="4.71252">
        <ele>274.837809</ele>
        <time>2011-02-27T10:01:28Z</time>
      </trkpt>
      <trkpt lat="46.82264" lon="4.71257">
        <ele>274.68699</ele>
        <time>2011-02-27T10:01:31Z</time>
      </trkpt>
      <trkpt lat="46.82274" lon="4.71261">
        <ele>274.625693</ele>
        <time>2011-02-27T10:01:34Z</time>
      </trkpt>
      <trkpt lat="46.82283" lon="4.71266">
        <ele>274.622572</ele>
        <time>2011-02-27T10:01:37Z</time>
      </trkpt>
      <trkpt lat="46.82293" lon="4.71269">
        <ele>274.655763</ele>
        <time>2011-02-27T10:01:41Z</time>
      </trkpt>
      <trkpt lat="46.82303" lon="4.71272">
        <ele>274.737249</ele>
        <time>2011-02-27T10:01:45Z</time>
      </trkpt>
      <trkpt lat="46.82312" lon="4.71274">
        <ele>274.871572</ele>
        <time>2011-02-27T10:01:49Z</time>
      </trkpt>
      <trkpt lat="46.82312" lon="4.71274">
        <ele>275.014842</ele>
        <time>2011-02-27T10:01:51Z</time>
      </trkpt>
      <trkpt lat="46.82341" lon="4.71276">
        <ele>275.146807</ele>
        <time>2011-02-27T10:02:07Z</time>
      </trkpt>
      <trkpt lat="46.82341" lon="4.71276">
        <ele>275.277685</ele>
        <time>2011-02-27T10:02:11Z</time>
      </trkpt>
      <trkpt lat="46.8237" lon="4.71267">
        <ele>275.414699</ele>
        <time>2011-02-27T10:02:28Z</time>
      </trkpt>
      <trkpt lat="46.82378" lon="4.71272">
        <ele>275.584717</ele>
        <time>2011-02-27T10:02:39Z</time>
      </trkpt>
      <trkpt lat="46.82378" lon="4.71272">
        <ele>275.776519</ele>
        <time>2011-02-27T10:02:51Z</time>
      </trkpt>
      <trkpt lat="46.82378" lon="4.71272">
        <ele>275.844075</ele>
        <time>2011-02-27T10:03:09Z</time>
      </trkpt>
      <trkpt lat="46.82393" lon="4.71235">
        <ele>275.91269</ele>
        <time>2011-02-27T10:03:30Z</time>
      </trkpt>
      <trkpt lat="46.82399" lon="4.71214">
        <ele>276.325945</ele>
        <time>2011-02-27T10:03:48Z</time>
      </trkpt>
      <trkpt lat="46.82399" lon="4.71214">
        <ele>276.977279</ele>
        <time>2011-02-27T10:04:05Z</time>
      </trkpt>
      <trkpt lat="46.82414" lon="4.71171">
        <ele>277.507189</ele>
        <time>2011-02-27T10:04:24Z</time>
      </trkpt>
      <trkpt lat="46.8242" lon="4.71157">
        <ele>278.893153</ele>
        <time>2011-02-27T10:04:28Z</time>
      </trkpt>
      <trkpt lat="46.82426" lon="4.71141">
        <ele>282.390377</ele>
        <time>2011-02-27T10:04:31Z</time>
      </trkpt>
      <trkpt lat="46.82433" lon="4.7112">
        <ele>287.740022</ele>
        <time>2011-02-27T10:04:34Z</time>
      </trkpt>
      <trkpt lat="46.8244" lon="4.711">
        <ele>293.225016</ele>
        <time>2011-02-27T10:04:37Z</time>
      </trkpt>
      <trkpt lat="46.82444" lon="4.71084">
        <ele>296.935435</ele>
        <time>2011-02-27T10:04:40Z</time>
      </trkpt>
      <trkpt lat="46.82452" lon="4.71072">
        <ele>298.241783</ele>
        <time>2011-02-27T10:04:44Z</time>
      </trkpt>
      <trkpt lat="46.82459" lon="4.71061">
        <ele>298.16693</ele>
        <time>2011-02-27T10:04:48Z</time>
      </trkpt>
      <trkpt lat="46.82466" lon="4.71047">
        <ele>297.721744</ele>
        <time>2011-02-27T10:04:52Z</time>
      </trkpt>
      <trkpt lat="46.82472" lon="4.71037">
        <ele>297.333198</ele>
        <time>2011-02-27T10:04:55Z</time>
      </trkpt>
      <trkpt lat="46.82479" lon="4.71027">
        <ele>297.010717</ele>
        <time>2011-02-27T10:04:58Z</time>
      </trkpt>
      <trkpt lat="46.82487" lon="4.71018">
        <ele>296.671502</ele>
        <time>2011-02-27T10:05:01Z</time>
      </trkpt>
      <trkpt lat="46.82495" lon="4.71011">
        <ele>296.308054</ele>
        <time>2011-02-27T10:05:04Z</time>
      </trkpt>
      <trkpt lat="46.82504" lon="4.71004">
        <ele>295.967986</ele>
        <time>2011-02-27T10:05:07Z</time>
      </trkpt>
      <trkpt lat="46.82512" lon="4.70996">
        <ele>295.685051</ele>
        <time>2011-02-27T10:05:10Z</time>
      </trkpt>
      <trkpt lat="46.8252" lon="4.70985">
        <ele>295.461936</ele>
        <time>2011-02-27T10:05:13Z</time>
      </trkpt>
      <trkpt lat="46.82528" lon="4.70976">
        <ele>295.286232</ele>
        <time>2011-02-27T10:05:16Z</time>
      </trkpt>
      <trkpt lat="46.82534" lon="4.70966">
        <ele>295.14841</ele>
        <time>2011-02-27T10:05:19Z</time>
      </trkpt>
      <trkpt lat="46.8254" lon="4.70955">
        <ele>295.055669</ele>
        <time>2011-02-27T10:05:22Z</time>
      </trkpt>
      <trkpt lat="46.82549" lon="4.70944">
        <ele>295.014645</ele>
        <time>2011-02-27T10:05:25Z</time>
      </trkpt>
      <trkpt lat="46.82556" lon="4.70935">
        <ele>295.01022</ele>
        <time>2011-02-27T10:05:28Z</time>
      </trkpt>
      <trkpt lat="46.82556" lon="4.70935">
        <ele>295.018581</ele>
        <time>2011-02-27T10:05:31Z</time>
      </trkpt>
      <trkpt lat="46.82588" lon="4.7092">
        <ele>295.028613</ele>
        <time>2011-02-27T10:05:45Z</time>
      </trkpt>
      <trkpt lat="46.82588" lon="4.7092">
        <ele>295.038376</ele>
        <time>2011-02-27T10:05:49Z</time>
      </trkpt>
      <trkpt lat="46.82588" lon="4.7092">
        <ele>295.045342</ele>
        <time>2011-02-27T10:06:28Z</time>
      </trkpt>
      <trkpt lat="46.82613" lon="4.70903">
        <ele>295.078355</ele>
        <time>2011-02-27T10:06:32Z</time>
      </trkpt>
      <trkpt lat="46.82621" lon="4.70896">
        <ele>295.184611</ele>
        <time>2011-02-27T10:06:39Z</time>
      </trkpt>
      <trkpt lat="46.82634" lon="4.70875">
        <ele>295.429363</ele>
        <time>2011-02-27T10:06:47Z</time>
      </trkpt>
      <trkpt lat="46.82643" lon="4.70862">
        <ele>296.187206</ele>
        <time>2011-02-27T10:06:51Z</time>
      </trkpt>
      <trkpt lat="46.8265" lon="4.70853">
        <ele>297.699865</ele>
        <time>2011-02-27T10:06:53Z</time>
      </trkpt>
      <trkpt lat="46.8266" lon="4.70844">
        <ele>299.4893</ele>
        <time>2011-02-27T10:06:56Z</time>
      </trkpt>
      <trkpt lat="46.82669" lon="4.70836">
        <ele>300.932288</ele>
        <time>2011-02-27T10:06:59Z</time>
      </trkpt>
      <trkpt lat="46.8268" lon="4.70829">
        <ele>301.87187</ele>
        <time>2011-02-27T10:07:03Z</time>
      </trkpt>
      <trkpt lat="46.8268" lon="4.70829">
        <ele>302.363878</ele>
        <time>2011-02-27T10:07:06Z</time>
      </trkpt>
      <trkpt lat="46.82699" lon="4.70796">
        <ele>302.618169</ele>
        <time>2011-02-27T10:07:21Z</time>
      </trkpt>
      <trkpt lat="46.82699" lon="4.70796">
        <ele>302.839273</ele>
        <time>2011-02-27T10:07:24Z</time>
      </trkpt>
      <trkpt lat="46.82715" lon="4.70757">
        <ele>303.109195</ele>
        <time>2011-02-27T10:07:35Z</time>
      </trkpt>
      <trkpt lat="46.82721" lon="4.70745">
        <ele>303.526469</ele>
        <time>2011-02-27T10:07:40Z</time>
      </trkpt>
      <trkpt lat="46.82727" lon="4.70731">
        <ele>304.397172</ele>
        <time>2011-02-27T10:07:45Z</time>
      </trkpt>
      <trkpt lat="46.82734" lon="4.70719">
        <ele>305.938952</ele>
        <time>2011-02-27T10:07:49Z</time>
      </trkpt>
      <trkpt lat="46.82743" lon="4.70709">
        <ele>307.797573</ele>
        <time>2011-02-27T10:07:53Z</time>
      </trkpt>
      <trkpt lat="46.8275" lon="4.70701">
        <ele>309.331546</ele>
        <time>2011-02-27T10:07:56Z</time>
      </trkpt>
      <trkpt lat="46.82759" lon="4.70689">
        <ele>310.353192</ele>
        <time>2011-02-27T10:07:59Z</time>
      </trkpt>
      <trkpt lat="46.82766" lon="4.70678">
        <ele>311.058193</ele>
        <time>2011-02-27T10:08:02Z</time>
      </trkpt>
      <trkpt lat="46.82775" lon="4.70671">
        <ele>311.619708</ele>
        <time>2011-02-27T10:08:05Z</time>
      </trkpt>
      <trkpt lat="46.82783" lon="4.70664">
        <ele>312.114348</ele>
        <time>2011-02-27T10:08:09Z</time>
      </trkpt>
      <trkpt lat="46.82793" lon="4.70663">
        <ele>312.581291</ele>
        <time>2011-02-27T10:08:13Z</time>
      </trkpt>
      <trkpt lat="46.82803" lon="4.70657">
        <ele>313.04209</ele>
        <time>2011-02-27T10:08:17Z</time>
      </trkpt>
      <trkpt lat="46.82815" lon="4.70652">
        <ele>313.505532</ele>
        <time>2011-02-27T10:08:21Z</time>
      </trkpt>
      <trkpt lat="46.82837" lon="4.70652">
        <ele>313.918353</ele>
        <time>2011-02-27T10:08:24Z</time>
      </trkpt>
      <trkpt lat="46.82858" lon="4.7065">
        <ele>314.171365</ele>
        <time>2011-02-27T10:08:27Z</time>
      </trkpt>
      <trkpt lat="46.82877" lon="4.70651">
        <ele>314.244</ele>
        <time>2011-02-27T10:08:30Z</time>
      </trkpt>
      <trkpt lat="46.8289" lon="4.70657">
        <ele>314.011972</ele>
        <time>2011-02-27T10:08:32Z</time>
      </trkpt>
      <trkpt lat="46.82897" lon="4.70667">
        <ele>313.083987</ele>
        <time>2011-02-27T10:08:34Z</time>
      </trkpt>
      <trkpt lat="46.82905" lon="4.70682">
        <ele>311.292666</ele>
        <time>2011-02-27T10:08:37Z</time>
      </trkpt>
      <trkpt lat="46.82905" lon="4.70682">
        <ele>309.274785</ele>
        <time>2011-02-27T10:08:40Z</time>
      </trkpt>
      <trkpt lat="46.82935" lon="4.70699">
        <ele>307.603977</ele>
        <time>2011-02-27T10:08:49Z</time>
      </trkpt>
      <trkpt lat="46.82935" lon="4.70699">
        <ele>306.29269</ele>
        <time>2011-02-27T10:08:53Z</time>
      </trkpt>
      <trkpt lat="46.82961" lon="4.70674">
        <ele>305.442721</ele>
        <time>2011-02-27T10:09:32Z</time>
      </trkpt>
      <trkpt lat="46.8297" lon="4.7067">
        <ele>305.43327</ele>
        <time>2011-02-27T10:09:35Z</time>
      </trkpt>
      <trkpt lat="46.82979" lon="4.70666">
        <ele>306.207604</ele>
        <time>2011-02-27T10:09:38Z</time>
      </trkpt>
      <trkpt lat="46.82992" lon="4.70661">
        <ele>307.168793</ele>
        <time>2011-02-27T10:09:43Z</time>
      </trkpt>
      <trkpt lat="46.83008" lon="4.70659">
        <ele>307.700754</ele>
        <time>2011-02-27T10:09:50Z</time>
      </trkpt>
      <trkpt lat="46.83018" lon="4.7066">
        <ele>307.76198</ele>
        <time>2011-02-27T10:09:54Z</time>
      </trkpt>
      <trkpt lat="46.83034" lon="4.70663">
        <ele>307.621406</ele>
        <time>2011-02-27T10:09:57Z</time>
      </trkpt>
      <trkpt lat="46.83047" lon="4.70665">
        <ele>307.334628</ele>
        <time>2011-02-27T10:10:00Z</time>
      </trkpt>
      <trkpt lat="46.83057" lon="4.70667">
        <ele>306.771558</ele>
        <time>2011-02-27T10:10:03Z</time>
      </trkpt>
      <trkpt lat="46.83066" lon="4.70674">
        <ele>305.571738</ele>
        <time>2011-02-27T10:10:06Z</time>
      </trkpt>
      <trkpt lat="46.83068" lon="4.70691">
        <ele>303.703102</ele>
        <time>2011-02-27T10:10:08Z</time>
      </trkpt>
      <trkpt lat="46.83072" lon="4.70726">
        <ele>302.001651</ele>
        <time>2011-02-27T10:10:11Z</time>
      </trkpt>
      <trkpt lat="46.83073" lon="4.70752">
        <ele>301.179848</ele>
        <time>2011-02-27T10:10:13Z</time>
      </trkpt>
      <trkpt lat="46.83072" lon="4.70779">
        <ele>301.030777</ele>
        <time>2011-02-27T10:10:15Z</time>
      </trkpt>
      <trkpt lat="46.83072" lon="4.70816">
        <ele>301.152831</ele>
        <time>2011-02-27T10:10:18Z</time>
      </trkpt>
      <trkpt lat="46.83071" lon="4.70845">
        <ele>301.542315</ele>
        <time>2011-02-27T10:10:21Z</time>
      </trkpt>
      <trkpt lat="46.83069" lon="4.70858">
        <ele>302.479445</ele>
        <time>2011-02-27T10:10:24Z</time>
      </trkpt>
      <trkpt lat="46.83069" lon="4.70858">
        <ele>303.71038</ele>
        <time>2011-02-27T10:10:51Z</time>
      </trkpt>
      <trkpt lat="46.83062" lon="4.70898">
        <ele>304.64295</ele>
        <time>2011-02-27T10:11:07Z</time>
      </trkpt>
      <trkpt lat="46.8307" lon="4.70907">
        <ele>305.158069</ele>
        <time>2011-02-27T10:11:10Z</time>
      </trkpt>
      <trkpt lat="46.83086" lon="4.7091">
        <ele>305.421252</ele>
        <time>2011-02-27T10:11:13Z</time>
      </trkpt>
      <trkpt lat="46.83104" lon="4.70912">
        <ele>305.514114</ele>
        <time>2011-02-27T10:11:16Z</time>
      </trkpt>
      <trkpt lat="46.83116" lon="4.70914">
        <ele>305.610718</ele>
        <time>2011-02-27T10:11:18Z</time>
      </trkpt>
      <trkpt lat="46.83131" lon="4.7092">
        <ele>305.922258</ele>
        <time>2011-02-27T10:11:21Z</time>
      </trkpt>
      <trkpt lat="46.83147" lon="4.70924">
        <ele>306.376632</ele>
        <time>2011-02-27T10:11:24Z</time>
      </trkpt>
      <trkpt lat="46.83157" lon="4.70925">
        <ele>306.738235</ele>
        <time>2011-02-27T10:11:26Z</time>
      </trkpt>
      <trkpt lat="46.8317" lon="4.70926">
        <ele>306.957726</ele>
        <time>2011-02-27T10:11:29Z</time>
      </trkpt>
      <trkpt lat="46.83183" lon="4.70926">
        <ele>307.091518</ele>
        <time>2011-02-27T10:11:32Z</time>
      </trkpt>
      <trkpt lat="46.83195" lon="4.70924">
        <ele>307.152582</ele>
        <time>2011-02-27T10:11:35Z</time>
      </trkpt>
      <trkpt lat="46.83208" lon="4.70924">
        <ele>307.146671</ele>
        <time>2011-02-27T10:11:38Z</time>
      </trkpt>
      <trkpt lat="46.83219" lon="4.70922">
        <ele>307.09943</ele>
        <time>2011-02-27T10:11:41Z</time>
      </trkpt>
      <trkpt lat="46.83229" lon="4.7092">
        <ele>307.051881</ele>
        <time>2011-02-27T10:11:44Z</time>
      </trkpt>
      <trkpt lat="46.83238" lon="4.70917">
        <ele>307.029587</ele>
        <time>2011-02-27T10:11:48Z</time>
      </trkpt>
      <trkpt lat="46.83249" lon="4.70916">
        <ele>306.882486</ele>
        <time>2011-02-27T10:11:52Z</time>
      </trkpt>
      <trkpt lat="46.83261" lon="4.70932">
        <ele>306.496503</ele>
        <time>2011-02-27T10:11:54Z</time>
      </trkpt>
      <trkpt lat="46.8327" lon="4.70939">
        <ele>306.047236</ele>
        <time>2011-02-27T10:11:57Z</time>
      </trkpt>
      <trkpt lat="46.83279" lon="4.70948">
        <ele>305.750568</ele>
        <time>2011-02-27T10:12:00Z</time>
      </trkpt>
      <trkpt lat="46.83287" lon="4.70964">
        <ele>305.618664</ele>
        <time>2011-02-27T10:12:03Z</time>
      </trkpt>
      <trkpt lat="46.83298" lon="4.70984">
        <ele>305.567774</ele>
        <time>2011-02-27T10:12:06Z</time>
      </trkpt>
      <trkpt lat="46.83299" lon="4.71001">
        <ele>305.519104</ele>
        <time>2011-02-27T10:12:10Z</time>
      </trkpt>
      <trkpt lat="46.83295" lon="4.71025">
        <ele>305.497006</ele>
        <time>2011-02-27T10:12:13Z</time>
      </trkpt>
      <trkpt lat="46.83299" lon="4.71039">
        <ele>305.547827</ele>
        <time>2011-02-27T10:12:15Z</time>
      </trkpt>
      <trkpt lat="46.83311" lon="4.71048">
        <ele>305.64313</ele>
        <time>2011-02-27T10:12:18Z</time>
      </trkpt>
      <trkpt lat="46.83321" lon="4.71052">
        <ele>305.772759</ele>
        <time>2011-02-27T10:12:20Z</time>
      </trkpt>
      <trkpt lat="46.83332" lon="4.71055">
        <ele>305.94213</ele>
        <time>2011-02-27T10:12:22Z</time>
      </trkpt>
      <trkpt lat="46.83344" lon="4.71055">
        <ele>306.083749</ele>
        <time>2011-02-27T10:12:25Z</time>
      </trkpt>
      <trkpt lat="46.83344" lon="4.71055">
        <ele>306.141984</ele>
        <time>2011-02-27T10:12:28Z</time>
      </trkpt>
      <trkpt lat="46.83367" lon="4.71055">
        <ele>306.092062</ele>
        <time>2011-02-27T10:12:35Z</time>
      </trkpt>
      <trkpt lat="46.8338" lon="4.71067">
        <ele>305.899809</ele>
        <time>2011-02-27T10:12:38Z</time>
      </trkpt>
      <trkpt lat="46.83398" lon="4.71081">
        <ele>305.514595</ele>
        <time>2011-02-27T10:12:41Z</time>
      </trkpt>
      <trkpt lat="46.83411" lon="4.71088">
        <ele>304.783976</ele>
        <time>2011-02-27T10:12:43Z</time>
      </trkpt>
      <trkpt lat="46.8342" lon="4.71092">
        <ele>303.319852</ele>
        <time>2011-02-27T10:12:45Z</time>
      </trkpt>
      <trkpt lat="46.8343" lon="4.71097">
        <ele>300.523981</ele>
        <time>2011-02-27T10:12:48Z</time>
      </trkpt>
      <trkpt lat="46.8343" lon="4.71097">
        <ele>296.913464</ele>
        <time>2011-02-27T10:12:49Z</time>
      </trkpt>
      <trkpt lat="46.83446" lon="4.71101">
        <ele>293.867761</ele>
        <time>2011-02-27T10:12:53Z</time>
      </trkpt>
      <trkpt lat="46.83458" lon="4.71106">
        <ele>291.788426</ele>
        <time>2011-02-27T10:12:56Z</time>
      </trkpt>
      <trkpt lat="46.83468" lon="4.71113">
        <ele>290.37537</ele>
        <time>2011-02-27T10:12:59Z</time>
      </trkpt>
      <trkpt lat="46.83472" lon="4.71129">
        <ele>289.490732</ele>
        <time>2011-02-27T10:13:03Z</time>
      </trkpt>
      <trkpt lat="46.83477" lon="4.71145">
        <ele>288.816448</ele>
        <time>2011-02-27T10:13:05Z</time>
      </trkpt>
      <trkpt lat="46.83482" lon="4.71165">
        <ele>288.155249</ele>
        <time>2011-02-27T10:13:07Z</time>
      </trkpt>
      <trkpt lat="46.83488" lon="4.7118">
        <ele>287.453076</ele>
        <time>2011-02-27T10:13:09Z</time>
      </trkpt>
      <trkpt lat="46.83494" lon="4.71193">
        <ele>286.264108</ele>
        <time>2011-02-27T10:13:11Z</time>
      </trkpt>
      <trkpt lat="46.83507" lon="4.71209">
        <ele>284.0745</ele>
        <time>2011-02-27T10:13:14Z</time>
      </trkpt>
      <trkpt lat="46.83526" lon="4.71227">
        <ele>281.079423</ele>
        <time>2011-02-27T10:13:16Z</time>
      </trkpt>
      <trkpt lat="46.83556" lon="4.71258">
        <ele>277.969315</ele>
        <time>2011-02-27T10:13:19Z</time>
      </trkpt>
      <trkpt lat="46.83573" lon="4.71275">
        <ele>275.006394</ele>
        <time>2011-02-27T10:13:21Z</time>
      </trkpt>
      <trkpt lat="46.83589" lon="4.71303">
        <ele>272.178368</ele>
        <time>2011-02-27T10:13:24Z</time>
      </trkpt>
      <trkpt lat="46.83602" lon="4.71341">
        <ele>269.474163</ele>
        <time>2011-02-27T10:13:27Z</time>
      </trkpt>
      <trkpt lat="46.83617" lon="4.71356">
        <ele>266.460865</ele>
        <time>2011-02-27T10:13:29Z</time>
      </trkpt>
      <trkpt lat="46.83632" lon="4.71367">
        <ele>262.681515</ele>
        <time>2011-02-27T10:13:31Z</time>
      </trkpt>
      <trkpt lat="46.83651" lon="4.71384">
        <ele>258.944655</ele>
        <time>2011-02-27T10:13:34Z</time>
      </trkpt>
      <trkpt lat="46.83659" lon="4.71397">
        <ele>256.53184</ele>
        <time>2011-02-27T10:13:36Z</time>
      </trkpt>
      <trkpt lat="46.83664" lon="4.71438">
        <ele>255.641386</ele>
        <time>2011-02-27T10:13:39Z</time>
      </trkpt>
      <trkpt lat="46.83661" lon="4.7149">
        <ele>255.600984</ele>
        <time>2011-02-27T10:13:42Z</time>
      </trkpt>
      <trkpt lat="46.83657" lon="4.71514">
        <ele>255.816048</ele>
        <time>2011-02-27T10:13:44Z</time>
      </trkpt>
      <trkpt lat="46.83652" lon="4.71538">
        <ele>255.977954</ele>
        <time>2011-02-27T10:13:47Z</time>
      </trkpt>
      <trkpt lat="46.83648" lon="4.71554">
        <ele>255.86031</ele>
        <time>2011-02-27T10:13:49Z</time>
      </trkpt>
      <trkpt lat="46.83643" lon="4.71573">
        <ele>255.218793</ele>
        <time>2011-02-27T10:13:51Z</time>
      </trkpt>
      <trkpt lat="46.83637" lon="4.71605">
        <ele>254.027795</ele>
        <time>2011-02-27T10:13:54Z</time>
      </trkpt>
      <trkpt lat="46.83629" lon="4.71637">
        <ele>252.604946</ele>
        <time>2011-02-27T10:13:57Z</time>
      </trkpt>
      <trkpt lat="46.83623" lon="4.71658">
        <ele>251.357318</ele>
        <time>2011-02-27T10:13:59Z</time>
      </trkpt>
      <trkpt lat="46.83616" lon="4.71686">
        <ele>250.486675</ele>
        <time>2011-02-27T10:14:02Z</time>
      </trkpt>
      <trkpt lat="46.83623" lon="4.71701">
        <ele>249.981535</ele>
        <time>2011-02-27T10:14:06Z</time>
      </trkpt>
      <trkpt lat="46.83633" lon="4.7171">
        <ele>249.699379</ele>
        <time>2011-02-27T10:14:09Z</time>
      </trkpt>
      <trkpt lat="46.83629" lon="4.71731">
        <ele>249.310201</ele>
        <time>2011-02-27T10:14:17Z</time>
      </trkpt>
      <trkpt lat="46.8362" lon="4.71741">
        <ele>248.548855</ele>
        <time>2011-02-27T10:14:20Z</time>
      </trkpt>
      <trkpt lat="46.83612" lon="4.71751">
        <ele>247.441919</ele>
        <time>2011-02-27T10:14:23Z</time>
      </trkpt>
      <trkpt lat="46.83604" lon="4.71761">
        <ele>246.160119</ele>
        <time>2011-02-27T10:14:26Z</time>
      </trkpt>
      <trkpt lat="46.83595" lon="4.71774">
        <ele>244.970944</ele>
        <time>2011-02-27T10:14:29Z</time>
      </trkpt>
      <trkpt lat="46.83581" lon="4.71794">
        <ele>244.13354</ele>
        <time>2011-02-27T10:14:32Z</time>
      </trkpt>
      <trkpt lat="46.83571" lon="4.7181">
        <ele>243.64759</ele>
        <time>2011-02-27T10:14:34Z</time>
      </trkpt>
      <trkpt lat="46.83557" lon="4.71833">
        <ele>243.349286</ele>
        <time>2011-02-27T10:14:37Z</time>
      </trkpt>
      <trkpt lat="46.83547" lon="4.71851">
        <ele>242.916445</ele>
        <time>2011-02-27T10:14:39Z</time>
      </trkpt>
      <trkpt lat="46.83532" lon="4.71877">
        <ele>242.08733</ele>
        <time>2011-02-27T10:14:42Z</time>
      </trkpt>
      <trkpt lat="46.83522" lon="4.71894">
        <ele>241.003544</ele>
        <time>2011-02-27T10:14:44Z</time>
      </trkpt>
      <trkpt lat="46.83508" lon="4.71921">
        <ele>239.975304</ele>
        <time>2011-02-27T10:14:47Z</time>
      </trkpt>
      <trkpt lat="46.83501" lon="4.71935">
        <ele>238.93376</ele>
        <time>2011-02-27T10:14:49Z</time>
      </trkpt>
      <trkpt lat="46.83493" lon="4.71951">
        <ele>237.655306</ele>
        <time>2011-02-27T10:14:51Z</time>
      </trkpt>
      <trkpt lat="46.83484" lon="4.71967">
        <ele>236.285258</ele>
        <time>2011-02-27T10:14:53Z</time>
      </trkpt>
      <trkpt lat="46.83469" lon="4.71993">
        <ele>235.257153</ele>
        <time>2011-02-27T10:14:56Z</time>
      </trkpt>
      <trkpt lat="46.83454" lon="4.72021">
        <ele>234.733279</ele>
        <time>2011-02-27T10:14:59Z</time>
      </trkpt>
      <trkpt lat="46.83443" lon="4.72041">
        <ele>234.5251</ele>
        <time>2011-02-27T10:15:01Z</time>
      </trkpt>
      <trkpt lat="46.83428" lon="4.72069">
        <ele>234.371518</ele>
        <time>2011-02-27T10:15:04Z</time>
      </trkpt>
      <trkpt lat="46.83413" lon="4.72096">
        <ele>234.032464</ele>
        <time>2011-02-27T10:15:07Z</time>
      </trkpt>
      <trkpt lat="46.83405" lon="4.72111">
        <ele>233.336691</ele>
        <time>2011-02-27T10:15:09Z</time>
      </trkpt>
      <trkpt lat="46.83392" lon="4.72133">
        <ele>232.354925</ele>
        <time>2011-02-27T10:15:12Z</time>
      </trkpt>
      <trkpt lat="46.83377" lon="4.7215">
        <ele>231.378034</ele>
        <time>2011-02-27T10:15:15Z</time>
      </trkpt>
      <trkpt lat="46.83368" lon="4.72161">
        <ele>230.689482</ele>
        <time>2011-02-27T10:15:17Z</time>
      </trkpt>
      <trkpt lat="46.83359" lon="4.7217">
        <ele>230.370633</ele>
        <time>2011-02-27T10:15:19Z</time>
      </trkpt>
      <trkpt lat="46.83348" lon="4.72185">
        <ele>230.281808</ele>
        <time>2011-02-27T10:15:22Z</time>
      </trkpt>
      <trkpt lat="46.83344" lon="4.72199">
        <ele>230.263821</ele>
        <time>2011-02-27T10:15:25Z</time>
      </trkpt>
      <trkpt lat="46.83344" lon="4.72199">
        <ele>230.212033</ele>
        <time>2011-02-27T10:15:28Z</time>
      </trkpt>
      <trkpt lat="46.83357" lon="4.72198">
        <ele>230.078191</ele>
        <time>2011-02-27T10:16:00Z</time>
      </trkpt>
      <trkpt lat="46.83365" lon="4.72189">
        <ele>229.884443</ele>
        <time>2011-02-27T10:16:03Z</time>
      </trkpt>
      <trkpt lat="46.83373" lon="4.72179">
        <ele>229.695168</ele>
        <time>2011-02-27T10:16:06Z</time>
      </trkpt>
      <trkpt lat="46.83383" lon="4.72166">
        <ele>229.428208</ele>
        <time>2011-02-27T10:16:09Z</time>
      </trkpt>
      <trkpt lat="46.83389" lon="4.72156">
        <ele>228.964326</ele>
        <time>2011-02-27T10:16:11Z</time>
      </trkpt>
      <trkpt lat="46.83395" lon="4.72146">
        <ele>228.394015</ele>
        <time>2011-02-27T10:16:13Z</time>
      </trkpt>
      <trkpt lat="46.83403" lon="4.7213">
        <ele>227.533086</ele>
        <time>2011-02-27T10:16:16Z</time>
      </trkpt>
      <trkpt lat="46.83411" lon="4.72114">
        <ele>226.02283</ele>
        <time>2011-02-27T10:16:19Z</time>
      </trkpt>
      <trkpt lat="46.8342" lon="4.72098">
        <ele>224.160234</ele>
        <time>2011-02-27T10:16:22Z</time>
      </trkpt>
      <trkpt lat="46.83429" lon="4.72083">
        <ele>222.561634</ele>
        <time>2011-02-27T10:16:25Z</time>
      </trkpt>
      <trkpt lat="46.83437" lon="4.72068">
        <ele>221.418363</ele>
        <time>2011-02-27T10:16:28Z</time>
      </trkpt>
      <trkpt lat="46.83442" lon="4.72057">
        <ele>220.708613</ele>
        <time>2011-02-27T10:16:30Z</time>
      </trkpt>
      <trkpt lat="46.83447" lon="4.72047">
        <ele>220.402286</ele>
        <time>2011-02-27T10:16:32Z</time>
      </trkpt>
      <trkpt lat="46.83455" lon="4.72031">
        <ele>220.374162</ele>
        <time>2011-02-27T10:16:35Z</time>
      </trkpt>
      <trkpt lat="46.83462" lon="4.72016">
        <ele>220.440294</ele>
        <time>2011-02-27T10:16:38Z</time>
      </trkpt>
      <trkpt lat="46.8347" lon="4.72">
        <ele>220.498036</ele>
        <time>2011-02-27T10:16:41Z</time>
      </trkpt>
      <trkpt lat="46.83477" lon="4.71985">
        <ele>220.522613</ele>
        <time>2011-02-27T10:16:44Z</time>
      </trkpt>
      <trkpt lat="46.83484" lon="4.71968">
        <ele>220.486501</ele>
        <time>2011-02-27T10:16:47Z</time>
      </trkpt>
      <trkpt lat="46.83489" lon="4.71955">
        <ele>220.337339</ele>
        <time>2011-02-27T10:16:49Z</time>
      </trkpt>
      <trkpt lat="46.83498" lon="4.71937">
        <ele>220.115169</ele>
        <time>2011-02-27T10:16:52Z</time>
      </trkpt>
      <trkpt lat="46.83504" lon="4.71925">
        <ele>219.94626</ele>
        <time>2011-02-27T10:16:54Z</time>
      </trkpt>
      <trkpt lat="46.83512" lon="4.71908">
        <ele>219.882547</ele>
        <time>2011-02-27T10:16:57Z</time>
      </trkpt>
      <trkpt lat="46.83518" lon="4.71896">
        <ele>219.878003</ele>
        <time>2011-02-27T10:16:59Z</time>
      </trkpt>
      <trkpt lat="46.83526" lon="4.71877">
        <ele>219.883919</ele>
        <time>2011-02-27T10:17:02Z</time>
      </trkpt>
      <trkpt lat="46.8353" lon="4.71865">
        <ele>219.884901</ele>
        <time>2011-02-27T10:17:04Z</time>
      </trkpt>
      <trkpt lat="46.8354" lon="4.71848">
        <ele>219.883955</ele>
        <time>2011-02-27T10:17:07Z</time>
      </trkpt>
      <trkpt lat="46.83553" lon="4.71834">
        <ele>219.882963</ele>
        <time>2011-02-27T10:17:10Z</time>
      </trkpt>
      <trkpt lat="46.83564" lon="4.71818">
        <ele>219.882487</ele>
        <time>2011-02-27T10:17:13Z</time>
      </trkpt>
      <trkpt lat="46.83568" lon="4.71806">
        <ele>219.882411</ele>
        <time>2011-02-27T10:17:15Z</time>
      </trkpt>
      <trkpt lat="46.83575" lon="4.71791">
        <ele>219.885817</ele>
        <time>2011-02-27T10:17:18Z</time>
      </trkpt>
      <trkpt lat="46.83581" lon="4.71779">
        <ele>219.894564</ele>
        <time>2011-02-27T10:17:21Z</time>
      </trkpt>
      <trkpt lat="46.83587" lon="4.71764">
        <ele>219.903498</ele>
        <time>2011-02-27T10:17:24Z</time>
      </trkpt>
      <trkpt lat="46.83592" lon="4.71748">
        <ele>219.907723</ele>
        <time>2011-02-27T10:17:27Z</time>
      </trkpt>
      <trkpt lat="46.83597" lon="4.71733">
        <ele>219.852685</ele>
        <time>2011-02-27T10:17:30Z</time>
      </trkpt>
      <trkpt lat="46.83603" lon="4.71718">
        <ele>219.706005</ele>
        <time>2011-02-27T10:17:33Z</time>
      </trkpt>
      <trkpt lat="46.83608" lon="4.71704">
        <ele>219.433856</ele>
        <time>2011-02-27T10:17:36Z</time>
      </trkpt>
      <trkpt lat="46.83619" lon="4.71711">
        <ele>219.020875</ele>
        <time>2011-02-27T10:17:39Z</time>
      </trkpt>
      <trkpt lat="46.8363" lon="4.71722">
        <ele>218.617849</ele>
        <time>2011-02-27T10:17:42Z</time>
      </trkpt>
      <trkpt lat="46.83642" lon="4.71726">
        <ele>218.403637</ele>
        <time>2011-02-27T10:17:45Z</time>
      </trkpt>
      <trkpt lat="46.83642" lon="4.71726">
        <ele>218.351888</ele>
        <time>2011-02-27T10:17:46Z</time>
      </trkpt>
      <trkpt lat="46.83642" lon="4.71726">
        <ele>218.355698</ele>
        <time>2011-02-27T10:18:18Z</time>
      </trkpt>
      <trkpt lat="46.83654" lon="4.71719">
        <ele>218.348314</ele>
        <time>2011-02-27T10:19:00Z</time>
      </trkpt>
      <trkpt lat="46.83654" lon="4.71719">
        <ele>218.32006</ele>
        <time>2011-02-27T10:19:00Z</time>
      </trkpt>
      <trkpt lat="46.83654" lon="4.71719">
        <ele>218.269916</ele>
        <time>2011-02-27T10:19:01Z</time>
      </trkpt>
      <trkpt lat="46.83654" lon="4.71719">
        <ele>218.199027</ele>
        <time>2011-02-27T10:19:04Z</time>
      </trkpt>
      <trkpt lat="46.83635" lon="4.7172">
        <ele>218.133547</ele>
        <time>2011-02-27T10:19:10Z</time>
      </trkpt>
      <trkpt lat="46.83629" lon="4.71734">
        <ele>218.097355</ele>
        <time>2011-02-27T10:19:13Z</time>
      </trkpt>
      <trkpt lat="46.83622" lon="4.7175">
        <ele>218.698396</ele>
        <time>2011-02-27T10:19:16Z</time>
      </trkpt>
      <trkpt lat="46.83614" lon="4.71763">
        <ele>220.472836</ele>
        <time>2011-02-27T10:19:19Z</time>
      </trkpt>
      <trkpt lat="46.83606" lon="4.71776">
        <ele>222.729042</ele>
        <time>2011-02-27T10:19:22Z</time>
      </trkpt>
      <trkpt lat="46.83598" lon="4.7179">
        <ele>224.442001</ele>
        <time>2011-02-27T10:19:25Z</time>
      </trkpt>
      <trkpt lat="46.83589" lon="4.71803">
        <ele>225.363254</ele>
        <time>2011-02-27T10:19:28Z</time>
      </trkpt>
      <trkpt lat="46.8358" lon="4.7182">
        <ele>225.638754</ele>
        <time>2011-02-27T10:19:31Z</time>
      </trkpt>
      <trkpt lat="46.83573" lon="4.71834">
        <ele>225.583434</ele>
        <time>2011-02-27T10:19:33Z</time>
      </trkpt>
      <trkpt lat="46.83565" lon="4.71848">
        <ele>225.46334</ele>
        <time>2011-02-27T10:19:35Z</time>
      </trkpt>
      <trkpt lat="46.83553" lon="4.71869">
        <ele>225.388794</ele>
        <time>2011-02-27T10:19:38Z</time>
      </trkpt>
      <trkpt lat="46.83546" lon="4.71883">
        <ele>225.373092</ele>
        <time>2011-02-27T10:19:40Z</time>
      </trkpt>
      <trkpt lat="46.83532" lon="4.71902">
        <ele>225.39389</ele>
        <time>2011-02-27T10:19:43Z</time>
      </trkpt>
      <trkpt lat="46.83523" lon="4.71919">
        <ele>225.420971</ele>
        <time>2011-02-27T10:19:46Z</time>
      </trkpt>
      <trkpt lat="46.83517" lon="4.71931">
        <ele>225.467485</ele>
        <time>2011-02-27T10:19:48Z</time>
      </trkpt>
      <trkpt lat="46.83505" lon="4.7195">
        <ele>225.599264</ele>
        <time>2011-02-27T10:19:51Z</time>
      </trkpt>
      <trkpt lat="46.83498" lon="4.71963">
        <ele>225.802919</ele>
        <time>2011-02-27T10:19:53Z</time>
      </trkpt>
      <trkpt lat="46.83486" lon="4.71982">
        <ele>225.965625</ele>
        <time>2011-02-27T10:19:56Z</time>
      </trkpt>
      <trkpt lat="46.83478" lon="4.71995">
        <ele>226.029948</ele>
        <time>2011-02-27T10:19:58Z</time>
      </trkpt>
      <trkpt lat="46.83465" lon="4.72015">
        <ele>226.010474</ele>
        <time>2011-02-27T10:20:01Z</time>
      </trkpt>
      <trkpt lat="46.83458" lon="4.7203">
        <ele>225.829183</ele>
        <time>2011-02-27T10:20:03Z</time>
      </trkpt>
      <trkpt lat="46.83447" lon="4.72051">
        <ele>225.376841</ele>
        <time>2011-02-27T10:20:06Z</time>
      </trkpt>
      <trkpt lat="46.83437" lon="4.72069">
        <ele>224.668907</ele>
        <time>2011-02-27T10:20:09Z</time>
      </trkpt>
      <trkpt lat="46.8343" lon="4.72081">
        <ele>223.858937</ele>
        <time>2011-02-27T10:20:11Z</time>
      </trkpt>
      <trkpt lat="46.83417" lon="4.72105">
        <ele>223.134239</ele>
        <time>2011-02-27T10:20:14Z</time>
      </trkpt>
      <trkpt lat="46.83408" lon="4.72121">
        <ele>222.641872</ele>
        <time>2011-02-27T10:20:16Z</time>
      </trkpt>
      <trkpt lat="46.83399" lon="4.72136">
        <ele>222.420454</ele>
        <time>2011-02-27T10:20:18Z</time>
      </trkpt>
      <trkpt lat="46.83385" lon="4.72153">
        <ele>222.394242</ele>
        <time>2011-02-27T10:20:21Z</time>
      </trkpt>
      <trkpt lat="46.83372" lon="4.72171">
        <ele>222.437618</ele>
        <time>2011-02-27T10:20:24Z</time>
      </trkpt>
      <trkpt lat="46.83363" lon="4.72184">
        <ele>222.477704</ele>
        <time>2011-02-27T10:20:26Z</time>
      </trkpt>
      <trkpt lat="46.83353" lon="4.72199">
        <ele>222.495488</ele>
        <time>2011-02-27T10:20:28Z</time>
      </trkpt>
      <trkpt lat="46.83345" lon="4.72215">
        <ele>222.46357</ele>
        <time>2011-02-27T10:20:30Z</time>
      </trkpt>
      <trkpt lat="46.83338" lon="4.72233">
        <ele>222.343835</ele>
        <time>2011-02-27T10:20:32Z</time>
      </trkpt>
      <trkpt lat="46.83327" lon="4.72256">
        <ele>222.116049</ele>
        <time>2011-02-27T10:20:35Z</time>
      </trkpt>
      <trkpt lat="46.83319" lon="4.72272">
        <ele>221.785632</ele>
        <time>2011-02-27T10:20:37Z</time>
      </trkpt>
      <trkpt lat="46.83308" lon="4.72293">
        <ele>221.394583</ele>
        <time>2011-02-27T10:20:40Z</time>
      </trkpt>
      <trkpt lat="46.83298" lon="4.72311">
        <ele>220.998738</ele>
        <time>2011-02-27T10:20:43Z</time>
      </trkpt>
      <trkpt lat="46.8329" lon="4.72325">
        <ele>220.634987</ele>
        <time>2011-02-27T10:20:46Z</time>
      </trkpt>
      <trkpt lat="46.8329" lon="4.72325">
        <ele>220.362696</ele>
        <time>2011-02-27T10:20:50Z</time>
      </trkpt>
      <trkpt lat="46.83284" lon="4.72355">
        <ele>220.075438</ele>
        <time>2011-02-27T10:20:57Z</time>
      </trkpt>
      <trkpt lat="46.83279" lon="4.72368">
        <ele>219.457295</ele>
        <time>2011-02-27T10:21:00Z</time>
      </trkpt>
      <trkpt lat="46.8327" lon="4.72378">
        <ele>218.407597</ele>
        <time>2011-02-27T10:21:04Z</time>
      </trkpt>
      <trkpt lat="46.83268" lon="4.72392">
        <ele>217.271007</ele>
        <time>2011-02-27T10:21:09Z</time>
      </trkpt>
      <trkpt lat="46.83268" lon="4.72392">
        <ele>216.475818</ele>
        <time>2011-02-27T10:21:10Z</time>
      </trkpt>
      <trkpt lat="46.83275" lon="4.72411">
        <ele>216.144472</ele>
        <time>2011-02-27T10:21:15Z</time>
      </trkpt>
      <trkpt lat="46.83275" lon="4.72411">
        <ele>216.099009</ele>
        <time>2011-02-27T10:21:20Z</time>
      </trkpt>
      <trkpt lat="46.83275" lon="4.72411">
        <ele>216.134215</ele>
        <time>2011-02-27T10:22:15Z</time>
      </trkpt>
    </trkseg>
  </trk>
</gpx>